Provisional Data: Young Woman's Creek near North Bend, PA


Please select a monitoring station.
Please select start date.
Please select start date.

Toggle Unit: C/F Toggle Unit: C/F
Sample Time Temperature (C) Temperature (F) Specific Conductivity (mS/cm) pH   Turbidity (NTU+) DO (mg/L)
10/20/2020 12:00:00 AM 9.94 49.892 0.05 7.01 2.48 10.51
10/20/2020 12:15:00 AM 9.95 49.91 0.05 7.07 2.45 10.52
10/20/2020 12:30:00 AM 9.96 49.928 0.05 7.09 2.41 10.51
10/20/2020 12:45:00 AM 9.97 49.946 0.05 7.09 2.43 10.51
10/20/2020 1:00:00 AM 9.98 49.964 0.05 6.97 2.52 10.51
10/20/2020 1:15:00 AM 9.99 49.982 0.05 7.09 2.43 10.51
10/20/2020 1:30:00 AM 10.01 50.018 0.05 7.09 2.49 10.51
10/20/2020 1:45:00 AM 10.02 50.036 0.05 7.08 2.52 10.51
10/20/2020 2:00:00 AM 10.03 50.054 0.05 7.06 2.45 10.5
10/20/2020 2:15:00 AM 10.04 50.072 0.05 7.06 2.51 10.49
10/20/2020 2:30:00 AM 10.05 50.09 0.05 7.09 2.58 10.48
10/20/2020 2:45:00 AM 10.06 50.108 0.05 7.08 2.46 10.48
10/20/2020 3:00:00 AM 10.07 50.126 0.05 7.09 2.49 10.47
10/20/2020 3:15:00 AM 10.08 50.144 0.051 7.04 2.47 10.48
10/20/2020 3:30:00 AM 10.09 50.162 0.051 7.09 2.49 10.48
10/20/2020 3:45:00 AM 10.1 50.18 0.051 7 2.46 10.47
10/20/2020 4:00:00 AM 10.11 50.198 0.051 7.1 2.65 10.48
10/20/2020 4:15:00 AM 10.12 50.216 0.051 7.09 2.49 10.47
10/20/2020 4:30:00 AM 10.12 50.216 0.051 7.09 2.55 10.48
10/20/2020 4:45:00 AM 10.13 50.234 0.051 7.09 2.5 10.48
10/20/2020 5:00:00 AM 10.14 50.252 0.051 7.09 2.5 10.48
10/20/2020 5:15:00 AM 10.15 50.27 0.051 7.08 2.53 10.49
10/20/2020 5:30:00 AM 10.16 50.288 0.051 7.09 2.61 10.49
10/20/2020 5:45:00 AM 10.17 50.306 0.051 7.08 2.48 10.49
10/20/2020 6:00:00 AM 10.17 50.306 0.051 6.99 2.64 10.48
10/20/2020 6:15:00 AM 10.18 50.324 0.051 7.09 2.44 10.49
10/20/2020 6:30:00 AM 10.19 50.342 0.051 7.01 2.49 10.5
10/20/2020 6:45:00 AM 10.2 50.36 0.051 7.09 2.63 10.49
10/20/2020 7:00:00 AM 10.21 50.378 0.051 7.08 2.39 10.49
10/20/2020 7:15:00 AM 10.22 50.396 0.051 7.08 2.56 10.49
10/20/2020 7:30:00 AM 10.22 50.396 0.05 7.05 2.49 10.5
10/20/2020 7:45:00 AM 10.23 50.414 0.05 7.08 2.53 10.49
10/20/2020 8:00:00 AM 10.24 50.432 0.05 6.98 2.54 10.5
10/20/2020 8:15:00 AM 10.26 50.468 0.05 7.09 2.55 10.5
10/20/2020 8:30:00 AM 10.27 50.486 0.05 6.97 2.58 10.5
10/20/2020 8:45:00 AM 10.28 50.504 0.05 7.09 2.51 10.53
10/20/2020 9:00:00 AM 10.31 50.558 0.05 7.03 2.5 10.55
10/20/2020 9:15:00 AM 10.35 50.63 0.05 7.1 2.55 10.57
10/20/2020 9:30:00 AM 10.39 50.702 0.05 7.03 2.46 10.58
10/20/2020 9:45:00 AM 10.42 50.756 0.05 7.12 2.54 10.58
10/20/2020 10:00:00 AM 10.45 50.81 0.05 7.11 2.56 10.59
10/20/2020 10:15:00 AM 10.48 50.864 0.05 7.11 2.73 10.6
10/20/2020 10:30:00 AM 10.51 50.918 0.05 6.99 2.55 10.6
10/20/2020 10:45:00 AM 10.54 50.972 0.05 7.09 2.61 10.6
10/20/2020 11:00:00 AM 10.59 51.062 0.05 7.09 2.52 10.6
10/20/2020 11:15:00 AM 10.61 51.098 0.05 7.09 2.55 10.59
10/20/2020 11:30:00 AM 10.64 51.152 0.05 7.1 2.62 10.58
10/20/2020 11:45:00 AM 10.67 51.206 0.05 7.13 2.51 10.58
10/20/2020 12:00:00 PM 10.69 51.242 0.05 7.02 2.55 10.56
10/20/2020 12:15:00 PM 10.72 51.296 0.05 7.1 2.62 10.57
10/20/2020 12:30:00 PM 10.77 51.386 0.05 7.13 2.58 10.57
10/20/2020 12:45:00 PM 10.82 51.476 0.05 7.14 2.59 10.58
10/20/2020 1:00:00 PM 10.88 51.584 0.05 7.14 2.52 10.59
10/20/2020 1:15:00 PM 10.95 51.71 0.05 7.15 2.83 10.58
10/20/2020 1:30:00 PM 11.01 51.818 0.05 7.05 2.55 10.57
10/20/2020 1:45:00 PM 11.03 51.854 0.05 7.18 2.56 10.54
10/20/2020 2:00:00 PM 11.06 51.908 0.05 7.13 2.55 10.53
10/20/2020 2:15:00 PM 11.09 51.962 0.05 7.17 2.5 10.53
10/20/2020 2:30:00 PM 11.16 52.088 0.05 7.05 2.65 10.53
10/20/2020 2:45:00 PM 11.22 52.196 0.05 7.17 2.51 10.51
10/20/2020 3:00:00 PM 11.24 52.232 0.05 7.17 2.59 10.48
10/20/2020 3:15:00 PM 11.25 52.25 0.05 7.16 2.73 10.46
10/20/2020 3:30:00 PM 11.26 52.268 0.05 7.15 2.62 10.44
10/20/2020 3:45:00 PM 11.3 52.34 0.05 7.15 2.54 10.44
10/20/2020 4:00:00 PM 11.35 52.43 0.05 7.16 2.69 10.45
10/20/2020 4:15:00 PM 11.4 52.52 0.05 7.08 2.58 10.44
10/20/2020 4:30:00 PM 11.42 52.556 0.05 7.17 2.53 10.4
10/20/2020 4:45:00 PM 11.43 52.574 0.05 7.15 2.55 10.39
10/20/2020 5:00:00 PM 11.44 52.592 0.05 7.12 2.6 10.36
10/20/2020 5:15:00 PM 11.45 52.61 0.05 7.1 2.56 10.33
10/20/2020 5:30:00 PM 11.45 52.61 0.05 7.14 2.49 10.31
10/20/2020 5:45:00 PM 11.46 52.628 0.05 7.06 2.72 10.3
10/20/2020 6:00:00 PM 11.46 52.628 0.05 7.07 2.61 10.28
10/20/2020 6:15:00 PM 11.47 52.646 0.05 7.11 2.59 10.27
10/20/2020 6:30:00 PM 11.48 52.664 0.05 7.09 2.55 10.25
10/20/2020 6:45:00 PM 11.48 52.664 0.05 7.09 2.56 10.25
10/20/2020 7:00:00 PM 11.49 52.682 0.05 7.09 2.53 10.24
10/20/2020 7:15:00 PM 11.49 52.682 0.05 7.09 2.59 10.23
10/20/2020 7:30:00 PM 11.51 52.718 0.05 7.08 2.57 10.23
10/20/2020 7:45:00 PM 11.53 52.754 0.05 7.06 2.43 10.23
10/20/2020 8:00:00 PM 11.54 52.772 0.051 7.12 2.54 10.22
10/20/2020 8:15:00 PM 11.54 52.772 0.051 7.02 2.5 10.22
10/20/2020 8:30:00 PM 11.55 52.79 0.051 7.13 2.47 10.21
10/20/2020 8:45:00 PM 11.54 52.772 0.051 7.02 2.53 10.22
10/20/2020 9:00:00 PM 11.53 52.754 0.051 7.13 2.39 10.21
10/20/2020 9:15:00 PM 11.52 52.736 0.051 7.1 2.46 10.21
10/20/2020 9:30:00 PM 11.51 52.718 0.051 7.12 2.44 10.22
10/20/2020 9:45:00 PM 11.51 52.718 0.051 7.11 3.62 10.21
10/20/2020 10:00:00 PM 11.5 52.7 0.051 7.12 2.37 10.22
10/20/2020 10:15:00 PM 11.49 52.682 0.051 7.07 2.39 10.22
10/20/2020 10:30:00 PM 11.48 52.664 0.051 7.07 2.34 10.22
10/20/2020 10:45:00 PM 11.47 52.646 0.051 7.09 2.35 10.23
10/20/2020 11:00:00 PM 11.46 52.628 0.051 7.13 2.29 10.22
10/20/2020 11:15:00 PM 11.45 52.61 0.051 7.13 2.38 10.23
10/20/2020 11:30:00 PM 11.45 52.61 0.051 7.13 2.43 10.22
10/20/2020 11:45:00 PM 11.44 52.592 0.051 7.13 2.27 10.22
10/21/2020 12:00:00 AM 11.43 52.574 0.051 7.13 2.26 10.23
10/21/2020 12:15:00 AM 11.42 52.556 0.051 7.13 2.3 10.23
10/21/2020 12:30:00 AM 11.41 52.538 0.051 7.05 2.25 10.23
10/21/2020 12:45:00 AM 11.4 52.52 0.051 7.13 2.36 10.23
10/21/2020 1:00:00 AM 11.4 52.52 0.051 7.13 2.26 10.23
10/21/2020 1:15:00 AM 11.39 52.502 0.051 7.14 2.25 10.23
10/21/2020 1:30:00 AM 11.38 52.484 0.051 7.14 2.35 10.24
10/21/2020 1:45:00 AM 11.38 52.484 0.051 7.13 2.22 10.24
10/21/2020 2:00:00 AM 11.37 52.466 0.051 7.12 2.26 10.24
10/21/2020 2:15:00 AM 11.37 52.466 0.051 7.13 2.24 10.24
10/21/2020 2:30:00 AM 11.36 52.448 0.051 7.12 2.31 10.24
10/21/2020 2:45:00 AM 11.35 52.43 0.051 7.12 2.22 10.24
10/21/2020 3:00:00 AM 11.34 52.412 0.051 7.12 2.26 10.25
10/21/2020 3:15:00 AM 11.34 52.412 0.051 7.12 2.3 10.24
10/21/2020 3:30:00 AM 11.33 52.394 0.051 7.12 2.22 10.25
10/21/2020 3:45:00 AM 11.32 52.376 0.051 7.06 2.24 10.25
10/21/2020 4:00:00 AM 11.32 52.376 0.051 7.13 2.3 10.26
10/21/2020 4:15:00 AM 11.3 52.34 0.051 7.12 2.19 10.26
10/21/2020 4:30:00 AM 11.3 52.34 0.051 7.12 2.28 10.26
10/21/2020 4:45:00 AM 11.29 52.322 0.051 7.02 2.26 10.26
10/21/2020 5:00:00 AM 11.28 52.304 0.051 7.12 2.24 10.26
10/21/2020 5:15:00 AM 11.27 52.286 0.051 7.13 2.25 10.26
10/21/2020 5:30:00 AM 11.24 52.232 0.051 7.12 2.24 10.27
10/21/2020 5:45:00 AM 11.22 52.196 0.051 7.11 2.23 10.28
10/21/2020 6:00:00 AM 11.21 52.178 0.051 7 2.23 10.28
10/21/2020 6:15:00 AM 11.2 52.16 0.051 7.11 2.27 10.29
10/21/2020 6:30:00 AM 11.17 52.106 0.051 7.11 2.22 10.3
10/21/2020 6:45:00 AM 11.15 52.07 0.051 7 2.18 10.3
10/21/2020 7:00:00 AM 11.13 52.034 0.051 7.12 2.25 10.31
10/21/2020 7:15:00 AM 11.12 52.016 0.051 7.11 2.24 10.32
10/21/2020 7:30:00 AM 11.11 51.998 0.051 6.99 2.26 10.32
10/21/2020 7:45:00 AM 11.11 51.998 0.051 7.12 2.27 10.33
10/21/2020 8:00:00 AM 11.11 51.998 0.051 7.05 2.32 10.34
10/21/2020 8:15:00 AM 11.11 51.998 0.051 7.13 2.24 10.36
10/21/2020 8:30:00 AM 11.12 52.016 0.051 7.13 2.49 10.38
10/21/2020 8:45:00 AM 11.13 52.034 0.051 7.13 2.21 10.4
10/21/2020 9:00:00 AM 11.16 52.088 0.051 7.13 2.31 10.43
10/21/2020 9:15:00 AM 11.19 52.142 0.05 7.14 2.3 10.44
10/21/2020 9:30:00 AM 11.22 52.196 0.05 7.15 2.24 10.45
10/21/2020 9:45:00 AM 11.24 52.232 0.05 7.15 2.27 10.46
10/21/2020 10:00:00 AM 11.26 52.268 0.05 7.15 2.22 10.45
10/21/2020 10:15:00 AM 11.27 52.286 0.05 7.16 2.2 10.45
10/21/2020 10:30:00 AM 11.31 52.358 0.05 7.15 2.23 10.45
10/21/2020 10:45:00 AM 11.38 52.484 0.05 7.16 2.23 10.46
10/21/2020 11:00:00 AM 11.47 52.646 0.05 7.17 2.43 10.46
10/21/2020 11:15:00 AM 11.59 52.862 0.05 7.17 2.23 10.46
10/21/2020 11:30:00 AM 11.68 53.024 0.05 7.18 2.22 10.45
10/21/2020 11:45:00 AM 11.82 53.276 0.05 7.19 2.22 10.43
10/21/2020 12:00:00 PM 11.97 53.546 0.05 7.2 2.21 10.41
10/21/2020 12:15:00 PM 12.09 53.762 0.05 7.19 2.22 10.39
10/21/2020 12:30:00 PM 12.38 54.284 0.05 7.22 2.22 10.36
10/21/2020 12:45:00 PM 12.66 54.788 0.05 7.25 2.43 10.32
10/21/2020 1:00:00 PM 12.83 55.094 0.05 7.26 2.15 10.27
10/21/2020 1:15:00 PM 12.85 55.13 0.05 7.24 2.18 10.22
10/21/2020 1:30:00 PM 12.93 55.274 0.05 7.24 2.22 10.22
10/21/2020 1:45:00 PM 13.04 55.472 0.05 7.23 2.27 10.18
10/21/2020 2:00:00 PM 13.01 55.418 0.05 7.23 2.2 10.14
10/21/2020 2:15:00 PM 13.05 55.49 0.05 7.17 2.23 10.12
10/21/2020 2:30:00 PM 13.08 55.544 0.05 7.21 2.21 10.09
10/21/2020 2:45:00 PM 13.13 55.634 0.05 7.09 2.28 10.07
10/21/2020 3:00:00 PM 13.2 55.76 0.05 7.21 2.28 10.04
10/21/2020 3:15:00 PM 13.26 55.868 0.05 7.13 2.23 10
10/21/2020 3:30:00 PM 13.33 55.994 0.05 7.2 2.23 9.99
10/21/2020 3:45:00 PM 13.4 56.12 0.05 7.08 2.24 9.98
10/21/2020 4:00:00 PM 13.48 56.264 0.05 7.19 2.27 9.96
10/21/2020 4:15:00 PM 13.53 56.354 0.05 7.14 2.27 9.9
10/21/2020 4:30:00 PM 13.54 56.372 0.05 7.19 2.26 9.85
10/21/2020 4:45:00 PM 13.54 56.372 0.05 7.17 2.27 9.84
10/21/2020 5:00:00 PM 13.57 56.426 0.05 7.18 2.16 9.84
10/21/2020 5:15:00 PM 13.57 56.426 0.05 7.17 2.23 9.82
10/21/2020 5:30:00 PM 13.56 56.408 0.05 7.15 2.21 9.78
10/21/2020 5:45:00 PM 13.55 56.39 0.05 7.15 2.26 9.75
10/21/2020 6:00:00 PM 13.54 56.372 0.05 7.13 2.33 9.73
10/21/2020 6:15:00 PM 13.53 56.354 0.05 7.12 2.3 9.72
10/21/2020 6:30:00 PM 13.5 56.3 0.05 7.12 2.31 9.7
10/21/2020 6:45:00 PM 13.49 56.282 0.05 7.11 2.27 9.7
10/21/2020 7:00:00 PM 13.48 56.264 0.05 7.11 2.3 9.69
10/21/2020 7:15:00 PM 13.47 56.246 0.05 7.01 2.41 9.68
10/21/2020 7:30:00 PM 13.46 56.228 0.05 7.11 2.34 9.68
10/21/2020 7:45:00 PM 13.45 56.21 0.05 7.1 2.22 9.67
10/21/2020 8:00:00 PM 13.44 56.192 0.051 7 2.26 9.67
10/21/2020 8:15:00 PM 13.45 56.21 0.051 7.05 2.28 9.66
10/21/2020 8:30:00 PM 13.45 56.21 0.051 7.07 2.21 9.65
10/21/2020 8:45:00 PM 13.45 56.21 0.051 7.05 2.22 9.66
10/21/2020 9:00:00 PM 13.46 56.228 0.051 7.08 2.2 9.65
10/21/2020 9:15:00 PM 13.47 56.246 0.051 7.08 2.25 9.65
10/21/2020 9:30:00 PM 13.47 56.246 0.051 7.08 2.16 9.64
10/21/2020 9:45:00 PM 13.47 56.246 0.051 7.04 2.3 9.64
10/21/2020 10:00:00 PM 13.46 56.228 0.051 7.07 2.2 9.64
10/21/2020 10:15:00 PM 13.45 56.21 0.051 7.06 2.2 9.64
10/21/2020 10:30:00 PM 13.45 56.21 0.051 7.07 2.18 9.64
10/21/2020 10:45:00 PM 13.43 56.174 0.051 7.06 2.23 9.64
10/21/2020 11:00:00 PM 13.43 56.174 0.051 7.06 2.29 9.65
10/21/2020 11:15:00 PM 13.43 56.174 0.051 7.06 2.29 9.64
10/21/2020 11:30:00 PM 13.43 56.174 0.051 7.06 2.26 9.65
10/21/2020 11:45:00 PM 13.42 56.156 0.051 7 2.36 9.64
10/22/2020 12:00:00 AM 13.4 56.12 0.051 7.03 2.26 9.65
10/22/2020 12:15:00 AM 13.39 56.102 0.051 7.03 2.28 9.65
10/22/2020 12:30:00 AM 13.37 56.066 0.051 7.05 2.33 9.66
10/22/2020 12:45:00 AM 13.34 56.012 0.051 7.05 2.37 9.66
10/22/2020 1:00:00 AM 13.33 55.994 0.051 6.96 2.3 9.67
10/22/2020 1:15:00 AM 13.32 55.976 0.051 7.02 2.24 9.67
10/22/2020 1:30:00 AM 13.32 55.976 0.051 7.06 2.28 9.67
10/22/2020 1:45:00 AM 13.31 55.958 0.051 7.06 2.15 9.67
10/22/2020 2:00:00 AM 13.3 55.94 0.051 6.95 2.17 9.67
10/22/2020 2:15:00 AM 13.29 55.922 0.051 7.05 2.34 9.68
10/22/2020 2:30:00 AM 13.27 55.886 0.051 7.05 2.22 9.68
10/22/2020 2:45:00 AM 13.26 55.868 0.051 7.05 2.23 9.68
10/22/2020 3:00:00 AM 13.25 55.85 0.051 7.03 2.19 9.68
10/22/2020 3:15:00 AM 13.24 55.832 0.052 7.03 2.25 9.69
10/22/2020 3:30:00 AM 13.23 55.814 0.052 7.03 2.15 9.69
10/22/2020 3:45:00 AM 13.22 55.796 0.052 7.04 2.24 9.69
10/22/2020 4:00:00 AM 13.21 55.778 0.052 7.03 2.28 9.69
10/22/2020 4:15:00 AM 13.2 55.76 0.052 6.98 2.16 9.69
10/22/2020 4:30:00 AM 13.19 55.742 0.052 6.98 2.52 9.7
10/22/2020 4:45:00 AM 13.17 55.706 0.052 7.02 2.14 9.7
10/22/2020 5:00:00 AM 13.16 55.688 0.052 7.03 2.21 9.71
10/22/2020 5:15:00 AM 13.15 55.67 0.052 7.03 2.17 9.71
10/22/2020 5:30:00 AM 13.14 55.652 0.052 7.03 2.26 9.71
10/22/2020 5:45:00 AM 13.12 55.616 0.052 6.99 2.16 9.71
10/22/2020 6:00:00 AM 13.11 55.598 0.052 7.03 2.18 9.72
10/22/2020 6:15:00 AM 13.1 55.58 0.052 7.03 2.07 9.72
10/22/2020 6:30:00 AM 13.09 55.562 0.052 6.92 2.09 9.73
10/22/2020 6:45:00 AM 13.07 55.526 0.052 7.03 2.29 9.73
10/22/2020 7:00:00 AM 13.07 55.526 0.052 7.03 2.23 9.74
10/22/2020 7:15:00 AM 13.06 55.508 0.052 7.03 2.38 9.73
10/22/2020 7:30:00 AM 13.05 55.49 0.052 7.03 2.21 9.74
10/22/2020 7:45:00 AM 13.04 55.472 0.052 6.91 2.25 9.74
10/22/2020 8:00:00 AM 13.03 55.454 0.052 7.01 2.21 9.76
10/22/2020 8:15:00 AM 13.03 55.454 0.052 7.03 2.19 9.78
10/22/2020 8:30:00 AM 13.03 55.454 0.052 6.92 2.18 9.79
10/22/2020 8:45:00 AM 13.03 55.454 0.052 7 2.14 9.8
10/22/2020 9:00:00 AM 13.04 55.472 0.052 7.05 2.51 9.81
10/22/2020 9:15:00 AM 13.06 55.508 0.052 7.05 2.44 9.85
10/22/2020 9:30:00 AM 13.1 55.58 0.052 7.06 2.2 9.89
10/22/2020 9:45:00 AM 13.12 55.616 0.052 7.07 2.14 9.89
10/22/2020 10:00:00 AM 13.13 55.634 0.052 6.99 2.15 9.9
10/22/2020 10:15:00 AM 13.13 55.634 0.052 7.05 2.19 9.89
10/22/2020 10:30:00 AM 13.16 55.688 0.052 7.12 2.14 9.9
10/22/2020 10:45:00 AM 13.24 55.832 0.051 7.13 2.27 9.91
10/22/2020 11:00:00 AM 13.33 55.994 0.051 7.09 2.09 9.91
10/22/2020 11:15:00 AM 13.44 56.192 0.051 7.15 2.11 9.92
10/22/2020 11:30:00 AM 13.61 56.498 0.051 7.18 2.13 9.92
10/22/2020 11:45:00 AM 13.79 56.822 0.051 7.2 2.12 9.9
10/22/2020 12:00:00 PM 14 57.2 0.051 7.16 2.18 9.88
10/22/2020 12:15:00 PM 14.21 57.578 0.051 7.21 2.27 9.85
10/22/2020 12:30:00 PM 14.45 58.01 0.051 7.23 2.19 9.81
10/22/2020 12:45:00 PM 14.64 58.352 0.051 7.26 2.29 9.77
10/22/2020 1:00:00 PM 14.94 58.892 0.051 7.28 2.38 9.72
10/22/2020 1:15:00 PM 15.19 59.342 0.051 7.28 2.18 9.67
10/22/2020 1:30:00 PM 15.43 59.774 0.051 7.28 2.23 9.62
10/22/2020 1:45:00 PM 15.58 60.044 0.051 7.22 2.21 9.57
10/22/2020 2:00:00 PM 15.66 60.188 0.051 7.26 2.37 9.53
10/22/2020 2:15:00 PM 15.72 60.296 0.051 7.25 2.17 9.5
10/22/2020 2:30:00 PM 15.75 60.35 0.051 7.24 2.19 9.46
10/22/2020 2:45:00 PM 15.73 60.314 0.051 7.15 2.17 9.43
10/22/2020 3:00:00 PM 15.72 60.296 0.051 7.22 2.12 9.41
10/22/2020 3:15:00 PM 15.65 60.17 0.051 7.21 2.16 9.36
10/22/2020 3:30:00 PM 15.64 60.152 0.051 7.11 2.25 9.33
10/22/2020 3:45:00 PM 15.69 60.242 0.051 7.21 2.12 9.31
10/22/2020 4:00:00 PM 15.73 60.314 0.051 7.14 2.28 9.28
10/22/2020 4:15:00 PM 15.77 60.386 0.051 7.2 2.15 9.26
10/22/2020 4:30:00 PM 15.78 60.404 0.051 7.2 2.17 9.23
10/22/2020 4:45:00 PM 15.77 60.386 0.051 7.19 2.21 9.2
10/22/2020 5:00:00 PM 15.77 60.386 0.051 7.17 2.17 9.19
10/22/2020 5:15:00 PM 15.74 60.332 0.051 7.05 2.15 9.17
10/22/2020 5:30:00 PM 15.7 60.26 0.051 7.14 2.15 9.14
10/22/2020 5:45:00 PM 15.64 60.152 0.051 7.15 2.18 9.13
10/22/2020 6:00:00 PM 15.57 60.026 0.051 7.04 2.22 9.12
10/22/2020 6:15:00 PM 15.5 59.9 0.051 7.12 2.19 9.12
10/22/2020 6:30:00 PM 15.42 59.756 0.051 7.1 2.2 9.12
10/22/2020 6:45:00 PM 15.34 59.612 0.051 7.1 2.22 9.12
10/22/2020 7:00:00 PM 15.26 59.468 0.051 7.01 2.27 9.13
10/22/2020 7:15:00 PM 15.18 59.324 0.051 7.05 2.25 9.14
10/22/2020 7:30:00 PM 15.11 59.198 0.051 7.09 2.27 9.14
10/22/2020 7:45:00 PM 15.04 59.072 0.051 7.08 2.21 9.15
10/22/2020 8:00:00 PM 14.98 58.964 0.051 6.97 2.2 9.17
10/22/2020 8:15:00 PM 14.93 58.874 0.051 7.08 2.24 9.18
10/22/2020 8:30:00 PM 14.88 58.784 0.051 6.97 2.22 9.19
10/22/2020 8:45:00 PM 14.81 58.658 0.051 7.08 2.2 9.2
10/22/2020 9:00:00 PM 14.76 58.568 0.051 7.08 2.26 9.21
10/22/2020 9:15:00 PM 14.7 58.46 0.052 7 2.25 9.23
10/22/2020 9:30:00 PM 14.66 58.388 0.052 7.05 2.24 9.23
10/22/2020 9:45:00 PM 14.61 58.298 0.052 7.09 2.25 9.24
10/22/2020 10:00:00 PM 14.57 58.226 0.052 6.98 2.22 9.25
10/22/2020 10:15:00 PM 14.53 58.154 0.052 7.09 2.26 9.25
10/22/2020 10:30:00 PM 14.5 58.1 0.052 6.99 2.17 9.25
10/22/2020 10:45:00 PM 14.46 58.028 0.052 7.05 2.21 9.26
10/22/2020 11:00:00 PM 14.42 57.956 0.052 7.09 2.16 9.26
10/22/2020 11:15:00 PM 14.39 57.902 0.052 6.99 2.27 9.27
10/22/2020 11:30:00 PM 14.35 57.83 0.052 7.08 2.24 9.29
10/22/2020 11:45:00 PM 14.32 57.776 0.052 6.98 2.2 9.29
10/23/2020 12:00:00 AM 14.28 57.704 0.052 7.06 2.25 9.3
10/23/2020 12:15:00 AM 14.24 57.632 0.052 7.06 2.53 9.31
10/23/2020 12:30:00 AM 14.2 57.56 0.052 7.08 2.19 9.32
10/23/2020 12:45:00 AM 14.16 57.488 0.052 7.1 2.23 9.33
10/23/2020 1:00:00 AM 14.12 57.416 0.052 7.11 2.16 9.34
10/23/2020 1:15:00 AM 14.08 57.344 0.052 7.1 2.15 9.34
10/23/2020 1:30:00 AM 14.04 57.272 0.052 7.09 2.26 9.36
10/23/2020 1:45:00 AM 13.99 57.182 0.052 7.1 2.3 9.37
10/23/2020 2:00:00 AM 13.94 57.092 0.052 6.99 2.34 9.38
10/23/2020 2:15:00 AM 13.9 57.02 0.052 7.1 2.22 9.39
10/23/2020 2:30:00 AM 13.85 56.93 0.052 7.1 2.23 9.4
10/23/2020 2:45:00 AM 13.8 56.84 0.052 7.1 2.21 9.41
10/23/2020 3:00:00 AM 13.75 56.75 0.052 7.1 2.17 9.43
10/23/2020 3:15:00 AM 13.7 56.66 0.052 7.1 2.25 9.44
10/23/2020 3:30:00 AM 13.65 56.57 0.052 7.09 2.16 9.46
10/23/2020 3:45:00 AM 13.6 56.48 0.052 7.11 2.23 9.47
10/23/2020 4:00:00 AM 13.55 56.39 0.052 7.09 2.2 9.48
10/23/2020 4:15:00 AM 13.49 56.282 0.052 7.11 2.27 9.5
10/23/2020 4:30:00 AM 13.44 56.192 0.052 7.1 2.2 9.52
10/23/2020 4:45:00 AM 13.39 56.102 0.052 7.04 2.28 9.53
10/23/2020 5:00:00 AM 13.34 56.012 0.052 7.03 2.26 9.55
10/23/2020 5:15:00 AM 13.31 55.958 0.052 7.12 2.14 9.56
10/23/2020 5:30:00 AM 13.28 55.904 0.052 7.07 2.23 9.57
10/23/2020 5:45:00 AM 13.25 55.85 0.052 7.12 2.18 9.57
10/23/2020 6:00:00 AM 13.22 55.796 0.052 7.11 2.23 9.59
10/23/2020 6:15:00 AM 13.19 55.742 0.052 7.11 2.19 9.6
10/23/2020 6:30:00 AM 13.15 55.67 0.052 7.12 2.25 9.61
10/23/2020 6:45:00 AM 13.11 55.598 0.052 7.11 2.27 9.62
10/23/2020 7:00:00 AM 13.07 55.526 0.052 7 2.23 9.63
10/23/2020 7:15:00 AM 13.04 55.472 0.052 7.13 2.23 9.64
10/23/2020 7:30:00 AM 13.02 55.436 0.052 7.01 2.27 9.66
10/23/2020 7:45:00 AM 12.98 55.364 0.052 7.12 2.28 9.68
10/23/2020 8:00:00 AM 12.94 55.292 0.052 7.09 2.31 9.69
10/23/2020 8:15:00 AM 12.9 55.22 0.052 7.12 2.27 9.72
10/23/2020 8:30:00 AM 12.87 55.166 0.052 7.04 2.3 9.75
10/23/2020 8:45:00 AM 12.86 55.148 0.052 7.14 2.26 9.78
10/23/2020 9:00:00 AM 12.86 55.148 0.052 7.11 2.28 9.82
10/23/2020 9:15:00 AM 12.87 55.166 0.052 7.14 2.23 9.86
10/23/2020 9:30:00 AM 12.9 55.22 0.052 7.12 2.24 9.88
10/23/2020 9:45:00 AM 12.93 55.274 0.052 7.16 2.24 9.89
10/23/2020 10:00:00 AM 12.93 55.274 0.052 7.17 2.32 9.89
10/23/2020 10:15:00 AM 12.97 55.346 0.052 7.18 2.18 9.89
10/23/2020 10:30:00 AM 13 55.4 0.052 7.17 2.22 9.89
10/23/2020 10:45:00 AM 13.06 55.508 0.052 7.14 2.75 9.89
10/23/2020 11:00:00 AM 13.17 55.706 0.052 7.19 2.28 9.89
10/23/2020 11:15:00 AM 13.31 55.958 0.052 7.2 2.22 9.89
10/23/2020 11:30:00 AM 13.48 56.264 0.051 7.23 2.23 9.89
10/23/2020 11:45:00 AM 13.69 56.642 0.051 7.21 2.18 9.87
10/23/2020 12:00:00 PM 13.89 57.002 0.051 7.28 2.1 9.84
10/23/2020 12:15:00 PM 14.11 57.398 0.051 7.29 2.21 9.82
10/23/2020 12:30:00 PM 14.39 57.902 0.051 7.3 2.12 9.78
10/23/2020 12:45:00 PM 14.68 58.424 0.051 7.3 2.19 9.74
10/23/2020 1:00:00 PM 14.96 58.928 0.051 7.22 2.24 9.68
10/23/2020 1:15:00 PM 15.23 59.414 0.051 7.31 2.2 9.63
10/23/2020 1:30:00 PM 15.48 59.864 0.051 7.2 2.13 9.57
10/23/2020 1:45:00 PM 15.62 60.116 0.051 7.29 2.21 9.51
10/23/2020 2:00:00 PM 15.74 60.332 0.051 7.18 2.16 9.46
10/23/2020 2:15:00 PM 15.67 60.206 0.051 7.23 2.19 9.41
10/23/2020 2:30:00 PM 15.63 60.134 0.051 7.25 2.2 9.39
10/23/2020 2:45:00 PM 15.58 60.044 0.051 7.14 2.22 9.38
10/23/2020 3:00:00 PM 15.65 60.17 0.051 7.23 4.09 9.37
10/23/2020 3:15:00 PM 15.66 60.188 0.051 7.23 2.15 9.33
10/23/2020 3:30:00 PM 15.63 60.134 0.051 7.22 2.2 9.29
10/23/2020 3:45:00 PM 15.67 60.206 0.051 7.21 2.21 9.27
10/23/2020 4:00:00 PM 15.68 60.224 0.051 7.21 2.2 9.21
10/23/2020 4:15:00 PM 15.68 60.224 0.051 7.09 2.21 9.18
10/23/2020 4:30:00 PM 15.69 60.242 0.051 7.16 2.4 9.16
10/23/2020 4:45:00 PM 15.69 60.242 0.051 7.19 2.34 9.13
10/23/2020 5:00:00 PM 15.67 60.206 0.051 7.18 2.18 9.1
10/23/2020 5:15:00 PM 15.65 60.17 0.051 7.14 2.23 9.07
10/23/2020 5:30:00 PM 15.65 60.17 0.051 7.13 2.27 9.05
10/23/2020 5:45:00 PM 15.61 60.098 0.051 7.14 2.19 9.03
10/23/2020 6:00:00 PM 15.57 60.026 0.051 7.16 2.19 9.02
10/23/2020 6:15:00 PM 15.52 59.936 0.052 7.13 2.22 9.01
10/23/2020 6:30:00 PM 15.46 59.828 0.052 7.04 2.26 9
10/23/2020 6:45:00 PM 15.4 59.72 0.052 7.1 2.34 8.99
10/23/2020 7:00:00 PM 15.33 59.594 0.052 7.13 2.28 9.01
10/23/2020 7:15:00 PM 15.26 59.468 0.052 7.01 2.27 9.01
10/23/2020 7:30:00 PM 15.2 59.36 0.052 7.12 2.24 9.02
10/23/2020 7:45:00 PM 15.13 59.234 0.052 7.11 2.22 9.02
10/23/2020 8:00:00 PM 15.07 59.126 0.052 7.11 2.25 9.03
10/23/2020 8:15:00 PM 15.01 59.018 0.052 6.99 2.27 9.05
10/23/2020 8:30:00 PM 14.95 58.91 0.052 7.11 2.27 9.05
10/23/2020 8:45:00 PM 14.9 58.82 0.052 7 2.27 9.07
10/23/2020 9:00:00 PM 14.85 58.73 0.052 7.1 2.24 9.08
10/23/2020 9:15:00 PM 14.79 58.622 0.052 7.05 2.32 9.09
10/23/2020 9:30:00 PM 14.74 58.532 0.052 7.11 2.21 9.1
10/23/2020 9:45:00 PM 14.7 58.46 0.052 7.11 2.22 9.11
10/23/2020 10:00:00 PM 14.66 58.388 0.052 7.11 2.19 9.12
10/23/2020 10:15:00 PM 14.62 58.316 0.052 7.12 2.21 9.12
10/23/2020 10:30:00 PM 14.58 58.244 0.052 7.12 2.23 9.13
10/23/2020 10:45:00 PM 14.54 58.172 0.052 7.12 2.2 9.14
10/23/2020 11:00:00 PM 14.51 58.118 0.052 7.02 2.23 9.14
10/23/2020 11:15:00 PM 14.47 58.046 0.052 7.12 2.82 9.14
10/23/2020 11:30:00 PM 14.45 58.01 0.052 7.12 2.31 9.15
10/23/2020 11:45:00 PM 14.41 57.938 0.052 7.12 2.34 9.16
10/24/2020 12:00:00 AM 14.38 57.884 0.052 7.12 2.2 9.16
10/24/2020 12:15:00 AM 14.35 57.83 0.052 7 2.2 9.17
10/24/2020 12:30:00 AM 14.33 57.794 0.052 7.12 2.3 9.18
10/24/2020 12:45:00 AM 14.29 57.722 0.052 7.07 2.24 9.18
10/24/2020 1:00:00 AM 14.27 57.686 0.052 7.12 2.26 9.19
10/24/2020 1:15:00 AM 14.24 57.632 0.052 7.13 2.33 9.19
10/24/2020 1:30:00 AM 14.22 57.596 0.052 7.12 2.29 9.21
10/24/2020 1:45:00 AM 14.21 57.578 0.052 7.13 2.22 9.2
10/24/2020 2:00:00 AM 14.2 57.56 0.052 7.1 2.58 9.22
10/24/2020 2:15:00 AM 14.19 57.542 0.052 7.11 2.43 9.19
10/24/2020 2:30:00 AM 14.19 57.542 0.052 7.11 2.32 9.17
10/24/2020 2:45:00 AM 14.18 57.524 0.052 7.09 2.3 9.17
10/24/2020 3:00:00 AM 14.17 57.506 0.052 7.11 2.28 9.17
10/24/2020 3:15:00 AM 14.16 57.488 0.052 7.11 2.22 9.18
10/24/2020 3:30:00 AM 14.14 57.452 0.052 7.11 2.27 9.19
10/24/2020 3:45:00 AM 14.12 57.416 0.052 7.11 2.27 9.19
10/24/2020 4:00:00 AM 14.1 57.38 0.052 7.11 2.34 9.2
10/24/2020 4:15:00 AM 14.08 57.344 0.052 7.11 2.25 9.21
10/24/2020 4:30:00 AM 14.08 57.344 0.052 7.11 2.27 9.21
10/24/2020 4:45:00 AM 14.07 57.326 0.052 7.06 2.41 9.22
10/24/2020 5:00:00 AM 14.06 57.308 0.052 7.11 2.68 9.22
10/24/2020 5:15:00 AM 14.05 57.29 0.052 6.97 2.53 9.2
10/24/2020 5:30:00 AM 14.03 57.254 0.051 7.1 2.38 9.19
10/24/2020 5:45:00 AM 14.02 57.236 0.052 7.1 2.34 9.18
10/24/2020 6:00:00 AM 14.01 57.218 0.052 7.09 2.26 9.18
10/24/2020 6:15:00 AM 14 57.2 0.052 7.09 2.38 9.2
10/24/2020 6:30:00 AM 13.99 57.182 0.052 7.09 2.28 9.2
10/24/2020 6:45:00 AM 13.98 57.164 0.052 7.01 2.36 9.21
10/24/2020 7:00:00 AM 13.97 57.146 0.052 7.1 2.36 9.23
10/24/2020 7:15:00 AM 13.96 57.128 0.052 7.1 2.32 9.23
10/24/2020 7:30:00 AM 13.94 57.092 0.052 7.11 2.33 9.24
10/24/2020 7:45:00 AM 13.9 57.02 0.052 7.11 2.29 9.26
10/24/2020 8:00:00 AM 13.87 56.966 0.052 7.12 2.25 9.27
10/24/2020 8:15:00 AM 13.83 56.894 0.052 7.13 2.27 9.28
10/24/2020 8:30:00 AM 13.8 56.84 0.052 7.1 2.5 9.32
10/24/2020 8:45:00 AM 13.77 56.786 0.052 7.13 2.59 9.36
10/24/2020 9:00:00 AM 13.76 56.768 0.052 7.15 2.25 9.43
10/24/2020 9:15:00 AM 13.74 56.732 0.052 7.16 2.44 9.46
10/24/2020 9:30:00 AM 13.71 56.678 0.052 7.16 2.21 9.5
10/24/2020 9:45:00 AM 13.68 56.624 0.051 7.17 2.43 9.52
10/24/2020 10:00:00 AM 13.67 56.606 0.051 7.17 2.24 9.55
10/24/2020 10:15:00 AM 13.65 56.57 0.051 7.18 2.4 9.58
10/24/2020 10:30:00 AM 13.62 56.516 0.051 7.19 2.37 9.59
10/24/2020 10:45:00 AM 13.59 56.462 0.051 7.19 2.26 9.62
10/24/2020 11:00:00 AM 13.61 56.498 0.051 7.2 2.33 9.67
10/24/2020 11:15:00 AM 13.66 56.588 0.051 7.22 2.24 9.7
10/24/2020 11:30:00 AM 13.66 56.588 0.051 7.22 2.32 9.71
10/24/2020 11:45:00 AM 13.66 56.588 0.051 7.22 2.27 9.72
10/24/2020 12:00:00 PM 13.66 56.588 0.051 7.23 2.27 9.72
10/24/2020 12:15:00 PM 13.68 56.624 0.051 7.23 2.25 9.74
10/24/2020 12:30:00 PM 13.66 56.588 0.051 7.24 2.29 9.74
10/24/2020 12:45:00 PM 13.67 56.606 0.051 7.19 2.31 9.75
10/24/2020 1:00:00 PM 13.66 56.588 0.051 7.24 2.3 9.76
10/24/2020 1:15:00 PM 13.69 56.642 0.051 7.24 2.28 9.77
10/24/2020 1:30:00 PM 13.7 56.66 0.051 7.24 2.24 9.78
10/24/2020 1:45:00 PM 13.72 56.696 0.051 7.24 2.28 9.78
10/24/2020 2:00:00 PM 13.73 56.714 0.051 7.25 2.29 9.78
10/24/2020 2:15:00 PM 13.77 56.786 0.051 7.25 2.28 9.78
10/24/2020 2:30:00 PM 13.75 56.75 0.051 7.25 2.27 9.78
10/24/2020 2:45:00 PM 13.63 56.534 0.051 7.24 2.34 9.75
10/24/2020 3:00:00 PM 13.58 56.444 0.051 7.21 2.3 9.75
10/24/2020 3:15:00 PM 13.54 56.372 0.051 7.21 2.27 9.75
10/24/2020 3:30:00 PM 13.5 56.3 0.051 7.21 2.24 9.73
10/24/2020 3:45:00 PM 13.44 56.192 0.051 7.21 2.28 9.73
10/24/2020 4:00:00 PM 13.38 56.084 0.051 7.2 2.34 9.72
10/24/2020 4:15:00 PM 13.29 55.922 0.051 7.19 2.24 9.7
10/24/2020 4:30:00 PM 13.23 55.814 0.051 7.18 2.33 9.69
10/24/2020 4:45:00 PM 13.17 55.706 0.051 7.18 2.3 9.69
10/24/2020 5:00:00 PM 13.13 55.634 0.051 7.18 2.3 9.69
10/24/2020 5:15:00 PM 13.08 55.544 0.051 7.18 2.29 9.69
10/24/2020 5:30:00 PM 13.04 55.472 0.051 7.18 2.38 9.69
10/24/2020 5:45:00 PM 12.99 55.382 0.051 7.17 2.28 9.7
10/24/2020 6:00:00 PM 12.93 55.274 0.051 7.18 2.35 9.69
10/24/2020 6:15:00 PM 12.86 55.148 0.051 7.18 2.22 9.7
10/24/2020 6:30:00 PM 12.78 55.004 0.051 7.14 2.44 9.7
10/24/2020 6:45:00 PM 12.69 54.842 0.051 7.17 2.37 9.71
10/24/2020 7:00:00 PM 12.6 54.68 0.051 7.16 2.46 9.72
10/24/2020 7:15:00 PM 12.5 54.5 0.051 7.15 2.37 9.74
10/24/2020 7:30:00 PM 12.4 54.32 0.051 7.15 2.46 9.77
10/24/2020 7:45:00 PM 12.31 54.158 0.051 7.16 2.43 9.79
10/24/2020 8:00:00 PM 12.22 53.996 0.051 7.15 2.41 9.82
10/24/2020 8:15:00 PM 12.13 53.834 0.051 7.16 2.32 9.84
10/24/2020 8:30:00 PM 12.05 53.69 0.051 7.15 2.35 9.86
10/24/2020 8:45:00 PM 11.97 53.546 0.051 7.15 2.36 9.88
10/24/2020 9:00:00 PM 11.91 53.438 0.051 7.16 2.4 9.9
10/24/2020 9:15:00 PM 11.86 53.348 0.051 7.15 2.31 9.92
10/24/2020 9:30:00 PM 11.81 53.258 0.051 7.17 2.35 9.94
10/24/2020 9:45:00 PM 11.76 53.168 0.051 7.16 2.46 9.95
10/24/2020 10:00:00 PM 11.71 53.078 0.051 7.17 2.35 9.96
10/24/2020 10:15:00 PM 11.66 52.988 0.051 7.16 2.31 9.99
10/24/2020 10:30:00 PM 11.61 52.898 0.051 7.05 2.34 10
10/24/2020 10:45:00 PM 11.57 52.826 0.051 7.18 2.3 10.02
10/24/2020 11:00:00 PM 11.53 52.754 0.051 7.14 2.24 10.04
10/24/2020 11:15:00 PM 11.49 52.682 0.051 7.18 2.33 10.05
10/24/2020 11:30:00 PM 11.45 52.61 0.051 7.18 2.57 10.06
10/24/2020 11:45:00 PM 11.4 52.52 0.051 7.18 2.47 10.07
10/25/2020 12:00:00 AM 11.36 52.448 0.052 7.17 2.31 10.09
10/25/2020 12:15:00 AM 11.31 52.358 0.052 7.18 2.28 10.09
10/25/2020 12:30:00 AM 11.26 52.268 0.052 7.18 2.33 10.11
10/25/2020 12:45:00 AM 11.2 52.16 0.052 7.19 2.29 10.14
10/25/2020 1:00:00 AM 11.15 52.07 0.052 7.18 2.42 10.15
10/25/2020 1:15:00 AM 11.11 51.998 0.052 7.18 2.36 10.16
10/25/2020 1:30:00 AM 11.06 51.908 0.052 7.18 2.45 10.18
10/25/2020 1:45:00 AM 11.01 51.818 0.052 7.19 2.37 10.19
10/25/2020 2:00:00 AM 10.97 51.746 0.052 7.19 2.39 10.21
10/25/2020 2:15:00 AM 10.93 51.674 0.052 7.2 2.35 10.22
10/25/2020 2:30:00 AM 10.89 51.602 0.052 7.19 2.36 10.23
10/25/2020 2:45:00 AM 10.83 51.494 0.052 7.2 2.28 10.25
10/25/2020 3:00:00 AM 10.75 51.35 0.052 7.2 2.35 10.27
10/25/2020 3:15:00 AM 10.69 51.242 0.052 7.19 2.34 10.29
10/25/2020 3:30:00 AM 10.62 51.116 0.052 7.19 2.4 10.3
10/25/2020 3:45:00 AM 10.54 50.972 0.052 7.14 2.31 10.33
10/25/2020 4:00:00 AM 10.46 50.828 0.052 7.19 2.34 10.35
10/25/2020 4:15:00 AM 10.38 50.684 0.052 7.12 2.36 10.37
10/25/2020 4:30:00 AM 10.3 50.54 0.052 7.19 2.33 10.4
10/25/2020 4:45:00 AM 10.22 50.396 0.052 7.19 2.36 10.42
10/25/2020 5:00:00 AM 10.14 50.252 0.052 7.16 2.43 10.44
10/25/2020 5:15:00 AM 10.06 50.108 0.052 7.19 2.4 10.46
10/25/2020 5:30:00 AM 9.98 49.964 0.052 7.19 2.4 10.49
10/25/2020 5:45:00 AM 9.9 49.82 0.052 7.19 2.36 10.51
10/25/2020 6:00:00 AM 9.82 49.676 0.052 7.19 2.39 10.54
10/25/2020 6:15:00 AM 9.74 49.532 0.052 7.15 2.37 10.57
10/25/2020 6:30:00 AM 9.66 49.388 0.052 7.19 2.39 10.59
10/25/2020 6:45:00 AM 9.58 49.244 0.052 7.19 2.28 10.62
10/25/2020 7:00:00 AM 9.5 49.1 0.052 7.19 2.34 10.64
10/25/2020 7:15:00 AM 9.43 48.974 0.052 7.19 2.28 10.66
10/25/2020 7:30:00 AM 9.35 48.83 0.052 7.2 2.35 10.69
10/25/2020 7:45:00 AM 9.3 48.74 0.052 7.2 2.33 10.72
10/25/2020 8:00:00 AM 9.25 48.65 0.052 7.2 2.29 10.75
10/25/2020 8:15:00 AM 9.21 48.578 0.052 7.22 2.34 10.78
10/25/2020 8:30:00 AM 9.15 48.47 0.051 7.21 2.31 10.81
10/25/2020 8:45:00 AM 9.09 48.362 0.051 7.11 2.26 10.85
10/25/2020 9:00:00 AM 9.04 48.272 0.051 7.23 2.28 10.89
10/25/2020 9:15:00 AM 8.99 48.182 0.051 7.1 2.31 10.92
10/25/2020 9:30:00 AM 8.95 48.11 0.051 7.24 2.32 10.95
10/25/2020 9:45:00 AM 8.91 48.038 0.051 7.12 2.31 10.98
10/25/2020 10:00:00 AM 8.89 48.002 0.051 7.25 2.24 11.01
10/25/2020 10:15:00 AM 8.88 47.984 0.051 7.24 6.56 11.02
10/25/2020 10:30:00 AM 8.91 48.038 0.051 7.26 1.97 11.06
10/25/2020 10:45:00 AM 8.98 48.164 0.051 7.16 2.6 11.07
10/25/2020 11:00:00 AM 9.05 48.29 0.051 7.27 1.9 11.08
10/25/2020 11:15:00 AM 9.16 48.488 0.051 7.31 1.96 11.09
10/25/2020 11:30:00 AM 9.23 48.614 0.051 7.32 1.89 11.08
10/25/2020 11:45:00 AM 9.32 48.776 0.051 7.32 1.96 11.08
10/25/2020 12:00:00 PM 9.43 48.974 0.051 7.33 1.9 11.07
10/25/2020 12:15:00 PM 9.59 49.262 0.051 7.34 1.9 11.05
10/25/2020 12:30:00 PM 9.82 49.676 0.051 7.35 1.89 11.03
10/25/2020 12:45:00 PM 9.97 49.946 0.051 7.35 1.88 11
10/25/2020 1:00:00 PM 9.98 49.964 0.051 7.34 1.94 10.97
10/25/2020 1:15:00 PM 10 50 0.051 7.33 1.94 10.96
10/25/2020 1:30:00 PM 10.1 50.18 0.051 7.33 2.03 10.95
10/25/2020 1:45:00 PM 10.23 50.414 0.051 7.33 1.95 10.92
10/25/2020 2:00:00 PM 10.22 50.396 0.051 7.32 1.86 10.9
10/25/2020 2:15:00 PM 10.25 50.45 0.051 7.31 1.92 10.9
10/25/2020 2:30:00 PM 10.32 50.576 0.051 7.32 1.94 10.88
10/25/2020 2:45:00 PM 10.36 50.648 0.051 7.3 1.93 10.86
10/25/2020 3:00:00 PM 10.37 50.666 0.051 7.31 1.89 10.85
10/25/2020 3:15:00 PM 10.44 50.792 0.05 7.31 1.93 10.84
10/25/2020 3:30:00 PM 10.47 50.846 0.05 7.31 1.88 10.81
10/25/2020 3:45:00 PM 10.47 50.846 0.05 7.26 1.96 10.79
10/25/2020 4:00:00 PM 10.5 50.9 0.05 7.29 1.93 10.77
10/25/2020 4:15:00 PM 10.5 50.9 0.05 7.29 1.98 10.73
10/25/2020 4:30:00 PM 10.52 50.936 0.05 7.27 1.88 10.71
10/25/2020 4:45:00 PM 10.51 50.918 0.051 7.28 2.06 10.69
10/25/2020 5:00:00 PM 10.49 50.882 0.051 7.29 1.95 10.67
10/25/2020 5:15:00 PM 10.45 50.81 0.051 7.27 1.92 10.65
10/25/2020 5:30:00 PM 10.42 50.756 0.051 7.2 1.92 10.63
10/25/2020 5:45:00 PM 10.4 50.72 0.051 7.26 1.99 10.61
10/25/2020 6:00:00 PM 10.38 50.684 0.051 7.25 1.99 10.58
10/25/2020 6:15:00 PM 10.37 50.666 0.051 7.25 1.98 10.56
10/25/2020 6:30:00 PM 10.35 50.63 0.051 7.24 2.02 10.56
10/25/2020 6:45:00 PM 10.34 50.612 0.051 7.24 2.19 10.55
10/25/2020 7:00:00 PM 10.31 50.558 0.051 7.16 2.04 10.53
10/25/2020 7:15:00 PM 10.3 50.54 0.051 7.23 2.04 10.53
10/25/2020 7:30:00 PM 10.27 50.486 0.051 7.23 1.94 10.54
10/25/2020 7:45:00 PM 10.25 50.45 0.051 7.23 1.92 10.54
10/25/2020 8:00:00 PM 10.22 50.396 0.051 7.24 1.94 10.54
10/25/2020 8:15:00 PM 10.2 50.36 0.051 7.22 2.02 10.54
10/25/2020 8:30:00 PM 10.18 50.324 0.051 7.23 1.93 10.55
10/25/2020 8:45:00 PM 10.15 50.27 0.051 7.23 1.95 10.55
10/25/2020 9:00:00 PM 10.13 50.234 0.051 7.23 1.94 10.55
10/25/2020 9:15:00 PM 10.11 50.198 0.051 7.22 2.02 10.55
10/25/2020 9:30:00 PM 10.08 50.144 0.051 7.22 2.05 10.55
10/25/2020 9:45:00 PM 10.06 50.108 0.051 7.22 1.94 10.55
10/25/2020 10:00:00 PM 10.03 50.054 0.051 7.23 2.01 10.56
10/25/2020 10:15:00 PM 10 50 0.051 7.22 1.93 10.57
10/25/2020 10:30:00 PM 9.98 49.964 0.051 7.22 2.01 10.57
10/25/2020 10:45:00 PM 9.95 49.91 0.051 7.22 1.94 10.57
10/25/2020 11:00:00 PM 9.94 49.892 0.051 7.22 1.94 10.57
10/25/2020 11:15:00 PM 9.92 49.856 0.051 7.23 1.92 10.58
10/25/2020 11:30:00 PM 9.9 49.82 0.051 7.23 2.01 10.59
10/25/2020 11:45:00 PM 9.89 49.802 0.051 7.23 1.96 10.59
10/26/2020 12:00:00 AM 9.88 49.784 0.051 7.23 2.01 10.59
10/26/2020 12:15:00 AM 9.87 49.766 0.051 7.23 1.97 10.59
10/26/2020 12:30:00 AM 9.86 49.748 0.051 7.23 1.95 10.59
10/26/2020 12:45:00 AM 9.85 49.73 0.051 7.22 1.96 10.6
10/26/2020 1:00:00 AM 9.84 49.712 0.051 7.22 1.94 10.6
10/26/2020 1:15:00 AM 9.82 49.676 0.051 7.23 1.9 10.6
10/26/2020 1:30:00 AM 9.81 49.658 0.051 7.23 1.98 10.6
10/26/2020 1:45:00 AM 9.8 49.64 0.051 7.22 1.94 10.6
10/26/2020 2:00:00 AM 9.8 49.64 0.051 7.23 1.93 10.6
10/26/2020 2:15:00 AM 9.78 49.604 0.051 7.23 2.05 10.61
10/26/2020 2:30:00 AM 9.78 49.604 0.051 7.12 1.96 10.61
10/26/2020 2:45:00 AM 9.77 49.586 0.051 7.23 1.91 10.62
10/26/2020 3:00:00 AM 9.76 49.568 0.051 7.24 1.91 10.62
10/26/2020 3:15:00 AM 9.75 49.55 0.051 7.24 1.9 10.62
10/26/2020 3:30:00 AM 9.74 49.532 0.051 7.24 1.94 10.62
10/26/2020 3:45:00 AM 9.73 49.514 0.051 7.23 1.95 10.62
10/26/2020 4:00:00 AM 9.73 49.514 0.051 7.2 1.94 10.62
10/26/2020 4:15:00 AM 9.72 49.496 0.051 7.24 1.88 10.63
10/26/2020 4:30:00 AM 9.71 49.478 0.051 7.22 1.94 10.63
10/26/2020 4:45:00 AM 9.7 49.46 0.051 7.23 1.9 10.63
10/26/2020 5:00:00 AM 9.69 49.442 0.051 7.19 1.92 10.64
10/26/2020 5:15:00 AM 9.68 49.424 0.051 7.24 1.97 10.64
10/26/2020 5:30:00 AM 9.68 49.424 0.051 7.11 1.95 10.64
10/26/2020 5:45:00 AM 9.67 49.406 0.051 7.24 1.96 10.65
10/26/2020 6:00:00 AM 9.66 49.388 0.051 7.23 1.92 10.65
10/26/2020 6:15:00 AM 9.65 49.37 0.051 7.23 1.93 10.66
10/26/2020 6:30:00 AM 9.63 49.334 0.051 7.24 2 10.66
10/26/2020 6:45:00 AM 9.62 49.316 0.051 7.24 1.94 10.65
10/26/2020 7:00:00 AM 9.61 49.298 0.051 7.22 1.97 10.65
10/26/2020 7:15:00 AM 9.6 49.28 0.051 7.23 1.95 10.65
10/26/2020 7:30:00 AM 9.6 49.28 0.051 7.23 1.96 10.65
10/26/2020 7:45:00 AM 9.6 49.28 0.051 7.23 1.97 10.66
10/26/2020 8:00:00 AM 9.59 49.262 0.051 7.12 1.99 10.67
10/26/2020 8:15:00 AM 9.59 49.262 0.051 7.25 1.95 10.67
10/26/2020 8:30:00 AM 9.59 49.262 0.051 7.24 1.9 10.68
10/26/2020 8:45:00 AM 9.59 49.262 0.051 7.23 1.97 10.7
10/26/2020 9:00:00 AM 9.59 49.262 0.051 7.15 1.97 10.7
10/26/2020 9:15:00 AM 9.59 49.262 0.051 7.25 1.97 10.71
10/26/2020 9:30:00 AM 9.6 49.28 0.051 7.2 1.96 10.72
10/26/2020 9:45:00 AM 9.61 49.298 0.051 7.25 1.94 10.73
10/26/2020 10:00:00 AM 9.62 49.316 0.051 7.25 1.96 10.74
10/26/2020 10:15:00 AM 9.64 49.352 0.051 7.26 1.95 10.76
10/26/2020 10:30:00 AM 9.67 49.406 0.051 7.26 1.96 10.77
10/26/2020 10:45:00 AM 9.69 49.442 0.051 7.27 1.97 10.78
10/26/2020 11:00:00 AM 9.71 49.478 0.051 7.27 1.98 10.78
10/26/2020 11:15:00 AM 9.74 49.532 0.051 7.28 1.98 10.78
10/26/2020 11:30:00 AM 9.77 49.586 0.051 7.17 1.88 10.79
10/26/2020 11:45:00 AM 9.81 49.658 0.051 7.3 1.94 10.8
10/26/2020 12:00:00 PM 9.85 49.73 0.051 7.29 1.96 10.8
10/26/2020 12:15:00 PM 9.89 49.802 0.051 7.29 1.89 10.79
10/26/2020 12:30:00 PM 9.93 49.874 0.051 7.3 1.97 10.79
10/26/2020 12:45:00 PM 9.95 49.91 0.051 7.29 1.92 10.78
10/26/2020 1:00:00 PM 9.98 49.964 0.05 7.3 1.97 10.77
10/26/2020 1:15:00 PM 10.01 50.018 0.05 7.3 1.97 10.76
10/26/2020 1:30:00 PM 10.04 50.072 0.05 7.3 1.97 10.76
10/26/2020 1:45:00 PM 10.06 50.108 0.05 7.22 1.96 10.73
10/26/2020 2:00:00 PM 10.08 50.144 0.05 7.3 1.93 10.72
10/26/2020 2:15:00 PM 10.11 50.198 0.05 7.3 1.97 10.72
10/26/2020 2:30:00 PM 10.14 50.252 0.05 7.29 1.92 10.72
10/26/2020 2:45:00 PM 10.18 50.324 0.05 7.29 1.92 10.72
10/26/2020 3:00:00 PM 10.2 50.36 0.05 7.29 1.95 10.7
10/26/2020 3:15:00 PM 10.23 50.414 0.05 7.3 1.96 10.68
10/26/2020 3:30:00 PM 10.24 50.432 0.05 7.18 2.05 10.66
10/26/2020 3:45:00 PM 10.26 50.468 0.05 7.29 1.97 10.64
10/26/2020 4:00:00 PM 10.28 50.504 0.05 7.16 1.97 10.64
10/26/2020 4:15:00 PM 10.31 50.558 0.05 7.29 2.05 10.63
10/26/2020 4:30:00 PM 10.33 50.594 0.05 7.28 1.97 10.6
10/26/2020 4:45:00 PM 10.34 50.612 0.05 7.15 2.04 10.59
10/26/2020 5:00:00 PM 10.35 50.63 0.05 7.27 2 10.57
10/26/2020 5:15:00 PM 10.37 50.666 0.05 7.26 2.08 10.55
10/26/2020 5:30:00 PM 10.38 50.684 0.05 7.24 1.97 10.55
10/26/2020 5:45:00 PM 10.39 50.702 0.05 7.26 1.99 10.53
10/26/2020 6:00:00 PM 10.4 50.72 0.05 7.25 1.99 10.52
10/26/2020 6:15:00 PM 10.41 50.738 0.05 7.25 2.06 10.5
10/26/2020 6:30:00 PM 10.42 50.756 0.05 7.24 1.97 10.48
10/26/2020 6:45:00 PM 10.43 50.774 0.05 7.12 2.04 10.48
10/26/2020 7:00:00 PM 10.44 50.792 0.05 7.23 2.05 10.46
10/26/2020 7:15:00 PM 10.44 50.792 0.05 7.24 2.03 10.46
10/26/2020 7:30:00 PM 10.45 50.81 0.05 7.21 2.01 10.45
10/26/2020 7:45:00 PM 10.46 50.828 0.05 7.24 1.98 10.45
10/26/2020 8:00:00 PM 10.47 50.846 0.05 7.24 2.01 10.44
10/26/2020 8:15:00 PM 10.48 50.864 0.05 7.23 2.02 10.44
10/26/2020 8:30:00 PM 10.49 50.882 0.05 7.22 2.01 10.44
10/26/2020 8:45:00 PM 10.5 50.9 0.051 7.23 2 10.44
10/26/2020 9:00:00 PM 10.5 50.9 0.051 7.22 2.05 10.43
10/26/2020 9:15:00 PM 10.51 50.918 0.051 7.22 1.97 10.43
10/26/2020 9:30:00 PM 10.52 50.936 0.051 7.21 2.01 10.42
10/26/2020 9:45:00 PM 10.53 50.954 0.051 7.22 1.97 10.42
10/26/2020 10:00:00 PM 10.53 50.954 0.051 7.22 1.94 10.43
10/26/2020 10:15:00 PM 10.54 50.972 0.051 7.23 2 10.41
10/26/2020 10:30:00 PM 10.54 50.972 0.051 7.2 1.98 10.42
10/26/2020 10:45:00 PM 10.55 50.99 0.051 7.22 1.96 10.42
10/26/2020 11:00:00 PM 10.55 50.99 0.051 7.21 1.94 10.42
10/26/2020 11:15:00 PM 10.56 51.008 0.051 7.21 1.97 10.42
10/26/2020 11:30:00 PM 10.57 51.026 0.051 7.21 1.93 10.41
10/26/2020 11:45:00 PM 10.57 51.026 0.051 7.21 2 10.41
10/27/2020 12:00:00 AM 10.57 51.026 0.051 7.23 1.96 10.42
10/27/2020 12:15:00 AM 10.58 51.044 0.051 7.22 1.87 10.41
10/27/2020 12:30:00 AM 10.58 51.044 0.051 7.22 1.95 10.41
10/27/2020 12:45:00 AM 10.58 51.044 0.051 7.22 2.13 10.41
10/27/2020 1:00:00 AM 10.57 51.026 0.051 7.22 1.95 10.42
10/27/2020 1:15:00 AM 10.55 50.99 0.051 7.21 2.02 10.43
10/27/2020 1:30:00 AM 10.52 50.936 0.051 7.22 1.96 10.43
10/27/2020 1:45:00 AM 10.5 50.9 0.051 7.22 2 10.44
10/27/2020 2:00:00 AM 10.48 50.864 0.051 7.22 2 10.45
10/27/2020 2:15:00 AM 10.46 50.828 0.051 7.23 1.99 10.46
10/27/2020 2:30:00 AM 10.44 50.792 0.051 7.23 2 10.46
10/27/2020 2:45:00 AM 10.42 50.756 0.051 7.22 2.03 10.47
10/27/2020 3:00:00 AM 10.4 50.72 0.051 7.23 1.99 10.46
10/27/2020 3:15:00 AM 10.37 50.666 0.051 7.23 1.97 10.48
10/27/2020 3:30:00 AM 10.35 50.63 0.051 7.22 2.01 10.49
10/27/2020 3:45:00 AM 10.33 50.594 0.051 7.24 2.01 10.49
10/27/2020 4:00:00 AM 10.31 50.558 0.051 7.24 2.06 10.5
10/27/2020 4:15:00 AM 10.29 50.522 0.051 7.24 1.96 10.51
10/27/2020 4:30:00 AM 10.28 50.504 0.051 7.24 1.97 10.51
10/27/2020 4:45:00 AM 10.26 50.468 0.051 7.17 2.08 10.51
10/27/2020 5:00:00 AM 10.24 50.432 0.051 7.23 2.04 10.52
10/27/2020 5:15:00 AM 10.23 50.414 0.051 7.21 1.99 10.53
10/27/2020 5:30:00 AM 10.21 50.378 0.051 7.23 2.03 10.53
10/27/2020 5:45:00 AM 10.2 50.36 0.051 7.2 1.97 10.54
10/27/2020 6:00:00 AM 10.18 50.324 0.051 7.23 1.99 10.55
10/27/2020 6:15:00 AM 10.16 50.288 0.051 7.24 2.04 10.56
10/27/2020 6:30:00 AM 10.14 50.252 0.051 7.23 2 10.56
10/27/2020 6:45:00 AM 10.12 50.216 0.051 7.24 2.04 10.57
10/27/2020 7:00:00 AM 10.1 50.18 0.051 7.23 2.02 10.56
10/27/2020 7:15:00 AM 10.09 50.162 0.051 7.19 2.01 10.57
10/27/2020 7:30:00 AM 10.07 50.126 0.051 7.23 2.11 10.58
10/27/2020 7:45:00 AM 10.05 50.09 0.051 7.24 2.01 10.59
10/27/2020 8:00:00 AM 10.04 50.072 0.051 7.23 2.03 10.6
10/27/2020 8:15:00 AM 10.03 50.054 0.051 7.24 1.99 10.62
10/27/2020 8:30:00 AM 10.03 50.054 0.051 7.25 1.99 10.65
10/27/2020 8:45:00 AM 10.03 50.054 0.051 7.26 1.98 10.65
10/27/2020 9:00:00 AM 10.04 50.072 0.051 7.26 2.02 10.69
10/27/2020 9:15:00 AM 10.05 50.09 0.051 7.27 2.04 10.71
10/27/2020 9:30:00 AM 10.07 50.126 0.051 7.26 2.03 10.74
10/27/2020 9:45:00 AM 10.07 50.126 0.051 7.28 2.02 10.73
10/27/2020 10:00:00 AM 10.09 50.162 0.051 7.27 2.02 10.75
10/27/2020 10:15:00 AM 10.12 50.216 0.051 7.29 2.14 10.77
10/27/2020 10:30:00 AM 10.16 50.288 0.051 7.3 1.98 10.79
10/27/2020 10:45:00 AM 10.2 50.36 0.05 7.3 2.04 10.8
10/27/2020 11:00:00 AM 10.25 50.45 0.05 7.26 1.97 10.81
10/27/2020 11:15:00 AM 10.29 50.522 0.05 7.31 2.05 10.81
10/27/2020 11:30:00 AM 10.33 50.594 0.05 7.31 2.06 10.82
10/27/2020 11:45:00 AM 10.38 50.684 0.05 7.33 2.04 10.82
10/27/2020 12:00:00 PM 10.44 50.792 0.05 7.32 2.06 10.81
10/27/2020 12:15:00 PM 10.47 50.846 0.05 7.32 1.97 10.8
10/27/2020 12:30:00 PM 10.5 50.9 0.05 7.33 2 10.78
10/27/2020 12:45:00 PM 10.53 50.954 0.05 7.2 2.02 10.77
10/27/2020 1:00:00 PM 10.55 50.99 0.05 7.33 2.01 10.77
10/27/2020 1:15:00 PM 10.57 51.026 0.05 7.32 2.03 10.75
10/27/2020 1:30:00 PM 10.59 51.062 0.05 7.32 2.12 10.75
10/27/2020 1:45:00 PM 10.62 51.116 0.05 7.32 2.03 10.74
10/27/2020 2:00:00 PM 10.63 51.134 0.05 7.33 1.99 10.71
10/27/2020 2:15:00 PM 10.64 51.152 0.05 7.32 2.03 10.7
10/27/2020 2:30:00 PM 10.63 51.134 0.05 7.3 2.03 10.68
10/27/2020 2:45:00 PM 10.65 51.17 0.05 7.31 2.09 10.68
10/27/2020 3:00:00 PM 10.66 51.188 0.05 7.19 2.12 10.67
10/27/2020 3:15:00 PM 10.67 51.206 0.05 7.31 2.01 10.65
10/27/2020 3:30:00 PM 10.69 51.242 0.05 7.2 2 10.65
10/27/2020 3:45:00 PM 10.7 51.26 0.05 7.31 1.99 10.63
10/27/2020 4:00:00 PM 10.7 51.26 0.05 7.3 2 10.61
10/27/2020 4:15:00 PM 10.71 51.278 0.05 7.3 2.05 10.6
10/27/2020 4:30:00 PM 10.72 51.296 0.05 7.29 2.04 10.59
10/27/2020 4:45:00 PM 10.71 51.278 0.05 7.29 2.1 10.56
10/27/2020 5:00:00 PM 10.71 51.278 0.05 7.29 2.2 10.54
10/27/2020 5:15:00 PM 10.7 51.26 0.05 7.28 2 10.51
10/27/2020 5:30:00 PM 10.67 51.206 0.05 7.28 2.03 10.5
10/27/2020 5:45:00 PM 10.65 51.17 0.05 7.27 2.07 10.49
10/27/2020 6:00:00 PM 10.63 51.134 0.05 7.28 2.06 10.48
10/27/2020 6:15:00 PM 10.62 51.116 0.05 7.26 2.04 10.48
10/27/2020 6:30:00 PM 10.61 51.098 0.05 7.23 2.09 10.46
10/27/2020 6:45:00 PM 10.6 51.08 0.05 7.25 2.11 10.46
10/27/2020 7:00:00 PM 10.58 51.044 0.05 7.13 2.09 10.46
10/27/2020 7:15:00 PM 10.57 51.026 0.05 7.25 2.09 10.46
10/27/2020 7:30:00 PM 10.56 51.008 0.05 7.24 2.05 10.45
10/27/2020 7:45:00 PM 10.54 50.972 0.05 7.12 2.09 10.45
10/27/2020 8:00:00 PM 10.53 50.954 0.05 7.25 2.03 10.46
10/27/2020 8:15:00 PM 10.51 50.918 0.05 7.25 2.06 10.47
10/27/2020 8:30:00 PM 10.48 50.864 0.05 7.25 2.07 10.46
10/27/2020 8:45:00 PM 10.46 50.828 0.05 7.24 2.12 10.48
10/27/2020 9:00:00 PM 10.44 50.792 0.05 7.25 2.11 10.47
10/27/2020 9:15:00 PM 10.43 50.774 0.05 7.24 2.01 10.48
10/27/2020 9:30:00 PM 10.41 50.738 0.05 7.24 2.28 10.48
10/27/2020 9:45:00 PM 10.4 50.72 0.05 7.24 2.01 10.47
10/27/2020 10:00:00 PM 10.37 50.666 0.05 7.21 2.08 10.49
10/27/2020 10:15:00 PM 10.35 50.63 0.05 7.24 2.08 10.48
10/27/2020 10:30:00 PM 10.31 50.558 0.05 7.23 2.09 10.48
10/27/2020 10:45:00 PM 10.29 50.522 0.051 7.24 2.03 10.49
10/27/2020 11:00:00 PM 10.28 50.504 0.051 7.15 2.04 10.5
10/27/2020 11:15:00 PM 10.26 50.468 0.051 7.24 2.03 10.5
10/27/2020 11:30:00 PM 10.25 50.45 0.051 7.21 2.09 10.49
10/27/2020 11:45:00 PM 10.23 50.414 0.051 7.23 2.03 10.51
10/28/2020 12:00:00 AM 10.22 50.396 0.051 7.24 2.01 10.51
10/28/2020 12:15:00 AM 10.21 50.378 0.051 7.24 2.11 10.51
10/28/2020 12:30:00 AM 10.2 50.36 0.051 7.24 2.09 10.52
10/28/2020 12:45:00 AM 10.18 50.324 0.051 7.23 2.08 10.52
10/28/2020 1:00:00 AM 10.17 50.306 0.051 7.23 2.12 10.52
10/28/2020 1:15:00 AM 10.16 50.288 0.051 7.23 2.22 10.52
10/28/2020 1:30:00 AM 10.14 50.252 0.051 7.23 2.24 10.53
10/28/2020 1:45:00 AM 10.13 50.234 0.051 7.22 2.17 10.53
10/28/2020 2:00:00 AM 10.12 50.216 0.051 7.23 2.12 10.53
10/28/2020 2:15:00 AM 10.1 50.18 0.051 7.22 2.06 10.53
10/28/2020 2:30:00 AM 10.09 50.162 0.051 7.23 2.11 10.53
10/28/2020 2:45:00 AM 10.07 50.126 0.051 7.16 2.15 10.53
10/28/2020 3:00:00 AM 10.06 50.108 0.051 7.23 2.08 10.54
10/28/2020 3:15:00 AM 10.04 50.072 0.051 7.22 2.1 10.53
10/28/2020 3:30:00 AM 10.03 50.054 0.051 7.22 2.11 10.53
10/28/2020 3:45:00 AM 10.01 50.018 0.051 7.2 2.15 10.53
10/28/2020 4:00:00 AM 10 50 0.051 7.22 2.12 10.53
10/28/2020 4:15:00 AM 9.99 49.982 0.051 7.23 2.07 10.53
10/28/2020 4:30:00 AM 9.98 49.964 0.051 7.22 2.12 10.54
10/28/2020 4:45:00 AM 9.96 49.928 0.051 7.22 2.25 10.54
10/28/2020 5:00:00 AM 9.95 49.91 0.05 7.23 2.14 10.54
10/28/2020 5:15:00 AM 9.94 49.892 0.05 7.22 2.13 10.54
10/28/2020 5:30:00 AM 9.93 49.874 0.05 7.19 2.14 10.54
10/28/2020 5:45:00 AM 9.92 49.856 0.05 7.22 2.21 10.55
10/28/2020 6:00:00 AM 9.91 49.838 0.05 7.23 2.16 10.54
10/28/2020 6:15:00 AM 9.9 49.82 0.05 7.23 2.17 10.55
10/28/2020 6:30:00 AM 9.89 49.802 0.05 7.23 2.16 10.55
10/28/2020 6:45:00 AM 9.88 49.784 0.05 7.21 2.16 10.55
10/28/2020 7:00:00 AM 9.88 49.784 0.05 7.14 2.2 10.55
10/28/2020 7:15:00 AM 9.87 49.766 0.05 7.23 2.13 10.55
10/28/2020 7:30:00 AM 9.86 49.748 0.05 7.11 2.16 10.56
10/28/2020 7:45:00 AM 9.86 49.748 0.05 7.23 2.13 10.56
10/28/2020 8:00:00 AM 9.85 49.73 0.05 7.22 2.12 10.57
10/28/2020 8:15:00 AM 9.85 49.73 0.05 7.23 2.08 10.57
10/28/2020 8:30:00 AM 9.84 49.712 0.05 7.24 2.09 10.59
10/28/2020 8:45:00 AM 9.84 49.712 0.05 7.23 2.13 10.6
10/28/2020 9:00:00 AM 9.84 49.712 0.05 7.24 2.16 10.62
10/28/2020 9:15:00 AM 9.85 49.73 0.05 7.25 2.16 10.63
10/28/2020 9:30:00 AM 9.86 49.748 0.05 7.25 2.1 10.65
10/28/2020 9:45:00 AM 9.88 49.784 0.05 7.2 2.15 10.68
10/28/2020 10:00:00 AM 9.92 49.856 0.05 7.26 2.13 10.72
10/28/2020 10:15:00 AM 9.95 49.91 0.05 7.27 2.12 10.73
10/28/2020 10:30:00 AM 9.99 49.982 0.05 7.28 2.08 10.74
10/28/2020 10:45:00 AM 10.03 50.054 0.05 7.28 2.16 10.75
10/28/2020 11:00:00 AM 10.07 50.126 0.05 7.29 2.13 10.74
10/28/2020 11:15:00 AM 10.09 50.162 0.05 7.17 2.05 10.73
10/28/2020 11:30:00 AM 10.1 50.18 0.05 7.29 2.53 10.72
10/28/2020 11:45:00 AM 10.12 50.216 0.05 7.29 2.08 10.72
10/28/2020 12:00:00 PM 10.15 50.27 0.05 7.3 2.11 10.73
10/28/2020 12:15:00 PM 10.16 50.288 0.05 7.3 2.08 10.71
10/28/2020 12:30:00 PM 10.18 50.324 0.05 7.29 2.1 10.71
10/28/2020 12:45:00 PM 10.21 50.378 0.05 7.3 2.11 10.71
10/28/2020 1:00:00 PM 10.25 50.45 0.05 7.3 2.21 10.72
10/28/2020 1:15:00 PM 10.29 50.522 0.05 7.31 2.14 10.71
10/28/2020 1:30:00 PM 10.32 50.576 0.05 7.29 2.15 10.7
10/28/2020 1:45:00 PM 10.35 50.63 0.05 7.31 2.14 10.7
10/28/2020 2:00:00 PM 10.39 50.702 0.05 7.31 2.11 10.7
10/28/2020 2:15:00 PM 10.43 50.774 0.05 7.31 2.13 10.69
10/28/2020 2:30:00 PM 10.45 50.81 0.05 7.32 2.15 10.67
10/28/2020 2:45:00 PM 10.47 50.846 0.05 7.31 2.17 10.65
10/28/2020 3:00:00 PM 10.51 50.918 0.05 7.31 2.29 10.66
10/28/2020 3:15:00 PM 10.53 50.954 0.05 7.31 2.12 10.64
10/28/2020 3:30:00 PM 10.54 50.972 0.05 7.31 2.13 10.62
10/28/2020 3:45:00 PM 10.55 50.99 0.05 7.3 2.36 10.6
10/28/2020 4:00:00 PM 10.55 50.99 0.05 7.23 2.17 10.59
10/28/2020 4:15:00 PM 10.56 51.008 0.05 7.3 2.15 10.57
10/28/2020 4:30:00 PM 10.59 51.062 0.05 7.3 2.14 10.59
10/28/2020 4:45:00 PM 10.6 51.08 0.05 7.18 2.14 10.58
10/28/2020 5:00:00 PM 10.62 51.116 0.05 7.3 2.13 10.58
10/28/2020 5:15:00 PM 10.62 51.116 0.05 7.3 2.15 10.55
10/28/2020 5:30:00 PM 10.62 51.116 0.05 7.29 2.23 10.53
10/28/2020 5:45:00 PM 10.61 51.098 0.05 7.28 2.13 10.5
10/28/2020 6:00:00 PM 10.6 51.08 0.05 7.27 2.19 10.48
10/28/2020 6:15:00 PM 10.59 51.062 0.05 7.27 2.12 10.47
10/28/2020 6:30:00 PM 10.57 51.026 0.05 7.26 2.39 10.46
10/28/2020 6:45:00 PM 10.55 50.99 0.05 7.23 2.35 10.44
10/28/2020 7:00:00 PM 10.51 50.918 0.05 7.24 2.34 10.44
10/28/2020 7:15:00 PM 10.47 50.846 0.05 7.25 2.37 10.44
10/28/2020 7:30:00 PM 10.43 50.774 0.05 7.23 2.29 10.45
10/28/2020 7:45:00 PM 10.4 50.72 0.05 7.24 2.57 10.45
10/28/2020 8:00:00 PM 10.36 50.648 0.05 7.14 2.16 10.47
10/28/2020 8:15:00 PM 10.33 50.594 0.05 7.24 2.14 10.47
10/28/2020 8:30:00 PM 10.29 50.522 0.05 7.23 2.27 10.47
10/28/2020 8:45:00 PM 10.25 50.45 0.05 7.22 2.08 10.48
10/28/2020 9:00:00 PM 10.21 50.378 0.05 7.23 2.16 10.48
10/28/2020 9:15:00 PM 10.18 50.324 0.05 7.23 2.11 10.5
10/28/2020 9:30:00 PM 10.15 50.27 0.05 7.21 2.17 10.5
10/28/2020 9:45:00 PM 10.11 50.198 0.05 7.23 2.22 10.51
10/28/2020 10:00:00 PM 10.06 50.108 0.05 7.22 2.27 10.52
10/28/2020 10:15:00 PM 10.02 50.036 0.05 7.23 2.13 10.53
10/28/2020 10:30:00 PM 9.99 49.982 0.05 7.23 2.09 10.54
10/28/2020 10:45:00 PM 9.96 49.928 0.05 7.11 2.13 10.56
10/28/2020 11:00:00 PM 9.93 49.874 0.05 7.23 2.18 10.57
10/28/2020 11:15:00 PM 9.89 49.802 0.05 7.1 2.13 10.57
10/28/2020 11:30:00 PM 9.86 49.748 0.05 7.23 2.09 10.58
10/28/2020 11:45:00 PM 9.83 49.694 0.05 7.23 2.1 10.59
10/29/2020 12:00:00 AM 9.8 49.64 0.05 7.23 2.09 10.59
10/29/2020 12:15:00 AM 9.77 49.586 0.05 7.24 2.14 10.6
10/29/2020 12:30:00 AM 9.74 49.532 0.05 7.24 2.16 10.61
10/29/2020 12:45:00 AM 9.71 49.478 0.05 7.23 2.12 10.62
10/29/2020 1:00:00 AM 9.68 49.424 0.05 7.16 2.14 10.63
10/29/2020 1:15:00 AM 9.65 49.37 0.05 7.23 2.16 10.63
10/29/2020 1:30:00 AM 9.62 49.316 0.05 7.08 2.14 10.64
10/29/2020 1:45:00 AM 9.6 49.28 0.05 7.23 2.07 10.65
10/29/2020 2:00:00 AM 9.57 49.226 0.05 7.2 2.12 10.65
10/29/2020 2:15:00 AM 9.55 49.19 0.05 7.23 2.15 10.66
10/29/2020 2:30:00 AM 9.53 49.154 0.05 7.23 2.09 10.67
10/29/2020 2:45:00 AM 9.51 49.118 0.05 7.21 2.17 10.67
10/29/2020 3:00:00 AM 9.49 49.082 0.051 7.21 2.08 10.68
10/29/2020 3:15:00 AM 9.47 49.046 0.051 7.22 2.08 10.68
10/29/2020 3:30:00 AM 9.45 49.01 0.05 7.21 2.17 10.69
10/29/2020 3:45:00 AM 9.44 48.992 0.05 7.22 2.11 10.69
10/29/2020 4:00:00 AM 9.42 48.956 0.05 7.21 2.17 10.7
10/29/2020 4:15:00 AM 9.4 48.92 0.05 7.12 2.11 10.7
10/29/2020 4:30:00 AM 9.39 48.902 0.05 7.21 2.14 10.7
10/29/2020 4:45:00 AM 9.37 48.866 0.05 7.09 2.26 10.71
10/29/2020 5:00:00 AM 9.36 48.848 0.05 7.22 2.16 10.71
10/29/2020 5:15:00 AM 9.34 48.812 0.05 7.21 2.21 10.72
10/29/2020 5:30:00 AM 9.33 48.794 0.05 7.21 2.16 10.73
10/29/2020 5:45:00 AM 9.31 48.758 0.05 7.21 2.15 10.72
10/29/2020 6:00:00 AM 9.3 48.74 0.05 7.21 2.22 10.72
10/29/2020 6:15:00 AM 9.29 48.722 0.05 7.21 2.15 10.72
10/29/2020 6:30:00 AM 9.28 48.704 0.05 7.21 2.23 10.72
10/29/2020 6:45:00 AM 9.26 48.668 0.05 7.2 2.2 10.72
10/29/2020 7:00:00 AM 9.26 48.668 0.05 7.2 2.29 10.72
10/29/2020 7:15:00 AM 9.25 48.65 0.05 7.21 2.22 10.72
10/29/2020 7:30:00 AM 9.24 48.632 0.05 7.21 2.22 10.72
10/29/2020 7:45:00 AM 9.22 48.596 0.05 7.2 2.26 10.73
10/29/2020 8:00:00 AM 9.21 48.578 0.049 7.2 2.33 10.74
10/29/2020 8:15:00 AM 9.19 48.542 0.049 7.19 2.35 10.75
10/29/2020 8:30:00 AM 9.18 48.524 0.049 7.2 2.31 10.76
10/29/2020 8:45:00 AM 9.17 48.506 0.049 7.2 2.37 10.77
10/29/2020 9:00:00 AM 9.17 48.506 0.049 7.2 2.32 10.77
10/29/2020 9:15:00 AM 9.16 48.488 0.05 7.21 2.45 10.78
10/29/2020 9:30:00 AM 9.16 48.488 0.05 7.22 2.44 10.78
10/29/2020 9:45:00 AM 9.15 48.47 0.05 7.22 2.58 10.79
10/29/2020 10:00:00 AM 9.14 48.452 0.05 7.22 2.8 10.81
10/29/2020 10:15:00 AM 9.14 48.452 0.05 7.22 2.63 10.83
10/29/2020 10:30:00 AM 9.13 48.434 0.049 7.21 2.74 10.82
10/29/2020 10:45:00 AM 9.12 48.416 0.049 7.22 2.66 10.84
10/29/2020 11:00:00 AM 9.13 48.434 0.049 7.22 2.82 10.85
10/29/2020 11:15:00 AM 9.13 48.434 0.049 7.22 2.79 10.86
10/29/2020 11:30:00 AM 9.14 48.452 0.049 7.23 2.93 10.87
10/29/2020 11:45:00 AM 9.15 48.47 0.049 7.22 3.02 10.88
10/29/2020 12:00:00 PM 9.16 48.488 0.049 7.22 3.1 10.88
10/29/2020 12:15:00 PM 9.17 48.506 0.049 7.22 2.99 10.89
10/29/2020 12:30:00 PM 9.19 48.542 0.049 7.22 3.2 10.9
10/29/2020 12:45:00 PM 9.2 48.56 0.049 7.24 3.25 10.9
10/29/2020 1:00:00 PM 9.22 48.596 0.049 7.24 3.25 10.89
10/29/2020 1:15:00 PM 9.22 48.596 0.049 7.24 3.21 10.89
10/29/2020 1:30:00 PM 9.22 48.596 0.049 7.21 3.8 10.89
10/29/2020 1:45:00 PM 9.25 48.65 0.049 7.22 3.58 10.91
10/29/2020 2:00:00 PM 9.27 48.686 0.049 7.18 3.07 10.91
10/29/2020 2:15:00 PM 9.29 48.722 0.049 7.23 3 10.91
10/29/2020 2:30:00 PM 9.31 48.758 0.049 7.23 3.11 10.91
10/29/2020 2:45:00 PM 9.32 48.776 0.049 7.24 3.33 10.9
10/29/2020 3:00:00 PM 9.33 48.794 0.049 7.09 3.35 10.89
10/29/2020 3:15:00 PM 9.33 48.794 0.049 7.24 3.87 10.88
10/29/2020 3:30:00 PM 9.33 48.794 0.049 7.23 3.54 10.87
10/29/2020 3:45:00 PM 9.33 48.794 0.049 7.23 3.59 10.86
10/29/2020 4:00:00 PM 9.33 48.794 0.049 7.23 3.46 10.86
10/29/2020 4:15:00 PM 9.32 48.776 0.049 7.23 4.16 10.85
10/29/2020 4:30:00 PM 9.31 48.758 0.049 7.2 4 10.85
10/29/2020 4:45:00 PM 9.3 48.74 0.049 7.2 5.1 10.85
10/29/2020 5:00:00 PM 9.31 48.758 0.049 7.22 6.82 10.85
10/29/2020 5:15:00 PM 9.33 48.794 0.049 7.22 6.22 10.86
10/29/2020 5:30:00 PM 9.34 48.812 0.049 7.23 6.26 10.85
10/29/2020 5:45:00 PM 9.34 48.812 0.049 7.22 6.39 10.84
10/29/2020 6:00:00 PM 9.34 48.812 0.049 7.22 7.4 10.84
10/29/2020 6:15:00 PM 9.34 48.812 0.049 7.22 7.24 10.83
10/29/2020 6:30:00 PM 9.33 48.794 0.049 7.22 7.36 10.83
10/29/2020 6:45:00 PM 9.33 48.794 0.049 7.2 9 10.83
10/29/2020 7:00:00 PM 9.32 48.776 0.049 7.18 8.06 10.83
10/29/2020 7:15:00 PM 9.31 48.758 0.049 7.2 7.37 10.84
10/29/2020 7:30:00 PM 9.31 48.758 0.049 7.2 8.65 10.84
10/29/2020 7:45:00 PM 9.3 48.74 0.05 7.16 13.61 10.84
10/29/2020 8:00:00 PM 9.3 48.74 0.05 7.16 12.46 10.85
10/29/2020 8:15:00 PM 9.3 48.74 0.05 7.17 12.25 10.87
10/29/2020 8:30:00 PM 9.29 48.722 0.05 7.16 13.14 10.88
10/29/2020 8:45:00 PM 9.29 48.722 0.05 7.17 10.9 10.89
10/29/2020 9:00:00 PM 9.29 48.722 0.05 7.18 10.86 10.89
10/29/2020 9:15:00 PM 9.29 48.722 0.05 7.18 12.89 10.89
10/29/2020 9:30:00 PM 9.3 48.74 0.05 7.17 10.02 10.89
10/29/2020 9:45:00 PM 9.31 48.758 0.05 7.03 11.17 10.9
10/29/2020 10:00:00 PM 9.31 48.758 0.05 7.18 10.47 10.9
10/29/2020 10:15:00 PM 9.32 48.776 0.05 7.17 9.95 10.88
10/29/2020 10:30:00 PM 9.32 48.776 0.05 7.17 10.2 10.89
10/29/2020 10:45:00 PM 9.32 48.776 0.05 7.02 9.67 10.89
10/29/2020 11:00:00 PM 9.32 48.776 0.049 7.18 10.65 10.9
10/29/2020 11:15:00 PM 9.32 48.776 0.049 7.17 9.84 10.9
10/29/2020 11:30:00 PM 9.32 48.776 0.049 7.17 8.84 10.92
10/29/2020 11:45:00 PM 9.31 48.758 0.049 7.17 8.52 10.92
10/30/2020 12:00:00 AM 9.3 48.74 0.049 7.07 8.06 10.93
10/30/2020 12:15:00 AM 9.28 48.704 0.049 7.17 7.84 10.93
10/30/2020 12:30:00 AM 9.27 48.686 0.049 7.16 7.54 10.93
10/30/2020 12:45:00 AM 9.25 48.65 0.048 7.08 7.22 10.93
10/30/2020 1:00:00 AM 9.23 48.614 0.048 7.16 6.52 10.94
10/30/2020 1:15:00 AM 9.21 48.578 0.048 7.02 5.82 10.95
10/30/2020 1:30:00 AM 9.19 48.542 0.048 7.17 6.41 10.96
10/30/2020 1:45:00 AM 9.17 48.506 0.048 7.02 6.89 10.97
10/30/2020 2:00:00 AM 9.14 48.452 0.048 7.16 6.73 10.96
10/30/2020 2:15:00 AM 9.12 48.416 0.048 7.15 5.33 10.97
10/30/2020 2:30:00 AM 9.1 48.38 0.048 7.15 4.8 10.98
10/30/2020 2:45:00 AM 9.07 48.326 0.048 7.15 4.85 10.99
10/30/2020 3:00:00 AM 9.05 48.29 0.048 7.16 4.65 11
10/30/2020 3:15:00 AM 9.03 48.254 0.048 7.16 4.64 11
10/30/2020 3:30:00 AM 9.01 48.218 0.048 7.01 4.45 11.01
10/30/2020 3:45:00 AM 8.98 48.164 0.048 7.16 4.27 11.02
10/30/2020 4:00:00 AM 8.96 48.128 0.048 7.15 4.13 11.03
10/30/2020 4:15:00 AM 8.93 48.074 0.048 7.16 4.19 11.05
10/30/2020 4:30:00 AM 8.89 48.002 0.048 7.16 4.05 11.05
10/30/2020 4:45:00 AM 8.86 47.948 0.048 7.01 4.08 11.06
10/30/2020 5:00:00 AM 8.83 47.894 0.048 7.15 3.99 11.07
10/30/2020 5:15:00 AM 8.79 47.822 0.048 7.16 3.92 11.08
10/30/2020 5:30:00 AM 8.76 47.768 0.048 7.15 3.79 11.09
10/30/2020 5:45:00 AM 8.73 47.714 0.048 7.15 3.62 11.1
10/30/2020 6:00:00 AM 8.7 47.66 0.048 7.15 3.62 11.11
10/30/2020 6:15:00 AM 8.67 47.606 0.048 7.11 3.65 11.12
10/30/2020 6:30:00 AM 8.65 47.57 0.048 7.14 3.55 11.13
10/30/2020 6:45:00 AM 8.62 47.516 0.048 7.16 3.56 11.14
10/30/2020 7:00:00 AM 8.59 47.462 0.048 7.02 3.43 11.14
10/30/2020 7:15:00 AM 8.57 47.426 0.049 7.15 3.5 11.16
10/30/2020 7:30:00 AM 8.54 47.372 0.049 7.1 3.45 11.17
10/30/2020 7:45:00 AM 8.52 47.336 0.049 7.16 3.32 11.17
10/30/2020 8:00:00 AM 8.5 47.3 0.049 7.15 3.2 11.19
10/30/2020 8:15:00 AM 8.48 47.264 0.049 7.16 3.32 11.2
10/30/2020 8:30:00 AM 8.47 47.246 0.049 7.13 3.23 11.22
10/30/2020 8:45:00 AM 8.46 47.228 0.049 7.18 3.28 11.24
10/30/2020 9:00:00 AM 8.45 47.21 0.049 7.19 3.12 11.26
10/30/2020 9:15:00 AM 8.44 47.192 0.049 7.17 3.18 11.27
10/30/2020 9:30:00 AM 8.43 47.174 0.049 7.19 3.09 11.28
10/30/2020 9:45:00 AM 8.42 47.156 0.049 7.21 3.11 11.29
10/30/2020 10:00:00 AM 8.42 47.156 0.049 7.2 2.96 11.31
10/30/2020 10:15:00 AM 8.42 47.156 0.049 7.19 2.94 11.32
10/30/2020 10:30:00 AM 8.42 47.156 0.049 7.22 2.95 11.33
10/30/2020 10:45:00 AM 8.43 47.174 0.049 7.21 2.95 11.35
10/30/2020 11:00:00 AM 8.43 47.174 0.049 7.21 2.96 11.36
10/30/2020 11:15:00 AM 8.44 47.192 0.049 7.22 2.94 11.37
10/30/2020 11:30:00 AM 8.45 47.21 0.049 7.21 2.93 11.38
10/30/2020 11:45:00 AM 8.46 47.228 0.049 7.16 2.93 11.39
10/30/2020 12:00:00 PM 8.48 47.264 0.049 7.24 2.88 11.4
10/30/2020 12:15:00 PM 8.5 47.3 0.049 7.24 2.88 11.4
10/30/2020 12:30:00 PM 8.53 47.354 0.049 7.25 2.77 11.4
10/30/2020 12:45:00 PM 8.53 47.354 0.049 7.25 2.8 11.39
10/30/2020 1:00:00 PM 8.53 47.354 0.049 7.24 2.83 11.39
10/30/2020 1:15:00 PM 8.54 47.372 0.049 7.25 2.79 11.39
10/30/2020 1:30:00 PM 8.56 47.408 0.049 7.12 2.84 11.4
10/30/2020 1:45:00 PM 8.59 47.462 0.049 7.26 2.81 11.4
10/30/2020 2:00:00 PM 8.59 47.462 0.049 7.26 2.78 11.39
10/30/2020 2:15:00 PM 8.59 47.462 0.049 7.24 2.79 11.37
10/30/2020 2:30:00 PM 8.58 47.444 0.049 7.23 2.82 11.38
10/30/2020 2:45:00 PM 8.61 47.498 0.049 7.24 2.73 11.4
10/30/2020 3:00:00 PM 8.65 47.57 0.049 7.24 2.74 11.4
10/30/2020 3:15:00 PM 8.68 47.624 0.049 7.25 2.81 11.4
10/30/2020 3:30:00 PM 8.72 47.696 0.049 7.26 2.75 11.4
10/30/2020 3:45:00 PM 8.74 47.732 0.049 7.26 2.67 11.4
10/30/2020 4:00:00 PM 8.76 47.768 0.049 7.25 2.67 11.39
10/30/2020 4:15:00 PM 8.75 47.75 0.049 7.25 2.73 11.38
10/30/2020 4:30:00 PM 8.75 47.75 0.049 7.25 2.65 11.37
10/30/2020 4:45:00 PM 8.75 47.75 0.049 7.25 2.73 11.36
10/30/2020 5:00:00 PM 8.75 47.75 0.049 7.25 2.66 11.35
10/30/2020 5:15:00 PM 8.73 47.714 0.049 7.14 2.69 11.34
10/30/2020 5:30:00 PM 8.72 47.696 0.049 7.24 2.6 11.33
10/30/2020 5:45:00 PM 8.7 47.66 0.049 7.21 2.73 11.32
10/30/2020 6:00:00 PM 8.67 47.606 0.049 7.22 2.61 11.31
10/30/2020 6:15:00 PM 8.64 47.552 0.049 7.22 2.54 11.3
10/30/2020 6:30:00 PM 8.61 47.498 0.049 7.21 2.65 11.3
10/30/2020 6:45:00 PM 8.57 47.426 0.049 7.2 2.62 11.3
10/30/2020 7:00:00 PM 8.54 47.372 0.049 7.19 2.68 11.31
10/30/2020 7:15:00 PM 8.51 47.318 0.049 7.2 2.61 11.31
10/30/2020 7:30:00 PM 8.48 47.264 0.05 7.2 2.64 11.32
10/30/2020 7:45:00 PM 8.45 47.21 0.05 7.19 2.62 11.33
10/30/2020 8:00:00 PM 8.43 47.174 0.05 7.06 2.61 11.34
10/30/2020 8:15:00 PM 8.4 47.12 0.05 7.2 2.6 11.35
10/30/2020 8:30:00 PM 8.38 47.084 0.05 7.07 2.58 11.35
10/30/2020 8:45:00 PM 8.35 47.03 0.05 7.2 2.57 11.37
10/30/2020 9:00:00 PM 8.32 46.976 0.05 7.19 2.52 11.37
10/30/2020 9:15:00 PM 8.29 46.922 0.05 7.21 2.53 11.39
10/30/2020 9:30:00 PM 8.25 46.85 0.05 7.19 2.58 11.39
10/30/2020 9:45:00 PM 8.21 46.778 0.05 7.2 2.52 11.4
10/30/2020 10:00:00 PM 8.18 46.724 0.05 7.19 2.46 11.41
10/30/2020 10:15:00 PM 8.15 46.67 0.05 7.2 2.45 11.43
10/30/2020 10:30:00 PM 8.12 46.616 0.05 7.05 2.47 11.44
10/30/2020 10:45:00 PM 8.1 46.58 0.05 7.19 2.43 11.45
10/30/2020 11:00:00 PM 8.08 46.544 0.05 7.21 2.41 11.46
10/30/2020 11:15:00 PM 8.05 46.49 0.05 7.19 2.41 11.47
10/30/2020 11:30:00 PM 8.03 46.454 0.05 7.19 2.56 11.48
10/30/2020 11:45:00 PM 8 46.4 0.05 7.08 2.45 11.49
10/31/2020 12:00:00 AM 7.97 46.346 0.05 7.15 2.42 11.5
10/31/2020 12:15:00 AM 7.94 46.292 0.05 7.2 2.38 11.51
10/31/2020 12:30:00 AM 7.92 46.256 0.05 7.06 2.37 11.52
10/31/2020 12:45:00 AM 7.89 46.202 0.05 7.16 2.36 11.53
10/31/2020 1:00:00 AM 7.87 46.166 0.05 7.15 2.42 11.54
10/31/2020 1:15:00 AM 7.84 46.112 0.05 7.2 2.46 11.55
10/31/2020 1:30:00 AM 7.82 46.076 0.05 7.2 2.38 11.56
10/31/2020 1:45:00 AM 7.79 46.022 0.05 7.09 2.32 11.57
10/31/2020 2:00:00 AM 7.77 45.986 0.05 7.2 2.37 11.58
10/31/2020 2:15:00 AM 7.74 45.932 0.05 7.21 2.37 11.59
10/31/2020 2:30:00 AM 7.71 45.878 0.05 7.2 2.32 11.6
10/31/2020 2:45:00 AM 7.68 45.824 0.05 7.21 2.31 11.61
10/31/2020 3:00:00 AM 7.65 45.77 0.05 7.2 2.34 11.62
10/31/2020 3:15:00 AM 7.63 45.734 0.05 7.2 2.31 11.63
10/31/2020 3:30:00 AM 7.6 45.68 0.05 7.2 2.34 11.63
10/31/2020 3:45:00 AM 7.57 45.626 0.05 7.06 2.4 11.64
10/31/2020 4:00:00 AM 7.55 45.59 0.05 7.21 2.3 11.65
10/31/2020 4:15:00 AM 7.52 45.536 0.05 7.2 2.23 11.67
10/31/2020 4:30:00 AM 7.48 45.464 0.05 7.2 2.28 11.68
10/31/2020 4:45:00 AM 7.45 45.41 0.05 7.22 2.45 11.69
10/31/2020 5:00:00 AM 7.41 45.338 0.05 7.06 2.26 11.7
10/31/2020 5:15:00 AM 7.37 45.266 0.05 7.2 2.3 11.71
10/31/2020 5:30:00 AM 7.33 45.194 0.05 7.19 2.27 11.72
10/31/2020 5:45:00 AM 7.29 45.122 0.05 7.19 2.27 11.74
10/31/2020 6:00:00 AM 7.26 45.068 0.05 7.2 2.31 11.75
10/31/2020 6:15:00 AM 7.2 44.96 0.05 7.19 2.22 11.76
10/31/2020 6:30:00 AM 7.15 44.87 0.05 7.18 2.21 11.78
10/31/2020 6:45:00 AM 7.09 44.762 0.05 7.19 2.27 11.8
10/31/2020 7:00:00 AM 7.03 44.654 0.05 7.19 2.28 11.82
10/31/2020 7:15:00 AM 6.97 44.546 0.05 7.19 2.28 11.84
10/31/2020 7:30:00 AM 6.91 44.438 0.05 7.19 2.25 11.86
10/31/2020 7:45:00 AM 6.86 44.348 0.05 7.2 2.25 11.88
10/31/2020 8:00:00 AM 6.82 44.276 0.05 7.07 2.26 11.92
10/31/2020 8:15:00 AM 6.79 44.222 0.05 7.16 2.27 11.95
10/31/2020 8:30:00 AM 6.75 44.15 0.05 7.22 2.17 11.97
10/31/2020 8:45:00 AM 6.72 44.096 0.05 7.09 2.15 12.01
10/31/2020 9:00:00 AM 6.68 44.024 0.05 7.22 2.22 12.03
10/31/2020 9:15:00 AM 6.64 43.952 0.05 7.23 2.15 12.06
10/31/2020 9:30:00 AM 6.63 43.934 0.05 7.1 2.19 12.09
10/31/2020 9:45:00 AM 6.63 43.934 0.05 7.25 2.15 12.12
10/31/2020 10:00:00 AM 6.65 43.97 0.05 7.26 2.17 12.14
10/31/2020 10:15:00 AM 6.66 43.988 0.05 7.12 2.19 12.16
10/31/2020 10:30:00 AM 6.69 44.042 0.05 7.28 2.14 12.16
10/31/2020 10:45:00 AM 6.72 44.096 0.05 7.17 2.16 12.17
10/31/2020 11:00:00 AM 6.78 44.204 0.05 7.3 2.17 12.17
10/31/2020 11:15:00 AM 6.84 44.312 0.05 7.31 2.18 12.17
10/31/2020 11:30:00 AM 6.9 44.42 0.05 7.31 2.17 12.17
10/31/2020 11:45:00 AM 6.94 44.492 0.05 7.31 2.23 12.15
10/31/2020 12:00:00 PM 6.98 44.564 0.05 7.31 2.13 12.14
10/31/2020 12:15:00 PM 7.04 44.672 0.05 7.32 2.18 12.12
10/31/2020 12:30:00 PM 7.11 44.798 0.05 7.33 2.12 12.11
10/31/2020 12:45:00 PM 7.18 44.924 0.05 7.19 2.12 12.09
10/31/2020 1:00:00 PM 7.24 45.032 0.05 7.33 2.16 12.08
10/31/2020 1:15:00 PM 7.29 45.122 0.05 7.33 2.11 12.05
10/31/2020 1:30:00 PM 7.34 45.212 0.05 7.21 2.16 12.03
10/31/2020 1:45:00 PM 7.38 45.284 0.05 7.29 2.11 12.01
10/31/2020 2:00:00 PM 7.4 45.32 0.05 7.33 2.15 12
10/31/2020 2:15:00 PM 7.44 45.392 0.05 7.21 2.1 11.98
10/31/2020 2:30:00 PM 7.47 45.446 0.05 7.35 2.11 11.96
10/31/2020 2:45:00 PM 7.51 45.518 0.05 7.34 2.11 11.94
10/31/2020 3:00:00 PM 7.58 45.644 0.05 7.34 2.11 11.93
10/31/2020 3:15:00 PM 7.62 45.716 0.05 7.34 2.14 11.9
10/31/2020 3:30:00 PM 7.65 45.77 0.05 7.34 2.14 11.89
10/31/2020 3:45:00 PM 7.68 45.824 0.05 7.2 2.11 11.87
10/31/2020 4:00:00 PM 7.7 45.86 0.05 7.34 2.11 11.85
10/31/2020 4:15:00 PM 7.67 45.806 0.05 7.34 2.16 11.81
10/31/2020 4:30:00 PM 7.65 45.77 0.05 7.32 2.15 11.8
10/31/2020 4:45:00 PM 7.62 45.716 0.05 7.32 2.13 11.79
10/31/2020 5:00:00 PM 7.61 45.698 0.05 7.21 2.1 11.78
10/31/2020 5:15:00 PM 7.58 45.644 0.05 7.32 2.2 11.77
10/31/2020 5:30:00 PM 7.55 45.59 0.05 7.3 2.2 11.76
10/31/2020 5:45:00 PM 7.51 45.518 0.05 7.29 2.19 11.75
10/31/2020 6:00:00 PM 7.47 45.446 0.05 7.15 2.15 11.74
10/31/2020 6:15:00 PM 7.42 45.356 0.05 7.29 2.14 11.73
10/31/2020 6:30:00 PM 7.37 45.266 0.05 7.28 2.19 11.73
10/31/2020 6:45:00 PM 7.32 45.176 0.05 7.28 2.14 11.73
10/31/2020 7:00:00 PM 7.26 45.068 0.05 7.13 2.22 11.73
10/31/2020 7:15:00 PM 7.21 44.978 0.05 7.26 2.18 11.74
10/31/2020 7:30:00 PM 7.16 44.888 0.05 7.25 2.15 11.75
10/31/2020 7:45:00 PM 7.1 44.78 0.05 7.25 2.23 11.76
10/31/2020 8:00:00 PM 7.05 44.69 0.05 7.12 2.2 11.78
10/31/2020 8:15:00 PM 6.99 44.582 0.05 7.25 2.18 11.78
10/31/2020 8:30:00 PM 6.93 44.474 0.05 7.11 2.12 11.8
10/31/2020 8:45:00 PM 6.86 44.348 0.05 7.23 2.12 11.83
10/31/2020 9:00:00 PM 6.8 44.24 0.05 7.12 2.11 11.84
10/31/2020 9:15:00 PM 6.73 44.114 0.05 7.24 2.19 11.86
10/31/2020 9:30:00 PM 6.67 44.006 0.05 7.24 2.15 11.88
10/31/2020 9:45:00 PM 6.6 43.88 0.05 7.1 2.11 11.9
10/31/2020 10:00:00 PM 6.54 43.772 0.05 7.24 2.08 11.91
10/31/2020 10:15:00 PM 6.48 43.664 0.05 7.22 2.17 11.93
10/31/2020 10:30:00 PM 6.41 43.538 0.05 7.23 2.16 11.95
10/31/2020 10:45:00 PM 6.36 43.448 0.05 7.23 2.08 11.97
10/31/2020 11:00:00 PM 6.3 43.34 0.051 7.24 2.09 11.99
10/31/2020 11:15:00 PM 6.25 43.25 0.051 7.24 2.12 12
10/31/2020 11:30:00 PM 6.2 43.16 0.051 7.24 2.12 12.02
10/31/2020 11:45:00 PM 6.15 43.07 0.051 7.24 2.11 12.03
11/1/2020 12:00:00 AM 6.1 42.98 0.051 7.25 2.07 12.04
11/1/2020 12:15:00 AM 6.05 42.89 0.051 7.11 2.05 12.06
11/1/2020 12:30:00 AM 6 42.8 0.051 7.25 2.03 12.07
11/1/2020 12:45:00 AM 5.96 42.728 0.051 7.25 2.12 12.09
11/1/2020 1:00:00 AM 5.93 42.674 0.051 7.26 2.06 12.1
11/1/2020 1:15:00 AM 5.91 42.638 0.051 7.25 2.08 12.11
11/1/2020 1:30:00 AM 5.89 42.602 0.051 7.11 2.11 12.12
11/1/2020 1:45:00 AM 5.88 42.584 0.051 7.26 2.02 12.12
11/1/2020 2:00:00 AM 5.86 42.548 0.051 7.26 2.05 12.13
11/1/2020 2:15:00 AM 5.84 42.512 0.051 7.26 2.08 12.13
11/1/2020 2:30:00 AM 5.83 42.494 0.051 7.25 2.11 12.13
11/1/2020 2:45:00 AM 5.82 42.476 0.051 7.27 2.07 12.14
11/1/2020 3:00:00 AM 5.81 42.458 0.051 7.27 2.11 12.14
11/1/2020 3:15:00 AM 5.8 42.44 0.051 7.27 2.02 12.14
11/1/2020 3:30:00 AM 5.79 42.422 0.051 7.26 2.03 12.14
11/1/2020 3:45:00 AM 5.78 42.404 0.051 7.26 2.11 12.14
11/1/2020 4:00:00 AM 5.77 42.386 0.051 7.14 2.03 12.14
11/1/2020 4:15:00 AM 5.77 42.386 0.051 7.27 2.07 12.13
11/1/2020 4:30:00 AM 5.76 42.368 0.051 7.26 2 12.14
11/1/2020 4:45:00 AM 5.75 42.35 0.051 7.26 2.04 12.14
11/1/2020 5:00:00 AM 5.75 42.35 0.051 7.13 1.99 12.13
11/1/2020 5:15:00 AM 5.75 42.35 0.051 7.28 2.01 12.13
11/1/2020 5:30:00 AM 5.75 42.35 0.051 7.26 2.07 12.13
11/1/2020 5:45:00 AM 5.75 42.35 0.051 7.28 2.02 12.13
11/1/2020 6:00:00 AM 5.76 42.368 0.051 7.19 2.1 12.12
11/1/2020 6:15:00 AM 5.77 42.386 0.051 7.28 2.02 12.12
11/1/2020 6:30:00 AM 5.78 42.404 0.051 7.28 2.06 12.11
11/1/2020 6:45:00 AM 5.78 42.404 0.051 7.14 2.02 12.11
11/1/2020 7:00:00 AM 5.79 42.422 0.051 7.29 2.06 12.1
11/1/2020 7:15:00 AM 5.8 42.44 0.051 7.28 2.08 12.09
11/1/2020 7:30:00 AM 5.81 42.458 0.051 7.28 2 12.09
11/1/2020 7:45:00 AM 5.83 42.494 0.051 7.23 1.99 12.08
11/1/2020 8:00:00 AM 5.85 42.53 0.051 7.28 2.03 12.08
11/1/2020 8:15:00 AM 5.88 42.584 0.051 7.28 2.01 12.08
11/1/2020 8:30:00 AM 5.91 42.638 0.051 7.29 1.99 12.07
11/1/2020 8:45:00 AM 5.95 42.71 0.051 7.29 1.99 12.08
11/1/2020 9:00:00 AM 5.99 42.782 0.051 7.15 2.02 12.08
11/1/2020 9:15:00 AM 6.03 42.854 0.051 7.31 1.99 12.07
11/1/2020 9:30:00 AM 6.08 42.944 0.051 7.19 1.94 12.06
11/1/2020 9:45:00 AM 6.12 43.016 0.051 7.34 1.99 12.06
11/1/2020 10:00:00 AM 6.19 43.142 0.051 7.22 2.01 12.06
11/1/2020 10:15:00 AM 6.25 43.25 0.051 7.35 1.95 12.06
11/1/2020 10:30:00 AM 6.29 43.322 0.051 7.21 1.98 12.02
11/1/2020 10:45:00 AM 6.32 43.376 0.051 7.35 1.95 11.99
11/1/2020 11:00:00 AM 6.35 43.43 0.051 7.33 1.99 11.97
11/1/2020 11:15:00 AM 6.39 43.502 0.051 7.34 1.99 11.96
11/1/2020 11:30:00 AM 6.43 43.574 0.051 7.34 1.98 11.94
11/1/2020 11:45:00 AM 6.47 43.646 0.05 7.33 1.99 11.93
11/1/2020 12:00:00 PM 6.51 43.718 0.05 7.35 2.03 11.93
11/1/2020 12:15:00 PM 6.55 43.79 0.05 7.26 2 11.89
11/1/2020 12:30:00 PM 6.58 43.844 0.05 7.35 1.98 11.88
11/1/2020 12:45:00 PM 6.63 43.934 0.05 7.34 2.02 11.88
11/1/2020 1:00:00 PM 6.69 44.042 0.05 7.35 1.99 11.88
11/1/2020 1:15:00 PM 6.74 44.132 0.05 7.35 2 11.86
11/1/2020 1:30:00 PM 6.78 44.204 0.05 7.36 2.04 11.83
11/1/2020 1:45:00 PM 6.83 44.294 0.05 7.35 2.11 11.82
11/1/2020 2:00:00 PM 6.87 44.366 0.05 7.21 1.99 11.8
11/1/2020 2:15:00 PM 6.92 44.456 0.05 7.36 2.03 11.76
11/1/2020 2:30:00 PM 6.96 44.528 0.05 7.35 2.21 11.72
11/1/2020 2:45:00 PM 7 44.6 0.05 7.34 2.16 11.72
11/1/2020 3:00:00 PM 7.06 44.708 0.05 7.33 2.11 11.72
11/1/2020 3:15:00 PM 7.15 44.87 0.05 7.35 2.07 11.73
11/1/2020 3:30:00 PM 7.2 44.96 0.05 7.35 2.03 11.69
11/1/2020 3:45:00 PM 7.21 44.978 0.049 7.34 2.11 11.68
11/1/2020 4:00:00 PM 7.24 45.032 0.049 7.34 2.09 11.68
11/1/2020 4:15:00 PM 7.24 45.032 0.049 7.34 2.03 11.68
11/1/2020 4:30:00 PM 7.22 44.996 0.049 7.35 2.07 11.67
11/1/2020 4:45:00 PM 7.2 44.96 0.049 7.34 2.04 11.68
11/1/2020 5:00:00 PM 7.19 44.942 0.05 7.34 2.08 11.67
11/1/2020 5:15:00 PM 7.18 44.924 0.05 7.33 2.25 11.66
11/1/2020 5:30:00 PM 7.18 44.924 0.05 7.33 2.08 11.64
11/1/2020 5:45:00 PM 7.17 44.906 0.05 7.33 2.13 11.63
11/1/2020 6:00:00 PM 7.15 44.87 0.05 7.33 2.13 11.61
11/1/2020 6:15:00 PM 7.12 44.816 0.05 7.31 2.1 11.6
11/1/2020 6:30:00 PM 7.08 44.744 0.05 7.3 2.09 11.6
11/1/2020 6:45:00 PM 7.04 44.672 0.05 7.3 2.11 11.6
11/1/2020 7:00:00 PM 7.03 44.654 0.05 7.15 2.1 11.59
11/1/2020 7:15:00 PM 6.98 44.564 0.05 7.29 2.12 11.6
11/1/2020 7:30:00 PM 6.95 44.51 0.05 7.17 2.12 11.6
11/1/2020 7:45:00 PM 6.95 44.51 0.05 7.29 2.14 11.6
11/1/2020 8:00:00 PM 6.92 44.456 0.05 7.29 2.06 11.61
11/1/2020 8:15:00 PM 6.91 44.438 0.05 7.28 2.1 11.62
11/1/2020 8:30:00 PM 6.89 44.402 0.05 7.27 2.09 11.62
11/1/2020 8:45:00 PM 6.87 44.366 0.05 7.11 2.09 11.63
11/1/2020 9:00:00 PM 6.82 44.276 0.05 7.26 2.13 11.64
11/1/2020 9:15:00 PM 6.78 44.204 0.05 7.11 2.11 11.66
11/1/2020 9:30:00 PM 6.73 44.114 0.05 7.25 2.1 11.67
11/1/2020 9:45:00 PM 6.67 44.006 0.05 7.25 2.05 11.69
11/1/2020 10:00:00 PM 6.63 43.934 0.05 7.25 2.07 11.7
11/1/2020 10:15:00 PM 6.6 43.88 0.05 7.25 2.07 11.71
11/1/2020 10:30:00 PM 6.56 43.808 0.05 7.25 2.07 11.73
11/1/2020 10:45:00 PM 6.5 43.7 0.05 7.24 2.08 11.74
11/1/2020 11:00:00 PM 6.47 43.646 0.05 7.25 2.02 11.76
11/1/2020 11:15:00 PM 6.44 43.592 0.05 7.24 2.05 11.77
11/1/2020 11:30:00 PM 6.39 43.502 0.05 7.24 2.03 11.78
11/1/2020 11:45:00 PM 6.35 43.43 0.05 7.24 2.07 11.8
11/2/2020 12:00:00 AM 6.3 43.34 0.05 7.25 2.06 11.8
11/2/2020 12:15:00 AM 6.28 43.304 0.05 7.1 2.05 11.82
11/2/2020 12:30:00 AM 6.24 43.232 0.05 7.22 2.04 11.84
11/2/2020 12:45:00 AM 6.2 43.16 0.05 7.24 2.01 11.85
11/2/2020 1:00:00 AM 6.15 43.07 0.05 7.1 2.05 11.86
11/2/2020 1:15:00 AM 6.12 43.016 0.05 7.24 2.08 11.87
11/2/2020 1:30:00 AM 6.08 42.944 0.05 7.24 2.06 11.89
11/2/2020 1:45:00 AM 6.05 42.89 0.05 7.24 2.04 11.89
11/2/2020 2:00:00 AM 6.03 42.854 0.05 7.1 2.22 11.9
11/2/2020 2:15:00 AM 6.02 42.836 0.05 7.25 2.06 11.91
11/2/2020 2:30:00 AM 5.98 42.764 0.05 7.25 2.04 11.91
11/2/2020 2:45:00 AM 5.96 42.728 0.05 7.25 2.09 11.92
11/2/2020 3:00:00 AM 5.94 42.692 0.05 7.24 2.03 11.93
11/2/2020 3:15:00 AM 5.91 42.638 0.05 7.24 2.04 11.94
11/2/2020 3:30:00 AM 5.89 42.602 0.05 7.24 2.02 11.95
11/2/2020 3:45:00 AM 5.85 42.53 0.05 7.23 2.02 11.96
11/2/2020 4:00:00 AM 5.83 42.494 0.05 7.24 2.01 11.97
11/2/2020 4:15:00 AM 5.82 42.476 0.05 7.24 2.06 11.97
11/2/2020 4:30:00 AM 5.8 42.44 0.05 7.25 2.04 11.98
11/2/2020 4:45:00 AM 5.69 42.242 0.05 7.24 2.01 11.98
11/2/2020 5:00:00 AM 5.63 42.134 0.05 7.1 2.04 12.01
11/2/2020 5:15:00 AM 5.6 42.08 0.05 7.24 2.02 12.04
11/2/2020 5:30:00 AM 5.57 42.026 0.05 7.24 2.06 12.05
11/2/2020 5:45:00 AM 5.56 42.008 0.05 7.24 2 12.07
11/2/2020 6:00:00 AM 5.55 41.99 0.05 7.24 2.01 12.08
11/2/2020 6:15:00 AM 5.53 41.954 0.05 7.25 2 12.09
11/2/2020 6:30:00 AM 5.5 41.9 0.05 7.1 2 12.1
11/2/2020 6:45:00 AM 5.48 41.864 0.05 7.25 2 12.12
11/2/2020 7:00:00 AM 5.45 41.81 0.05 7.24 2.04 12.13
11/2/2020 7:15:00 AM 5.4 41.72 0.05 7.25 1.97 12.15
11/2/2020 7:30:00 AM 5.37 41.666 0.05 7.25 2.02 12.17
11/2/2020 7:45:00 AM 5.32 41.576 0.05 7.26 1.99 12.18
11/2/2020 8:00:00 AM 5.27 41.486 0.05 7.16 1.99 12.21
11/2/2020 8:15:00 AM 5.23 41.414 0.05 7.26 1.96 12.25
11/2/2020 8:30:00 AM 5.2 41.36 0.05 7.11 1.98 12.29
11/2/2020 8:45:00 AM 5.19 41.342 0.05 7.26 1.99 12.33
11/2/2020 9:00:00 AM 5.19 41.342 0.05 7.27 1.99 12.36
11/2/2020 9:15:00 AM 5.18 41.324 0.05 7.28 1.97 12.4
11/2/2020 9:30:00 AM 5.17 41.306 0.05 7.28 1.99 12.42
11/2/2020 9:45:00 AM 5.15 41.27 0.05 7.28 1.98 12.44
11/2/2020 10:00:00 AM 5.13 41.234 0.05 7.29 1.99 12.47
11/2/2020 10:15:00 AM 5.12 41.216 0.05 7.3 2 12.49
11/2/2020 10:30:00 AM 5.11 41.198 0.05 7.3 1.96 12.51
11/2/2020 10:45:00 AM 5.13 41.234 0.05 7.31 2 12.52
11/2/2020 11:00:00 AM 5.16 41.288 0.05 7.31 1.94 12.53
11/2/2020 11:15:00 AM 5.19 41.342 0.05 7.24 1.98 12.53
11/2/2020 11:30:00 AM 5.19 41.342 0.05 7.32 1.96 12.53
11/2/2020 11:45:00 AM 5.25 41.45 0.05 7.22 1.94 12.53
11/2/2020 12:00:00 PM 5.36 41.648 0.05 7.33 1.95 12.52
11/2/2020 12:15:00 PM 5.45 41.81 0.05 7.33 2.01 12.5
11/2/2020 12:30:00 PM 5.44 41.792 0.05 7.33 1.94 12.49
11/2/2020 12:45:00 PM 5.49 41.882 0.05 7.34 1.97 12.48
11/2/2020 1:00:00 PM 5.98 42.764 0.05 7.35 2 12.33
11/2/2020 1:15:00 PM 5.97 42.746 0.05 7.34 1.96 12.32
11/2/2020 1:30:00 PM 5.99 42.782 0.05 7.33 1.97 12.31
11/2/2020 1:45:00 PM 5.99 42.782 0.05 7.33 1.97 12.3
11/2/2020 2:00:00 PM 6 42.8 0.05 7.33 1.96 12.29
11/2/2020 2:15:00 PM 5.98 42.764 0.05 7.33 1.97 12.27
11/2/2020 2:30:00 PM 5.97 42.746 0.05 7.33 1.98 12.27
11/2/2020 2:45:00 PM 5.97 42.746 0.05 7.32 2 12.24
11/2/2020 3:00:00 PM 5.95 42.71 0.05 7.31 1.99 12.24
11/2/2020 3:15:00 PM 5.94 42.692 0.05 7.31 1.99 12.24
11/2/2020 3:30:00 PM 5.93 42.674 0.05 7.31 2.01 12.24
11/2/2020 3:45:00 PM 5.93 42.674 0.05 7.32 1.98 12.23
11/2/2020 4:00:00 PM 5.92 42.656 0.05 7.31 2.01 12.24
11/2/2020 4:15:00 PM 5.89 42.602 0.05 7.31 1.98 12.23
11/2/2020 4:30:00 PM 5.86 42.548 0.05 7.31 1.98 12.2
11/2/2020 4:45:00 PM 5.84 42.512 0.05 7.19 2.02 12.18
11/2/2020 5:00:00 PM 5.81 42.458 0.05 7.29 2 12.15
11/2/2020 5:15:00 PM 5.79 42.422 0.05 7.28 2.14 12.13
11/2/2020 5:30:00 PM 5.77 42.386 0.05 7.29 2.03 12.11
11/2/2020 5:45:00 PM 5.75 42.35 0.05 7.28 2.03 12.1
11/2/2020 6:00:00 PM 5.73 42.314 0.05 7.27 2.07 12.1
11/2/2020 6:15:00 PM 5.71 42.278 0.05 7.27 2.03 12.09
11/2/2020 6:30:00 PM 5.7 42.26 0.05 7.28 2.01 12.09
11/2/2020 6:45:00 PM 5.69 42.242 0.05 7.28 2.05 12.09
11/2/2020 7:00:00 PM 5.68 42.224 0.05 7.29 2.01 12.09
11/2/2020 7:15:00 PM 5.66 42.188 0.05 7.27 2.02 12.09
11/2/2020 7:30:00 PM 5.62 42.116 0.05 7.28 2.04 12.09
11/2/2020 7:45:00 PM 5.58 42.044 0.05 7.26 2 12.11
11/2/2020 8:00:00 PM 5.53 41.954 0.05 7.27 2.01 12.12
11/2/2020 8:15:00 PM 5.48 41.864 0.05 7.27 2 12.13
11/2/2020 8:30:00 PM 5.43 41.774 0.05 7.26 2.03 12.14
11/2/2020 8:45:00 PM 5.38 41.684 0.05 7.26 2.02 12.15
11/2/2020 9:00:00 PM 5.33 41.594 0.05 7.26 1.99 12.16
11/2/2020 9:15:00 PM 5.28 41.504 0.05 7.26 2.03 12.19
11/2/2020 9:30:00 PM 5.24 41.432 0.05 7.25 2.06 12.2
11/2/2020 9:45:00 PM 5.19 41.342 0.05 7.26 1.98 12.21
11/2/2020 10:00:00 PM 5.16 41.288 0.05 7.25 2.04 12.22
11/2/2020 10:15:00 PM 5.13 41.234 0.05 7.25 2.02 12.24
11/2/2020 10:30:00 PM 5.09 41.162 0.05 7.14 1.95 12.25
11/2/2020 10:45:00 PM 5.05 41.09 0.05 7.26 2.03 12.26
11/2/2020 11:00:00 PM 5.03 41.054 0.05 7.23 1.95 12.27
11/2/2020 11:15:00 PM 5.01 41.018 0.05 7.2 1.98 12.28
11/2/2020 11:30:00 PM 4.99 40.982 0.05 7.26 2 12.29
11/2/2020 11:45:00 PM 4.97 40.946 0.05 7.26 1.96 12.3
11/3/2020 12:00:00 AM 4.96 40.928 0.05 7.26 2.11 12.31
11/3/2020 12:15:00 AM 4.94 40.892 0.05 7.11 2.03 12.32
11/3/2020 12:30:00 AM 4.92 40.856 0.05 7.22 1.96 12.32
11/3/2020 12:45:00 AM 4.89 40.802 0.05 7.23 1.98 12.34
11/3/2020 1:00:00 AM 4.86 40.748 0.05 7.22 1.96 12.34
11/3/2020 1:15:00 AM 4.84 40.712 0.05 7.22 1.98 12.35
11/3/2020 1:30:00 AM 4.81 40.658 0.05 7.27 1.99 12.36
11/3/2020 1:45:00 AM 4.8 40.64 0.05 7.26 1.96 12.37
11/3/2020 2:00:00 AM 4.78 40.604 0.05 7.13 2.02 12.37
11/3/2020 2:15:00 AM 4.77 40.586 0.05 7.27 2 12.37
11/3/2020 2:30:00 AM 4.75 40.55 0.05 7.26 2 12.38
11/3/2020 2:45:00 AM 4.74 40.532 0.051 7.26 1.97 12.39
11/3/2020 3:00:00 AM 4.72 40.496 0.051 7.27 1.94 12.39
11/3/2020 3:15:00 AM 4.7 40.46 0.051 7.27 1.98 12.4
11/3/2020 3:30:00 AM 4.69 40.442 0.051 7.27 1.95 12.4
11/3/2020 3:45:00 AM 4.67 40.406 0.051 7.27 1.96 12.4
11/3/2020 4:00:00 AM 4.66 40.388 0.051 7.12 1.99 12.41
11/3/2020 4:15:00 AM 4.64 40.352 0.051 7.22 1.96 12.42
11/3/2020 4:30:00 AM 4.62 40.316 0.051 7.27 1.96 12.42
11/3/2020 4:45:00 AM 4.6 40.28 0.051 7.13 1.97 12.43
11/3/2020 5:00:00 AM 4.57 40.226 0.051 7.27 1.96 12.45
11/3/2020 5:15:00 AM 4.55 40.19 0.051 7.12 1.98 12.46
11/3/2020 5:30:00 AM 4.52 40.136 0.051 7.26 1.98 12.47
11/3/2020 5:45:00 AM 4.5 40.1 0.051 7.26 1.99 12.48
11/3/2020 6:00:00 AM 4.47 40.046 0.051 7.26 1.99 12.49
11/3/2020 6:15:00 AM 4.46 40.028 0.051 7.26 1.96 12.49
11/3/2020 6:30:00 AM 4.44 39.992 0.051 7.13 1.98 12.51
11/3/2020 6:45:00 AM 4.43 39.974 0.051 7.27 1.97 12.51
11/3/2020 7:00:00 AM 4.41 39.938 0.051 7.27 1.96 12.54
11/3/2020 7:15:00 AM 4.4 39.92 0.051 7.27 1.97 12.56
11/3/2020 7:30:00 AM 4.4 39.92 0.051 7.28 1.97 12.59
11/3/2020 7:45:00 AM 4.39 39.902 0.051 7.28 1.97 12.62
11/3/2020 8:00:00 AM 4.38 39.884 0.051 7.16 1.95 12.63
11/3/2020 8:15:00 AM 4.38 39.884 0.05 7.3 1.94 12.65
11/3/2020 8:30:00 AM 4.37 39.866 0.05 7.3 1.98 12.68
11/3/2020 8:45:00 AM 4.38 39.884 0.05 7.3 1.92 12.69
11/3/2020 9:00:00 AM 4.41 39.938 0.05 7.31 1.95 12.7
11/3/2020 9:15:00 AM 4.43 39.974 0.05 7.16 1.99 12.72
11/3/2020 9:30:00 AM 4.48 40.064 0.05 7.32 1.96 12.73
11/3/2020 9:45:00 AM 4.57 40.226 0.05 7.33 1.92 12.73
11/3/2020 10:00:00 AM 4.67 40.406 0.05 7.33 1.96 12.73
11/3/2020 10:15:00 AM 4.78 40.604 0.05 7.34 2.03 12.71
11/3/2020 10:30:00 AM 4.91 40.838 0.05 7.35 1.94 12.69
11/3/2020 10:45:00 AM 5.04 41.072 0.05 7.34 1.9 12.67
11/3/2020 11:00:00 AM 5.17 41.306 0.05 7.24 1.92 12.66
11/3/2020 11:15:00 AM 5.35 41.63 0.05 7.36 1.91 12.61
11/3/2020 11:30:00 AM 5.49 41.882 0.05 7.37 1.99 12.58
11/3/2020 11:45:00 AM 5.67 42.206 0.05 7.38 1.89 12.53
11/3/2020 12:00:00 PM 5.87 42.566 0.05 7.38 1.9 12.48
11/3/2020 12:15:00 PM 6.08 42.944 0.05 7.39 1.91 12.42
11/3/2020 12:30:00 PM 6.31 43.358 0.05 7.39 1.92 12.35
11/3/2020 12:45:00 PM 6.46 43.628 0.05 7.39 1.91 12.29
11/3/2020 1:00:00 PM 6.59 43.862 0.05 7.39 1.97 12.25
11/3/2020 1:15:00 PM 6.73 44.114 0.05 7.39 1.89 12.21
11/3/2020 1:30:00 PM 6.79 44.222 0.05 7.39 1.89 12.17
11/3/2020 1:45:00 PM 6.84 44.312 0.05 7.37 1.93 12.14
11/3/2020 2:00:00 PM 6.9 44.42 0.05 7.37 2.76 12.11
11/3/2020 2:15:00 PM 6.92 44.456 0.05 7.37 1.94 12.07
11/3/2020 2:30:00 PM 6.93 44.474 0.05 7.22 1.94 12.04
11/3/2020 2:45:00 PM 6.91 44.438 0.05 7.32 1.91 12.02
11/3/2020 3:00:00 PM 6.9 44.42 0.05 7.35 2 12
11/3/2020 3:15:00 PM 6.93 44.474 0.05 7.35 2.02 12.01
11/3/2020 3:30:00 PM 6.93 44.474 0.05 7.26 1.92 11.97
11/3/2020 3:45:00 PM 6.92 44.456 0.05 7.33 2 11.95
11/3/2020 4:00:00 PM 6.91 44.438 0.05 7.31 1.98 11.92
11/3/2020 4:15:00 PM 6.88 44.384 0.05 7.3 2.04 11.91
11/3/2020 4:30:00 PM 6.85 44.33 0.05 7.29 2.02 11.89
11/3/2020 4:45:00 PM 6.81 44.258 0.05 7.29 1.98 11.88
11/3/2020 5:00:00 PM 6.78 44.204 0.05 7.19 2.01 11.87
11/3/2020 5:15:00 PM 6.76 44.168 0.05 7.24 2.07 11.85
11/3/2020 5:30:00 PM 6.74 44.132 0.05 7.24 2.03 11.84
11/3/2020 5:45:00 PM 6.72 44.096 0.05 7.27 1.98 11.83
11/3/2020 6:00:00 PM 6.71 44.078 0.05 7.26 2 11.81
11/3/2020 6:15:00 PM 6.7 44.06 0.05 7.25 1.99 11.81
11/3/2020 6:30:00 PM 6.69 44.042 0.05 7.26 2.09 11.81
11/3/2020 6:45:00 PM 6.67 44.006 0.05 7.26 2.04 11.81
11/3/2020 7:00:00 PM 6.65 43.97 0.05 7.25 2.03 11.81
11/3/2020 7:15:00 PM 6.63 43.934 0.05 7.25 2.07 11.81
11/3/2020 7:30:00 PM 6.61 43.898 0.05 7.25 2.03 11.81
11/3/2020 7:45:00 PM 6.58 43.844 0.05 7.25 2 11.83
11/3/2020 8:00:00 PM 6.54 43.772 0.05 7.25 1.99 11.84
11/3/2020 8:15:00 PM 6.5 43.7 0.05 7.25 2 11.86
11/3/2020 8:30:00 PM 6.46 43.628 0.05 7.24 2.04 11.87
11/3/2020 8:45:00 PM 6.41 43.538 0.05 7.12 2.01 11.88
11/3/2020 9:00:00 PM 6.36 43.448 0.05 7.25 1.98 11.9
11/3/2020 9:15:00 PM 6.31 43.358 0.05 7.24 2.03 11.92
11/3/2020 9:30:00 PM 6.25 43.25 0.05 7.11 2.04 11.95
11/3/2020 9:45:00 PM 6.19 43.142 0.051 7.23 2.01 11.97
11/3/2020 10:00:00 PM 6.13 43.034 0.051 7.22 2.01 11.99
11/3/2020 10:15:00 PM 6.07 42.926 0.051 7.22 2 12.01
11/3/2020 10:30:00 PM 6.01 42.818 0.051 7.21 2.02 12.04
11/3/2020 10:45:00 PM 5.95 42.71 0.051 7.21 1.98 12.06
11/3/2020 11:00:00 PM 5.88 42.584 0.051 7.21 2.01 12.09
11/3/2020 11:15:00 PM 5.82 42.476 0.051 7.2 1.97 12.11
11/3/2020 11:30:00 PM 5.75 42.35 0.051 7.2 2.05 12.13
11/3/2020 11:45:00 PM 5.69 42.242 0.051 7.1 2.04 12.15
11/4/2020 12:00:00 AM 5.63 42.134 0.051 7.21 2.05 12.18
11/4/2020 12:15:00 AM 5.56 42.008 0.051 7.17 1.98 12.21
11/4/2020 12:30:00 AM 5.5 41.9 0.051 7.2 2.04 12.22
11/4/2020 12:45:00 AM 5.45 41.81 0.051 7.2 2.01 12.24
11/4/2020 1:00:00 AM 5.39 41.702 0.051 7.19 2.05 12.27
11/4/2020 1:15:00 AM 5.33 41.594 0.051 7.2 2 12.29
11/4/2020 1:30:00 AM 5.27 41.486 0.051 7.21 1.97 12.31
11/4/2020 1:45:00 AM 5.22 41.396 0.051 7.21 1.98 12.34
11/4/2020 2:00:00 AM 5.17 41.306 0.051 7.21 1.99 12.36
11/4/2020 2:15:00 AM 5.12 41.216 0.051 7.12 1.99 12.37
11/4/2020 2:30:00 AM 5.07 41.126 0.051 7.21 2.01 12.39
11/4/2020 2:45:00 AM 5.03 41.054 0.051 7.1 1.98 12.4
11/4/2020 3:00:00 AM 4.98 40.964 0.051 7.22 2.03 12.42
11/4/2020 3:15:00 AM 4.94 40.892 0.051 7.22 1.97 12.44
11/4/2020 3:30:00 AM 4.9 40.82 0.051 7.21 2.04 12.46
11/4/2020 3:45:00 AM 4.86 40.748 0.051 7.21 2 12.47
11/4/2020 4:00:00 AM 4.81 40.658 0.051 7.2 1.95 12.49
11/4/2020 4:15:00 AM 4.77 40.586 0.051 7.2 2.01 12.51
11/4/2020 4:30:00 AM 4.73 40.514 0.051 7.21 2.03 12.53
11/4/2020 4:45:00 AM 4.69 40.442 0.051 7.21 1.96 12.54
11/4/2020 5:00:00 AM 4.65 40.37 0.051 7.09 2.03 12.55
11/4/2020 5:15:00 AM 4.62 40.316 0.051 7.22 2 12.58
11/4/2020 5:30:00 AM 4.58 40.244 0.051 7.07 2 12.59
11/4/2020 5:45:00 AM 4.54 40.172 0.051 7.22 1.96 12.6
11/4/2020 6:00:00 AM 4.5 40.1 0.051 7.09 1.95 12.62
11/4/2020 6:15:00 AM 4.46 40.028 0.051 7.22 1.96 12.63
11/4/2020 6:30:00 AM 4.43 39.974 0.051 7.09 1.95 12.64
11/4/2020 6:45:00 AM 4.39 39.902 0.051 7.23 1.96 12.66
11/4/2020 7:00:00 AM 4.36 39.848 0.051 7.09 1.99 12.69
11/4/2020 7:15:00 AM 4.32 39.776 0.051 7.2 1.98 12.72
11/4/2020 7:30:00 AM 4.29 39.722 0.051 7.24 1.97 12.75
11/4/2020 7:45:00 AM 4.27 39.686 0.051 7.25 1.97 12.77
11/4/2020 8:00:00 AM 4.24 39.632 0.051 7.24 1.97 12.8
11/4/2020 8:15:00 AM 4.22 39.596 0.051 7.25 1.94 12.83
11/4/2020 8:30:00 AM 4.2 39.56 0.051 7.25 1.95 12.85
11/4/2020 8:45:00 AM 4.18 39.524 0.051 7.12 1.97 12.87
11/4/2020 9:00:00 AM 4.17 39.506 0.051 7.26 1.91 12.88
11/4/2020 9:15:00 AM 4.16 39.488 0.05 7.14 1.93 12.9
11/4/2020 9:30:00 AM 4.19 39.542 0.05 7.27 1.96 12.92
11/4/2020 9:45:00 AM 4.26 39.668 0.05 7.16 1.95 12.93
11/4/2020 10:00:00 AM 4.35 39.83 0.05 7.3 1.98 12.93
11/4/2020 10:15:00 AM 4.46 40.028 0.05 7.3 1.94 12.93
11/4/2020 10:30:00 AM 4.6 40.28 0.05 7.31 1.94 12.91
11/4/2020 10:45:00 AM 4.75 40.55 0.05 7.32 1.96 12.89
11/4/2020 11:00:00 AM 4.91 40.838 0.05 7.33 1.93 12.86
11/4/2020 11:15:00 AM 5.1 41.18 0.05 7.34 1.94 12.82
11/4/2020 11:30:00 AM 5.31 41.558 0.05 7.35 1.94 12.78
11/4/2020 11:45:00 AM 5.55 41.99 0.05 7.36 1.94 12.72
11/4/2020 12:00:00 PM 5.8 42.44 0.05 7.36 1.94 12.65
11/4/2020 12:15:00 PM 6.08 42.944 0.05 7.37 1.91 12.56
11/4/2020 12:30:00 PM 6.32 43.376 0.05 7.25 1.91 12.48
11/4/2020 12:45:00 PM 6.52 43.736 0.05 7.34 1.88 12.42
11/4/2020 1:00:00 PM 6.69 44.042 0.05 7.38 1.94 12.35
11/4/2020 1:15:00 PM 6.82 44.276 0.05 7.26 1.94 12.29
11/4/2020 1:30:00 PM 6.91 44.438 0.05 7.37 1.93 12.24
11/4/2020 1:45:00 PM 6.94 44.492 0.05 7.36 1.95 12.19
11/4/2020 2:00:00 PM 6.99 44.582 0.05 7.35 1.87 12.15
11/4/2020 2:15:00 PM 7.04 44.672 0.05 7.23 1.94 12.11
11/4/2020 2:30:00 PM 7.1 44.78 0.05 7.36 1.96 12.07
11/4/2020 2:45:00 PM 7.11 44.798 0.05 7.34 1.93 12.04
11/4/2020 3:00:00 PM 7.13 44.834 0.05 7.27 1.96 11.99
11/4/2020 3:15:00 PM 7.13 44.834 0.05 7.33 1.99 11.97
11/4/2020 3:30:00 PM 7.13 44.834 0.05 7.31 1.98 11.95
11/4/2020 3:45:00 PM 7.13 44.834 0.05 7.32 2.02 11.94
11/4/2020 4:00:00 PM 7.13 44.834 0.05 7.32 1.98 11.93
11/4/2020 4:15:00 PM 7.11 44.798 0.05 7.31 2 11.91
11/4/2020 4:30:00 PM 7.08 44.744 0.05 7.18 1.99 11.9
11/4/2020 4:45:00 PM 7.03 44.654 0.05 7.3 1.99 11.89
11/4/2020 5:00:00 PM 6.99 44.582 0.05 7.29 2.02 11.87
11/4/2020 5:15:00 PM 6.95 44.51 0.05 7.27 1.99 11.87
11/4/2020 5:30:00 PM 6.92 44.456 0.05 7.27 2.03 11.85
11/4/2020 5:45:00 PM 6.9 44.42 0.05 7.27 2 11.84
11/4/2020 6:00:00 PM 6.87 44.366 0.05 7.27 2.02 11.84
11/4/2020 6:15:00 PM 6.87 44.366 0.05 7.26 2.04 11.83
11/4/2020 6:30:00 PM 6.86 44.348 0.05 7.26 2.03 11.83
11/4/2020 6:45:00 PM 6.86 44.348 0.05 7.26 1.99 11.81
11/4/2020 7:00:00 PM 6.86 44.348 0.05 7.25 2.02 11.81
11/4/2020 7:15:00 PM 6.86 44.348 0.05 7.26 2 11.8
11/4/2020 7:30:00 PM 6.86 44.348 0.05 7.25 1.96 11.79
11/4/2020 7:45:00 PM 6.86 44.348 0.05 7.26 2.11 11.79
11/4/2020 8:00:00 PM 6.86 44.348 0.05 7.24 1.96 11.79
11/4/2020 8:15:00 PM 6.85 44.33 0.05 7.27 1.99 11.78
11/4/2020 8:30:00 PM 6.84 44.312 0.05 7.26 2.02 11.79
11/4/2020 8:45:00 PM 6.83 44.294 0.05 7.25 2.01 11.79
11/4/2020 9:00:00 PM 6.81 44.258 0.05 7.25 1.99 11.8
11/4/2020 9:15:00 PM 6.78 44.204 0.05 7.21 2 11.81
11/4/2020 9:30:00 PM 6.75 44.15 0.051 7.26 2.12 11.82
11/4/2020 9:45:00 PM 6.72 44.096 0.051 7.26 2.03 11.83
11/4/2020 10:00:00 PM 6.67 44.006 0.051 7.25 2 11.84
11/4/2020 10:15:00 PM 6.63 43.934 0.051 7.26 2.01 11.86
11/4/2020 10:30:00 PM 6.58 43.844 0.051 7.25 2 11.88
11/4/2020 10:45:00 PM 6.53 43.754 0.051 7.24 2.04 11.9
11/4/2020 11:00:00 PM 6.48 43.664 0.051 7.26 2.02 11.92
11/4/2020 11:15:00 PM 6.43 43.574 0.051 7.25 2 11.93
11/4/2020 11:30:00 PM 6.37 43.466 0.051 7.19 2 11.95
11/4/2020 11:45:00 PM 6.32 43.376 0.051 7.26 1.94 11.97
11/5/2020 12:00:00 AM 6.26 43.268 0.051 7.21 2.05 11.99
11/5/2020 12:15:00 AM 6.2 43.16 0.051 7.24 2.04 12.02
11/5/2020 12:30:00 AM 6.15 43.07 0.051 7.24 2 12.02
11/5/2020 12:45:00 AM 6.09 42.962 0.051 7.25 2.06 12.05
11/5/2020 1:00:00 AM 6.03 42.854 0.051 7.25 2.02 12.07
11/5/2020 1:15:00 AM 5.98 42.764 0.051 7.21 1.98 12.09
11/5/2020 1:30:00 AM 5.92 42.656 0.051 7.25 2.06 12.11
11/5/2020 1:45:00 AM 5.87 42.566 0.051 7.25 1.99 12.12
11/5/2020 2:00:00 AM 5.82 42.476 0.051 7.25 2.02 12.14
11/5/2020 2:15:00 AM 5.77 42.386 0.051 7.26 2.13 12.16
11/5/2020 2:30:00 AM 5.72 42.296 0.051 7.26 2.02 12.17
11/5/2020 2:45:00 AM 5.67 42.206 0.051 7.26 1.99 12.19
11/5/2020 3:00:00 AM 5.62 42.116 0.051 7.25 2.03 12.21
11/5/2020 3:15:00 AM 5.57 42.026 0.051 7.25 1.96 12.23
11/5/2020 3:30:00 AM 5.52 41.936 0.051 7.25 2.02 12.25
11/5/2020 3:45:00 AM 5.47 41.846 0.051 7.25 1.97 12.26
11/5/2020 4:00:00 AM 5.42 41.756 0.051 7.17 2.04 12.28
11/5/2020 4:15:00 AM 5.38 41.684 0.051 7.26 2.02 12.3
11/5/2020 4:30:00 AM 5.33 41.594 0.051 7.25 1.99 12.31
11/5/2020 4:45:00 AM 5.29 41.522 0.051 7.25 2 12.33
11/5/2020 5:00:00 AM 5.24 41.432 0.051 7.16 1.97 12.35
11/5/2020 5:15:00 AM 5.2 41.36 0.051 7.25 2.01 12.36
11/5/2020 5:30:00 AM 5.16 41.288 0.051 7.26 1.99 12.37
11/5/2020 5:45:00 AM 5.12 41.216 0.051 7.26 2.03 12.39
11/5/2020 6:00:00 AM 5.08 41.144 0.051 7.25 1.99 12.4
11/5/2020 6:15:00 AM 5.04 41.072 0.051 7.26 2.01 12.41
11/5/2020 6:30:00 AM 5.01 41.018 0.051 7.24 2.01 12.43
11/5/2020 6:45:00 AM 4.97 40.946 0.051 7.25 2.04 12.45
11/5/2020 7:00:00 AM 4.93 40.874 0.051 7.18 2.02 12.47
11/5/2020 7:15:00 AM 4.9 40.82 0.051 7.26 2 12.5
11/5/2020 7:30:00 AM 4.87 40.766 0.051 7.26 1.99 12.53
11/5/2020 7:45:00 AM 4.85 40.73 0.051 7.27 2.02 12.56
11/5/2020 8:00:00 AM 4.83 40.694 0.051 7.27 2.02 12.59
11/5/2020 8:15:00 AM 4.82 40.676 0.051 7.28 1.98 12.62
11/5/2020 8:30:00 AM 4.81 40.658 0.05 7.27 2 12.64
11/5/2020 8:45:00 AM 4.82 40.676 0.05 7.23 1.99 12.68
11/5/2020 9:00:00 AM 4.83 40.694 0.05 7.3 1.98 12.7
11/5/2020 9:15:00 AM 4.91 40.838 0.05 7.31 1.98 12.74
11/5/2020 9:30:00 AM 5.01 41.018 0.05 7.33 2 12.74
11/5/2020 9:45:00 AM 5.13 41.234 0.05 7.33 1.98 12.73
11/5/2020 10:00:00 AM 5.29 41.522 0.05 7.35 1.98 12.72
11/5/2020 10:15:00 AM 5.44 41.792 0.05 7.37 2 12.69
11/5/2020 10:30:00 AM 5.63 42.134 0.05 7.33 2 12.65
11/5/2020 10:45:00 AM 5.81 42.458 0.05 7.39 1.99 12.61
11/5/2020 11:00:00 AM 6 42.8 0.05 7.38 1.93 12.57
11/5/2020 11:15:00 AM 6.17 43.106 0.05 7.26 1.95 12.53
11/5/2020 11:30:00 AM 6.37 43.466 0.05 7.35 2.01 12.47
11/5/2020 11:45:00 AM 6.53 43.754 0.05 7.4 1.98 12.43
11/5/2020 12:00:00 PM 6.79 44.222 0.05 7.39 1.96 12.36
11/5/2020 12:15:00 PM 6.97 44.546 0.05 7.4 1.96 12.29
11/5/2020 12:30:00 PM 7.15 44.87 0.049 7.41 1.95 12.23
11/5/2020 12:45:00 PM 7.26 45.068 0.049 7.4 2 12.18
11/5/2020 1:00:00 PM 7.36 45.248 0.049 7.28 1.96 12.14
11/5/2020 1:15:00 PM 7.45 45.41 0.049 7.41 1.99 12.1
11/5/2020 1:30:00 PM 7.51 45.518 0.049 7.4 2 12.06
11/5/2020 1:45:00 PM 7.58 45.644 0.049 7.32 1.99 12.02
11/5/2020 2:00:00 PM 7.7 45.86 0.049 7.4 2 11.99
11/5/2020 2:15:00 PM 7.78 46.004 0.049 7.4 2.02 11.95
11/5/2020 2:30:00 PM 7.87 46.166 0.049 7.4 2.03 11.91
11/5/2020 2:45:00 PM 7.92 46.256 0.049 7.4 2.02 11.86
11/5/2020 3:00:00 PM 7.93 46.274 0.049 7.39 1.98 11.82
11/5/2020 3:15:00 PM 7.95 46.31 0.049 7.38 2.02 11.78
11/5/2020 3:30:00 PM 7.96 46.328 0.049 7.37 1.97 11.76
11/5/2020 3:45:00 PM 7.97 46.346 0.049 7.36 2.09 11.72
11/5/2020 4:00:00 PM 7.97 46.346 0.049 7.35 2.02 11.69
11/5/2020 4:15:00 PM 7.96 46.328 0.049 7.33 2 11.65
11/5/2020 4:30:00 PM 7.93 46.274 0.049 7.18 2.01 11.63
11/5/2020 4:45:00 PM 7.89 46.202 0.05 7.31 2.03 11.61
11/5/2020 5:00:00 PM 7.85 46.13 0.05 7.29 2.02 11.58
11/5/2020 5:15:00 PM 7.81 46.058 0.05 7.28 2.11 11.57
11/5/2020 5:30:00 PM 7.78 46.004 0.05 7.27 2.1 11.56
11/5/2020 5:45:00 PM 7.75 45.95 0.05 7.25 2.04 11.55
11/5/2020 6:00:00 PM 7.72 45.896 0.05 7.27 2.1 11.54
11/5/2020 6:15:00 PM 7.69 45.842 0.05 7.25 2.08 11.54
11/5/2020 6:30:00 PM 7.67 45.806 0.05 7.19 2.1 11.52
11/5/2020 6:45:00 PM 7.66 45.788 0.05 7.23 2.06 11.52
11/5/2020 7:00:00 PM 7.65 45.77 0.05 7.23 2.05 11.52
11/5/2020 7:15:00 PM 7.65 45.77 0.05 7.24 2.04 11.52
11/5/2020 7:30:00 PM 7.64 45.752 0.05 7.2 2.04 11.51
11/5/2020 7:45:00 PM 7.63 45.734 0.05 7.23 2.03 11.51
11/5/2020 8:00:00 PM 7.62 45.716 0.05 7.19 2.07 11.51
11/5/2020 8:15:00 PM 7.61 45.698 0.05 7.24 2.04 11.51
11/5/2020 8:30:00 PM 7.6 45.68 0.05 7.2 2.02 11.51
11/5/2020 8:45:00 PM 7.6 45.68 0.05 7.24 2.09 11.51
11/5/2020 9:00:00 PM 7.59 45.662 0.05 7.19 2.04 11.51
11/5/2020 9:15:00 PM 7.58 45.644 0.05 7.22 2.03 11.52
11/5/2020 9:30:00 PM 7.57 45.626 0.05 7.22 2.05 11.52
11/5/2020 9:45:00 PM 7.55 45.59 0.05 7.24 2.12 11.53
11/5/2020 10:00:00 PM 7.54 45.572 0.05 7.23 2.07 11.53
11/5/2020 10:15:00 PM 7.53 45.554 0.05 7.23 2.03 11.54
11/5/2020 10:30:00 PM 7.52 45.536 0.05 7.24 2.04 11.54
11/5/2020 10:45:00 PM 7.51 45.518 0.051 7.24 2.03 11.55
11/5/2020 11:00:00 PM 7.5 45.5 0.051 7.24 2.02 11.55
11/5/2020 11:15:00 PM 7.48 45.464 0.051 7.24 2.03 11.55
11/5/2020 11:30:00 PM 7.46 45.428 0.051 7.21 2.12 11.56
11/5/2020 11:45:00 PM 7.43 45.374 0.051 7.22 1.99 11.57
11/6/2020 12:00:00 AM 7.41 45.338 0.051 7.24 2.02 11.58
11/6/2020 12:15:00 AM 7.38 45.284 0.051 7.17 2.08 11.59
11/6/2020 12:30:00 AM 7.35 45.23 0.051 7.24 2.02 11.6
11/6/2020 12:45:00 AM 7.33 45.194 0.051 7.24 2.11 11.61
11/6/2020 1:00:00 AM 7.3 45.14 0.051 7.22 2.02 11.62
11/6/2020 1:15:00 AM 7.28 45.104 0.051 7.24 2.13 11.63
11/6/2020 1:30:00 AM 7.26 45.068 0.051 7.23 2.02 11.64
11/6/2020 1:45:00 AM 7.24 45.032 0.051 7.23 1.99 11.64
11/6/2020 2:00:00 AM 7.22 44.996 0.051 7.1 2.07 11.64
11/6/2020 2:15:00 AM 7.2 44.96 0.051 7.23 2.07 11.65
11/6/2020 2:30:00 AM 7.18 44.924 0.051 7.23 2.05 11.66
11/6/2020 2:45:00 AM 7.15 44.87 0.051 7.23 2.04 11.67
11/6/2020 3:00:00 AM 7.11 44.798 0.051 7.23 2.05 11.68
11/6/2020 3:15:00 AM 7.06 44.708 0.051 7.12 2.03 11.69
11/6/2020 3:30:00 AM 7.02 44.636 0.051 7.22 2.06 11.7
11/6/2020 3:45:00 AM 6.97 44.546 0.051 7.14 2.03 11.71
11/6/2020 4:00:00 AM 6.93 44.474 0.051 7.22 2.02 11.72
11/6/2020 4:15:00 AM 6.88 44.384 0.051 7.16 2.01 11.74
11/6/2020 4:30:00 AM 6.83 44.294 0.051 7.2 2.03 11.75
11/6/2020 4:45:00 AM 6.79 44.222 0.051 7.19 2.04 11.77
11/6/2020 5:00:00 AM 6.74 44.132 0.051 7.21 2.03 11.78
11/6/2020 5:15:00 AM 6.69 44.042 0.051 7.21 2.1 11.79
11/6/2020 5:30:00 AM 6.65 43.97 0.051 7.21 2.1 11.81
11/6/2020 5:45:00 AM 6.6 43.88 0.051 7.13 2.04 11.83
11/6/2020 6:00:00 AM 6.55 43.79 0.051 7.22 2.01 11.85
11/6/2020 6:15:00 AM 6.5 43.7 0.051 7.21 2.05 11.86
11/6/2020 6:30:00 AM 6.45 43.61 0.051 7.21 2.05 11.87
11/6/2020 6:45:00 AM 6.4 43.52 0.051 7.21 2.03 11.89
11/6/2020 7:00:00 AM 6.36 43.448 0.051 7.18 2.05 11.91
11/6/2020 7:15:00 AM 6.31 43.358 0.051 7.21 2.04 11.95
11/6/2020 7:30:00 AM 6.27 43.286 0.051 7.22 2.01 11.99
11/6/2020 7:45:00 AM 6.23 43.214 0.051 7.18 2.02 12.02
11/6/2020 8:00:00 AM 6.2 43.16 0.051 7.23 2.03 12.06
11/6/2020 8:15:00 AM 6.17 43.106 0.051 7.24 2.04 12.09
11/6/2020 8:30:00 AM 6.14 43.052 0.051 7.24 2.06 12.12
11/6/2020 8:45:00 AM 6.12 43.016 0.051 7.21 2.04 12.15
11/6/2020 9:00:00 AM 6.1 42.98 0.05 7.24 2.04 12.18
11/6/2020 9:15:00 AM 6.09 42.962 0.05 7.26 2.07 12.2
11/6/2020 9:30:00 AM 6.11 42.998 0.05 7.14 2.05 12.22
11/6/2020 9:45:00 AM 6.17 43.106 0.05 7.28 2.06 12.24
11/6/2020 10:00:00 AM 6.27 43.286 0.05 7.26 2 12.25
11/6/2020 10:15:00 AM 6.4 43.52 0.05 7.32 2.04 12.25
11/6/2020 10:30:00 AM 6.55 43.79 0.05 7.34 2.01 12.25
11/6/2020 10:45:00 AM 6.72 44.096 0.05 7.33 1.98 12.23
11/6/2020 11:00:00 AM 6.89 44.402 0.05 7.37 2.09 12.2
11/6/2020 11:15:00 AM 7.08 44.744 0.05 7.38 2 12.17
11/6/2020 11:30:00 AM 7.28 45.104 0.05 7.38 1.98 12.13
11/6/2020 11:45:00 AM 7.5 45.5 0.05 7.35 2.04 12.09
11/6/2020 12:00:00 PM 7.74 45.932 0.05 7.4 1.99 12.02
11/6/2020 12:15:00 PM 7.97 46.346 0.05 7.4 1.99 11.96
11/6/2020 12:30:00 PM 8.21 46.778 0.05 7.4 2.02 11.89
11/6/2020 12:45:00 PM 8.4 47.12 0.049 7.41 2.01 11.83
11/6/2020 1:00:00 PM 8.56 47.408 0.049 7.41 2.05 11.77
11/6/2020 1:15:00 PM 8.66 47.588 0.049 7.41 2.02 11.72
11/6/2020 1:30:00 PM 8.72 47.696 0.049 7.41 2.03 11.68
11/6/2020 1:45:00 PM 8.74 47.732 0.049 7.39 1.99 11.64
11/6/2020 2:00:00 PM 8.78 47.804 0.049 7.39 2.07 11.6
11/6/2020 2:15:00 PM 8.82 47.876 0.049 7.33 2.02 11.56
11/6/2020 2:30:00 PM 8.86 47.948 0.049 7.37 2.05 11.52
11/6/2020 2:45:00 PM 8.88 47.984 0.049 7.36 2.08 11.47
11/6/2020 3:00:00 PM 8.9 48.02 0.049 7.36 2.01 11.43
11/6/2020 3:15:00 PM 8.91 48.038 0.05 7.36 2.06 11.4
11/6/2020 3:30:00 PM 8.91 48.038 0.05 7.34 2.1 11.36
11/6/2020 3:45:00 PM 8.9 48.02 0.05 7.2 2.08 11.35
11/6/2020 4:00:00 PM 8.88 47.984 0.05 7.32 1.99 11.33
11/6/2020 4:15:00 PM 8.85 47.93 0.05 7.31 2.1 11.32
11/6/2020 4:30:00 PM 8.81 47.858 0.05 7.3 2.03 11.31
11/6/2020 4:45:00 PM 8.75 47.75 0.05 7.29 2.04 11.3
11/6/2020 5:00:00 PM 8.68 47.624 0.05 7.27 2.1 11.29
11/6/2020 5:15:00 PM 8.62 47.516 0.05 7.13 2.19 11.28
11/6/2020 5:30:00 PM 8.56 47.408 0.05 7.26 2.17 11.28
11/6/2020 5:45:00 PM 8.5 47.3 0.05 7.11 2.1 11.28
11/6/2020 6:00:00 PM 8.46 47.228 0.05 7.23 2.18 11.29
11/6/2020 6:15:00 PM 8.41 47.138 0.05 7.24 2.07 11.29
11/6/2020 6:30:00 PM 8.37 47.066 0.05 7.24 2.07 11.29
11/6/2020 6:45:00 PM 8.34 47.012 0.05 7.23 2.03 11.29
11/6/2020 7:00:00 PM 8.31 46.958 0.05 7.23 2.13 11.29
11/6/2020 7:15:00 PM 8.28 46.904 0.05 7.23 2.13 11.29
11/6/2020 7:30:00 PM 8.26 46.868 0.05 7.22 2.06 11.29
11/6/2020 7:45:00 PM 8.25 46.85 0.05 7.22 2.13 11.29
11/6/2020 8:00:00 PM 8.23 46.814 0.05 7.22 2.14 11.29
11/6/2020 8:15:00 PM 8.22 46.796 0.05 7.21 2.09 11.29
11/6/2020 8:30:00 PM 8.2 46.76 0.05 7.22 2.08 11.29
11/6/2020 8:45:00 PM 8.19 46.742 0.05 7.22 2.11 11.29
11/6/2020 9:00:00 PM 8.17 46.706 0.05 7.21 2.06 11.29
11/6/2020 9:15:00 PM 8.15 46.67 0.05 7.22 2.12 11.3
11/6/2020 9:30:00 PM 8.13 46.634 0.05 7.21 2.1 11.31
11/6/2020 9:45:00 PM 8.11 46.598 0.05 7.22 2.1 11.31
11/6/2020 10:00:00 PM 8.08 46.544 0.05 7.22 2.08 11.33
11/6/2020 10:15:00 PM 8.04 46.472 0.051 7.22 2.14 11.33
11/6/2020 10:30:00 PM 8.01 46.418 0.051 7.18 2.07 11.35
11/6/2020 10:45:00 PM 7.96 46.328 0.051 7.21 2.06 11.36
11/6/2020 11:00:00 PM 7.92 46.256 0.051 7.21 2.09 11.38
11/6/2020 11:15:00 PM 7.88 46.184 0.051 7.2 2.04 11.39
11/6/2020 11:30:00 PM 7.83 46.094 0.051 7.21 2.08 11.41
11/6/2020 11:45:00 PM 7.78 46.004 0.051 7.2 2.12 11.42
11/7/2020 12:00:00 AM 7.72 45.896 0.051 7.2 2.06 11.44
11/7/2020 12:15:00 AM 7.67 45.806 0.051 7.18 2.09 11.46
11/7/2020 12:30:00 AM 7.61 45.698 0.051 7.2 2.05 11.48
11/7/2020 12:45:00 AM 7.56 45.608 0.051 7.14 2.05 11.49
11/7/2020 1:00:00 AM 7.5 45.5 0.051 7.2 2.1 11.51
11/7/2020 1:15:00 AM 7.44 45.392 0.051 7.2 2.1 11.53
11/7/2020 1:30:00 AM 7.38 45.284 0.051 7.21 2.03 11.56
11/7/2020 1:45:00 AM 7.32 45.176 0.051 7.2 2.05 11.58
11/7/2020 2:00:00 AM 7.26 45.068 0.051 7.19 2.07 11.59
11/7/2020 2:15:00 AM 7.2 44.96 0.051 7.2 2.09 11.61
11/7/2020 2:30:00 AM 7.14 44.852 0.051 7.08 2.14 11.64
11/7/2020 2:45:00 AM 7.08 44.744 0.051 7.2 2.03 11.66
11/7/2020 3:00:00 AM 7.03 44.654 0.051 7.19 2.11 11.68
11/7/2020 3:15:00 AM 6.97 44.546 0.051 7.17 2.09 11.7
11/7/2020 3:30:00 AM 6.91 44.438 0.051 7.19 2.08 11.71
11/7/2020 3:45:00 AM 6.85 44.33 0.051 7.19 2.06 11.73
11/7/2020 4:00:00 AM 6.79 44.222 0.051 7.17 2.05 11.76
11/7/2020 4:15:00 AM 6.74 44.132 0.051 7.14 2.07 11.78
11/7/2020 4:30:00 AM 6.68 44.024 0.051 7.18 2.07 11.8
11/7/2020 4:45:00 AM 6.63 43.934 0.051 7.05 2.08 11.82
11/7/2020 5:00:00 AM 6.57 43.826 0.051 7.14 2.07 11.84
11/7/2020 5:15:00 AM 6.52 43.736 0.051 7.19 2.06 11.86
11/7/2020 5:30:00 AM 6.46 43.628 0.051 7.19 2.14 11.87
11/7/2020 5:45:00 AM 6.41 43.538 0.051 7.06 2.06 11.89
11/7/2020 6:00:00 AM 6.35 43.43 0.051 7.19 2.06 11.9
11/7/2020 6:15:00 AM 6.31 43.358 0.051 7.18 2.06 11.93
11/7/2020 6:30:00 AM 6.25 43.25 0.051 7.18 2.08 11.95
11/7/2020 6:45:00 AM 6.21 43.178 0.051 7.18 2.12 11.97
11/7/2020 7:00:00 AM 6.16 43.088 0.051 7.06 2.09 12
11/7/2020 7:15:00 AM 6.11 42.998 0.051 7.19 2.07 12.03
11/7/2020 7:30:00 AM 6.07 42.926 0.051 7.12 2.12 12.08
11/7/2020 7:45:00 AM 6.04 42.872 0.051 7.21 2.06 12.12
11/7/2020 8:00:00 AM 6.02 42.836 0.051 7.08 2.05 12.16
11/7/2020 8:15:00 AM 5.99 42.782 0.051 7.21 2.06 12.19
11/7/2020 8:30:00 AM 5.97 42.746 0.051 7.09 2.06 12.22
11/7/2020 8:45:00 AM 5.95 42.71 0.05 7.23 2.1 12.24
11/7/2020 9:00:00 AM 5.93 42.674 0.05 7.11 2.1 12.27
11/7/2020 9:15:00 AM 5.92 42.656 0.05 7.24 2.03 12.3
11/7/2020 9:30:00 AM 5.94 42.692 0.05 7.24 2.06 12.32
11/7/2020 9:45:00 AM 6 42.8 0.05 7.25 2.03 12.34
11/7/2020 10:00:00 AM 6.11 42.998 0.05 7.13 2.07 12.35
11/7/2020 10:15:00 AM 6.23 43.214 0.05 7.29 2.04 12.35
11/7/2020 10:30:00 AM 6.37 43.466 0.05 7.31 2.08 12.34
11/7/2020 10:45:00 AM 6.54 43.772 0.05 7.33 2.1 12.32
11/7/2020 11:00:00 AM 6.72 44.096 0.05 7.33 2.04 12.3
11/7/2020 11:15:00 AM 6.91 44.438 0.05 7.35 2.09 12.26
11/7/2020 11:30:00 AM 7.12 44.816 0.05 7.35 2.02 12.23
11/7/2020 11:45:00 AM 7.33 45.194 0.05 7.36 2.03 12.18
11/7/2020 12:00:00 PM 7.56 45.608 0.05 7.37 2.02 12.12
11/7/2020 12:15:00 PM 7.79 46.022 0.05 7.38 2.04 12.06
11/7/2020 12:30:00 PM 8.03 46.454 0.05 7.27 2 11.99
11/7/2020 12:45:00 PM 8.23 46.814 0.049 7.39 2.03 11.92
11/7/2020 1:00:00 PM 8.41 47.138 0.049 7.38 2.02 11.87
11/7/2020 1:15:00 PM 8.53 47.354 0.049 7.38 2.08 11.8
11/7/2020 1:30:00 PM 8.55 47.39 0.049 7.38 2.07 11.78
11/7/2020 1:45:00 PM 8.58 47.444 0.049 7.36 2.09 11.73
11/7/2020 2:00:00 PM 8.61 47.498 0.049 7.36 2.01 11.7
11/7/2020 2:15:00 PM 8.65 47.57 0.049 7.35 2.11 11.66
11/7/2020 2:30:00 PM 8.68 47.624 0.049 7.35 2.05 11.62
11/7/2020 2:45:00 PM 8.71 47.678 0.049 7.33 2.09 11.57
11/7/2020 3:00:00 PM 8.73 47.714 0.049 7.32 2.06 11.53
11/7/2020 3:15:00 PM 8.75 47.75 0.049 7.19 2.18 11.5
11/7/2020 3:30:00 PM 8.77 47.786 0.049 7.28 2.08 11.48
11/7/2020 3:45:00 PM 8.79 47.822 0.049 7.32 2.03 11.46
11/7/2020 4:00:00 PM 8.8 47.84 0.049 7.3 2.07 11.44
11/7/2020 4:15:00 PM 8.79 47.822 0.049 7.29 2.08 11.41
11/7/2020 4:30:00 PM 8.76 47.768 0.05 7.28 2.09 11.4
11/7/2020 4:45:00 PM 8.71 47.678 0.05 7.26 2.11 11.37
11/7/2020 5:00:00 PM 8.66 47.588 0.05 7.25 2.12 11.35
11/7/2020 5:15:00 PM 8.6 47.48 0.05 7.23 2.09 11.32
11/7/2020 5:30:00 PM 8.54 47.372 0.05 7.22 2.15 11.32
11/7/2020 5:45:00 PM 8.48 47.264 0.05 7.21 2.26 11.32
11/7/2020 6:00:00 PM 8.43 47.174 0.05 7.21 2.11 11.32
11/7/2020 6:15:00 PM 8.38 47.084 0.05 7.2 2.21 11.32
11/7/2020 6:30:00 PM 8.34 47.012 0.05 7.19 2.18 11.33
11/7/2020 6:45:00 PM 8.3 46.94 0.05 7.07 2.11 11.32
11/7/2020 7:00:00 PM 8.26 46.868 0.05 7.19 2.15 11.32
11/7/2020 7:15:00 PM 8.23 46.814 0.05 7.08 2.13 11.33
11/7/2020 7:30:00 PM 8.2 46.76 0.05 7.2 2.13 11.32
11/7/2020 7:45:00 PM 8.17 46.706 0.05 7.19 2.12 11.33
11/7/2020 8:00:00 PM 8.15 46.67 0.05 7.18 2.15 11.33
11/7/2020 8:15:00 PM 8.13 46.634 0.05 7.2 2.25 11.33
11/7/2020 8:30:00 PM 8.11 46.598 0.05 7.19 2.15 11.34
11/7/2020 8:45:00 PM 8.09 46.562 0.05 7.19 2.13 11.34
11/7/2020 9:00:00 PM 8.08 46.544 0.05 7.15 2.16 11.34
11/7/2020 9:15:00 PM 8.06 46.508 0.05 7.19 2.15 11.35
11/7/2020 9:30:00 PM 8.04 46.472 0.05 7.19 2.08 11.36
11/7/2020 9:45:00 PM 8.01 46.418 0.05 7.2 2.1 11.36
11/7/2020 10:00:00 PM 7.98 46.364 0.05 7.2 2.1 11.37
11/7/2020 10:15:00 PM 7.95 46.31 0.05 7.2 2.08 11.38
11/7/2020 10:30:00 PM 7.92 46.256 0.05 7.2 2.1 11.39
11/7/2020 10:45:00 PM 7.88 46.184 0.051 7.21 2.11 11.39
11/7/2020 11:00:00 PM 7.84 46.112 0.051 7.2 2.35 11.41
11/7/2020 11:15:00 PM 7.8 46.04 0.051 7.19 2.07 11.42
11/7/2020 11:30:00 PM 7.75 45.95 0.051 7.2 2.1 11.45
11/7/2020 11:45:00 PM 7.7 45.86 0.051 7.22 2.07 11.45
11/8/2020 12:00:00 AM 7.66 45.788 0.051 7.21 2.09 11.48
11/8/2020 12:15:00 AM 7.6 45.68 0.051 7.21 2.09 11.49
11/8/2020 12:30:00 AM 7.54 45.572 0.051 7.19 2.06 11.51
11/8/2020 12:45:00 AM 7.49 45.482 0.051 7.13 2.14 11.53
11/8/2020 1:00:00 AM 7.43 45.374 0.051 7.22 2.08 11.54
11/8/2020 1:15:00 AM 7.37 45.266 0.051 7.21 2.14 11.57
11/8/2020 1:30:00 AM 7.31 45.158 0.051 7.18 2.08 11.59
11/8/2020 1:45:00 AM 7.24 45.032 0.051 7.2 2.15 11.61
11/8/2020 2:00:00 AM 7.18 44.924 0.051 7.2 2.13 11.63
11/8/2020 2:15:00 AM 7.12 44.816 0.051 7.13 2.07 11.65
11/8/2020 2:30:00 AM 7.06 44.708 0.051 7.2 2.09 11.67
11/8/2020 2:45:00 AM 6.99 44.582 0.051 7.21 2.13 11.69
11/8/2020 3:00:00 AM 6.93 44.474 0.051 7.22 2.07 11.72
11/8/2020 3:15:00 AM 6.87 44.366 0.051 7.22 2.11 11.74
11/8/2020 3:30:00 AM 6.81 44.258 0.051 7.22 2.14 11.77
11/8/2020 3:45:00 AM 6.75 44.15 0.051 7.22 2.14 11.79
11/8/2020 4:00:00 AM 6.69 44.042 0.051 7.22 2.13 11.8
11/8/2020 4:15:00 AM 6.62 43.916 0.051 7.21 2.09 11.83
11/8/2020 4:30:00 AM 6.56 43.808 0.051 7.22 2.09 11.85
11/8/2020 4:45:00 AM 6.5 43.7 0.051 7.21 2.14 11.87
11/8/2020 5:00:00 AM 6.44 43.592 0.051 7.22 2.12 11.89
11/8/2020 5:15:00 AM 6.38 43.484 0.051 7.2 2.12 11.91
11/8/2020 5:30:00 AM 6.32 43.376 0.051 7.21 2.09 11.93
11/8/2020 5:45:00 AM 6.27 43.286 0.051 7.22 2.17 11.95
11/8/2020 6:00:00 AM 6.21 43.178 0.051 7.1 2.11 11.97
11/8/2020 6:15:00 AM 6.15 43.07 0.051 7.23 2.1 12
11/8/2020 6:30:00 AM 6.09 42.962 0.051 7.22 2.08 12.02
11/8/2020 6:45:00 AM 6.04 42.872 0.051 7.2 2.12 12.04
11/8/2020 7:00:00 AM 5.99 42.782 0.051 7.21 2.08 12.07
11/8/2020 7:15:00 AM 5.94 42.692 0.051 7.24 2.08 12.11
11/8/2020 7:30:00 AM 5.89 42.602 0.051 7.13 2.1 12.15
11/8/2020 7:45:00 AM 5.85 42.53 0.051 7.24 2.09 12.2
11/8/2020 8:00:00 AM 5.81 42.458 0.051 7.26 2.08 12.23
11/8/2020 8:15:00 AM 5.78 42.404 0.051 7.15 2.07 12.27
11/8/2020 8:30:00 AM 5.75 42.35 0.051 7.26 2.1 12.3
11/8/2020 8:45:00 AM 5.72 42.296 0.051 7.22 2.04 12.33
11/8/2020 9:00:00 AM 5.7 42.26 0.05 7.28 2.09 12.36
11/8/2020 9:15:00 AM 5.68 42.224 0.05 7.27 2.12 12.38
11/8/2020 9:30:00 AM 5.69 42.242 0.05 7.29 2.13 12.41
11/8/2020 9:45:00 AM 5.75 42.35 0.05 7.3 2.1 12.43
11/8/2020 10:00:00 AM 5.85 42.53 0.05 7.31 2.06 12.45
11/8/2020 10:15:00 AM 5.99 42.782 0.05 7.34 2.1 12.46
11/8/2020 10:30:00 AM 6.14 43.052 0.05 7.26 2.07 12.45
11/8/2020 10:45:00 AM 6.32 43.376 0.05 7.35 2.09 12.43
11/8/2020 11:00:00 AM 6.5 43.7 0.05 7.24 2.09 12.41
11/8/2020 11:15:00 AM 6.69 44.042 0.05 7.38 2.03 12.38
11/8/2020 11:30:00 AM 6.89 44.402 0.05 7.27 2.15 12.35
11/8/2020 11:45:00 AM 7.1 44.78 0.05 7.4 2.07 12.3
11/8/2020 12:00:00 PM 7.32 45.176 0.05 7.4 2.04 12.25
11/8/2020 12:15:00 PM 7.55 45.59 0.05 7.41 2.02 12.19
11/8/2020 12:30:00 PM 7.77 45.986 0.049 7.41 2.08 12.12
11/8/2020 12:45:00 PM 7.94 46.292 0.049 7.41 2.03 12.07
11/8/2020 1:00:00 PM 8.12 46.616 0.049 7.42 2.03 12
11/8/2020 1:15:00 PM 8.25 46.85 0.049 7.41 2.03 11.93
11/8/2020 1:30:00 PM 8.28 46.904 0.049 7.4 2.15 11.9
11/8/2020 1:45:00 PM 8.32 46.976 0.049 7.39 2.08 11.86
11/8/2020 2:00:00 PM 8.32 46.976 0.049 7.36 2.07 11.83
11/8/2020 2:15:00 PM 8.35 47.03 0.049 7.38 2.06 11.79
11/8/2020 2:30:00 PM 8.38 47.084 0.049 7.26 2.07 11.74
11/8/2020 2:45:00 PM 8.41 47.138 0.049 7.36 2.13 11.69
11/8/2020 3:00:00 PM 8.42 47.156 0.049 7.35 2.06 11.64
11/8/2020 3:15:00 PM 8.43 47.174 0.049 7.33 2.61 11.6
11/8/2020 3:30:00 PM 8.44 47.192 0.049 7.32 2.11 11.58
11/8/2020 3:45:00 PM 8.46 47.228 0.049 7.31 2.05 11.55
11/8/2020 4:00:00 PM 8.46 47.228 0.049 7.27 2.11 11.53
11/8/2020 4:15:00 PM 8.44 47.192 0.05 7.31 2.16 11.51
11/8/2020 4:30:00 PM 8.41 47.138 0.05 7.3 2.1 11.49
11/8/2020 4:45:00 PM 8.37 47.066 0.05 7.17 2.14 11.48
11/8/2020 5:00:00 PM 8.32 46.976 0.05 7.26 2.12 11.46
11/8/2020 5:15:00 PM 8.27 46.886 0.05 7.26 2.39 11.43
11/8/2020 5:30:00 PM 8.22 46.796 0.05 7.25 2.13 11.43
11/8/2020 5:45:00 PM 8.17 46.706 0.05 7.17 2.46 11.43
11/8/2020 6:00:00 PM 8.12 46.616 0.05 7.26 2.13 11.43
11/8/2020 6:15:00 PM 8.08 46.544 0.05 7.26 2.13 11.44
11/8/2020 6:30:00 PM 8.03 46.454 0.05 7.26 2.26 11.44
11/8/2020 6:45:00 PM 7.99 46.382 0.05 7.11 2.14 11.45
11/8/2020 7:00:00 PM 7.96 46.328 0.05 7.25 2.13 11.45
11/8/2020 7:15:00 PM 7.93 46.274 0.05 7.23 2.18 11.45
11/8/2020 7:30:00 PM 7.9 46.22 0.05 7.22 2.15 11.45
11/8/2020 7:45:00 PM 7.87 46.166 0.05 7.23 2.16 11.46
11/8/2020 8:00:00 PM 7.85 46.13 0.05 7.24 2.17 11.46
11/8/2020 8:15:00 PM 7.83 46.094 0.05 7.24 2.15 11.46
11/8/2020 8:30:00 PM 7.82 46.076 0.05 7.24 2.12 11.46
11/8/2020 8:45:00 PM 7.81 46.058 0.05 7.24 2.14 11.46
11/8/2020 9:00:00 PM 7.79 46.022 0.05 7.23 2.14 11.46
11/8/2020 9:15:00 PM 7.78 46.004 0.05 7.24 2.15 11.47
11/8/2020 9:30:00 PM 7.76 45.968 0.05 7.21 2.14 11.46
11/8/2020 9:45:00 PM 7.75 45.95 0.05 7.23 2.13 11.46
11/8/2020 10:00:00 PM 7.73 45.914 0.05 7.23 2.08 11.47
11/8/2020 10:15:00 PM 7.71 45.878 0.05 7.11 2.15 11.48
11/8/2020 10:30:00 PM 7.68 45.824 0.05 7.24 2.1 11.48
11/8/2020 10:45:00 PM 7.66 45.788 0.05 7.12 2.11 11.49
11/8/2020 11:00:00 PM 7.63 45.734 0.05 7.23 2.14 11.5
11/8/2020 11:15:00 PM 7.6 45.68 0.051 7.24 2.12 11.5
11/8/2020 11:30:00 PM 7.56 45.608 0.051 7.22 2.14 11.52
11/8/2020 11:45:00 PM 7.53 45.554 0.051 7.25 2.22 11.53
11/9/2020 12:00:00 AM 7.48 45.464 0.051 7.22 2.1 11.55
11/9/2020 12:15:00 AM 7.44 45.392 0.051 7.21 2.13 11.57
11/9/2020 12:30:00 AM 7.4 45.32 0.051 7.21 2.16 11.58
11/9/2020 12:45:00 AM 7.35 45.23 0.051 7.19 2.13 11.59
11/9/2020 1:00:00 AM 7.31 45.158 0.051 7.13 2.14 11.6
11/9/2020 1:15:00 AM 7.25 45.05 0.051 7.19 2.11 11.62
11/9/2020 1:30:00 AM 7.21 44.978 0.051 7.23 2.12 11.64
11/9/2020 1:45:00 AM 7.15 44.87 0.051 7.11 2.11 11.66
11/9/2020 2:00:00 AM 7.1 44.78 0.051 7.23 2.14 11.67
11/9/2020 2:15:00 AM 7.04 44.672 0.051 7.23 2.14 11.69
11/9/2020 2:30:00 AM 6.99 44.582 0.051 7.23 2.12 11.71
11/9/2020 2:45:00 AM 6.94 44.492 0.051 7.23 2.18 11.72
11/9/2020 3:00:00 AM 6.88 44.384 0.051 7.08 2.12 11.74
11/9/2020 3:15:00 AM 6.83 44.294 0.051 7.23 2.11 11.76
11/9/2020 3:30:00 AM 6.77 44.186 0.051 7.23 2.29 11.78
11/9/2020 3:45:00 AM 6.72 44.096 0.051 7.16 2.15 11.8
11/9/2020 4:00:00 AM 6.66 43.988 0.051 7.23 2.12 11.82
11/9/2020 4:15:00 AM 6.61 43.898 0.051 7.23 2.14 11.83
11/9/2020 4:30:00 AM 6.55 43.79 0.051 7.1 2.14 11.86
11/9/2020 4:45:00 AM 6.5 43.7 0.051 7.23 2.11 11.87
11/9/2020 5:00:00 AM 6.44 43.592 0.051 7.23 2.12 11.9
11/9/2020 5:15:00 AM 6.39 43.502 0.051 7.23 2.14 11.91
11/9/2020 5:30:00 AM 6.33 43.394 0.051 7.19 2.11 11.92
11/9/2020 5:45:00 AM 6.28 43.304 0.051 7.24 2.08 11.94
11/9/2020 6:00:00 AM 6.22 43.196 0.051 7.24 2.11 11.96
11/9/2020 6:15:00 AM 6.17 43.106 0.051 7.22 2.13 11.98
11/9/2020 6:30:00 AM 6.12 43.016 0.051 7.17 2.12 12
11/9/2020 6:45:00 AM 6.07 42.926 0.051 7.23 2.12 12.02
11/9/2020 7:00:00 AM 6.02 42.836 0.051 7.24 2.16 12.05
11/9/2020 7:15:00 AM 5.98 42.764 0.051 7.24 2.16 12.09
11/9/2020 7:30:00 AM 5.93 42.674 0.051 7.23 2.08 12.13
11/9/2020 7:45:00 AM 5.89 42.602 0.051 7.24 2.12 12.17
11/9/2020 8:00:00 AM 5.86 42.548 0.051 7.25 2.1 12.21
11/9/2020 8:15:00 AM 5.82 42.476 0.051 7.17 2.11 12.24
11/9/2020 8:30:00 AM 5.79 42.422 0.051 7.27 2.14 12.27
11/9/2020 8:45:00 AM 5.77 42.386 0.051 7.26 2.14 12.3
11/9/2020 9:00:00 AM 5.74 42.332 0.051 7.23 2.12 12.33
11/9/2020 9:15:00 AM 5.73 42.314 0.05 7.29 2.19 12.35
11/9/2020 9:30:00 AM 5.74 42.332 0.05 7.26 2.1 12.38
11/9/2020 9:45:00 AM 5.79 42.422 0.05 7.31 2.22 12.41
11/9/2020 10:00:00 AM 5.89 42.602 0.05 7.31 2.1 12.43
11/9/2020 10:15:00 AM 6.03 42.854 0.05 7.33 2.1 12.43
11/9/2020 10:30:00 AM 6.18 43.124 0.05 7.36 2.17 12.43
11/9/2020 10:45:00 AM 6.36 43.448 0.05 7.36 2.13 12.42
11/9/2020 11:00:00 AM 6.54 43.772 0.05 7.39 2.09 12.39
11/9/2020 11:15:00 AM 6.74 44.132 0.05 7.4 2.09 12.36
11/9/2020 11:30:00 AM 6.95 44.51 0.05 7.41 2.1 12.32
11/9/2020 11:45:00 AM 7.16 44.888 0.05 7.37 2.1 12.28
11/9/2020 12:00:00 PM 7.38 45.284 0.05 7.42 2.14 12.23
11/9/2020 12:15:00 PM 7.59 45.662 0.05 7.43 2.44 12.17
11/9/2020 12:30:00 PM 7.81 46.058 0.049 7.43 2.12 12.11
11/9/2020 12:45:00 PM 8.02 46.436 0.049 7.44 2.03 12.04
11/9/2020 1:00:00 PM 8.23 46.814 0.049 7.41 2.12 11.97
11/9/2020 1:15:00 PM 8.33 46.994 0.049 7.41 2.09 11.91
11/9/2020 1:30:00 PM 8.39 47.102 0.049 7.42 2.18 11.86
11/9/2020 1:45:00 PM 8.37 47.066 0.049 7.41 2.13 11.84
11/9/2020 2:00:00 PM 8.38 47.084 0.049 7.3 2.09 11.8
11/9/2020 2:15:00 PM 8.39 47.102 0.049 7.39 2.22 11.77
11/9/2020 2:30:00 PM 8.42 47.156 0.049 7.37 2.11 11.71
11/9/2020 2:45:00 PM 8.43 47.174 0.049 7.26 2.13 11.66
11/9/2020 3:00:00 PM 8.44 47.192 0.049 7.36 2.14 11.61
11/9/2020 3:15:00 PM 8.46 47.228 0.049 7.34 2.13 11.57
11/9/2020 3:30:00 PM 8.47 47.246 0.049 7.33 2.11 11.54
11/9/2020 3:45:00 PM 8.49 47.282 0.049 7.32 2.15 11.51
11/9/2020 4:00:00 PM 8.5 47.3 0.049 7.28 2.11 11.48
11/9/2020 4:15:00 PM 8.49 47.282 0.049 7.32 2.15 11.46
11/9/2020 4:30:00 PM 8.47 47.246 0.05 7.27 2.17 11.44
11/9/2020 4:45:00 PM 8.44 47.192 0.05 7.28 2.16 11.42
11/9/2020 5:00:00 PM 8.39 47.102 0.05 7.27 2.17 11.39
11/9/2020 5:15:00 PM 8.35 47.03 0.05 7.28 2.25 11.38
11/9/2020 5:30:00 PM 8.3 46.94 0.05 7.27 2.23 11.37
11/9/2020 5:45:00 PM 8.25 46.85 0.05 7.26 2.21 11.36
11/9/2020 6:00:00 PM 8.2 46.76 0.05 7.26 2.2 11.36
11/9/2020 6:15:00 PM 8.16 46.688 0.05 7.25 2.21 11.36
11/9/2020 6:30:00 PM 8.12 46.616 0.05 7.21 2.3 11.37
11/9/2020 6:45:00 PM 8.08 46.544 0.05 7.22 2.19 11.38
11/9/2020 7:00:00 PM 8.04 46.472 0.05 7.16 2.17 11.38
11/9/2020 7:15:00 PM 8.01 46.418 0.05 7.24 2.16 11.38
11/9/2020 7:30:00 PM 7.98 46.364 0.05 7.23 2.17 11.39
11/9/2020 7:45:00 PM 7.96 46.328 0.05 7.22 2.23 11.39
11/9/2020 8:00:00 PM 7.94 46.292 0.05 7.22 2.19 11.39
11/9/2020 8:15:00 PM 7.92 46.256 0.05 7.21 2.18 11.39
11/9/2020 8:30:00 PM 7.9 46.22 0.05 7.22 2.2 11.38
11/9/2020 8:45:00 PM 7.89 46.202 0.05 7.2 2.18 11.39
11/9/2020 9:00:00 PM 7.88 46.184 0.05 7.2 2.15 11.39
11/9/2020 9:15:00 PM 7.87 46.166 0.05 7.22 2.15 11.39
11/9/2020 9:30:00 PM 7.86 46.148 0.05 7.2 2.17 11.39
11/9/2020 9:45:00 PM 7.85 46.13 0.05 7.22 2.19 11.39
11/9/2020 10:00:00 PM 7.84 46.112 0.05 7.23 2.19 11.39
11/9/2020 10:15:00 PM 7.82 46.076 0.05 7.23 2.17 11.39
11/9/2020 10:30:00 PM 7.81 46.058 0.05 7.23 2.13 11.4
11/9/2020 10:45:00 PM 7.79 46.022 0.05 7.24 2.16 11.4
11/9/2020 11:00:00 PM 7.77 45.986 0.05 7.23 2.19 11.41
11/9/2020 11:15:00 PM 7.75 45.95 0.05 7.23 2.2 11.41
11/9/2020 11:30:00 PM 7.73 45.914 0.051 7.22 2.14 11.41
11/9/2020 11:45:00 PM 7.7 45.86 0.051 7.23 2.13 11.42
11/10/2020 12:00:00 AM 7.67 45.806 0.051 7.23 2.11 11.43
11/10/2020 12:15:00 AM 7.64 45.752 0.051 7.22 2.2 11.44
11/10/2020 12:30:00 AM 7.61 45.698 0.051 7.22 2.13 11.45
11/10/2020 12:45:00 AM 7.58 45.644 0.051 7.22 2.14 11.46
11/10/2020 1:00:00 AM 7.55 45.59 0.051 7.23 2.24 11.47
11/10/2020 1:15:00 AM 7.51 45.518 0.051 7.22 2.13 11.48
11/10/2020 1:30:00 AM 7.47 45.446 0.051 7.23 2.15 11.49
11/10/2020 1:45:00 AM 7.44 45.392 0.051 7.23 2.13 11.51
11/10/2020 2:00:00 AM 7.39 45.302 0.051 7.23 2.16 11.52
11/10/2020 2:15:00 AM 7.36 45.248 0.051 7.23 2.19 11.52
11/10/2020 2:30:00 AM 7.32 45.176 0.051 7.23 2.15 11.54
11/10/2020 2:45:00 AM 7.28 45.104 0.051 7.23 2.17 11.56
11/10/2020 3:00:00 AM 7.24 45.032 0.051 7.23 2.11 11.57
11/10/2020 3:15:00 AM 7.2 44.96 0.051 7.23 2.16 11.59
11/10/2020 3:30:00 AM 7.16 44.888 0.051 7.23 2.18 11.6
11/10/2020 3:45:00 AM 7.12 44.816 0.051 7.22 2.17 11.61
11/10/2020 4:00:00 AM 7.08 44.744 0.051 7.23 2.17 11.62
11/10/2020 4:15:00 AM 7.04 44.672 0.051 7.23 2.14 11.63
11/10/2020 4:30:00 AM 6.99 44.582 0.051 7.24 2.15 11.65
11/10/2020 4:45:00 AM 6.95 44.51 0.051 7.23 2.17 11.66
11/10/2020 5:00:00 AM 6.91 44.438 0.051 7.23 2.21 11.67
11/10/2020 5:15:00 AM 6.86 44.348 0.051 7.09 2.16 11.69
11/10/2020 5:30:00 AM 6.82 44.276 0.051 7.23 2.19 11.71
11/10/2020 5:45:00 AM 6.78 44.204 0.051 7.23 2.14 11.72
11/10/2020 6:00:00 AM 6.74 44.132 0.051 7.15 2.13 11.73
11/10/2020 6:15:00 AM 6.7 44.06 0.051 7.24 2.16 11.74
11/10/2020 6:30:00 AM 6.66 43.988 0.051 7.23 2.17 11.75
11/10/2020 6:45:00 AM 6.62 43.916 0.051 7.23 2.16 11.78
11/10/2020 7:00:00 AM 6.58 43.844 0.051 7.23 2.14 11.79
11/10/2020 7:15:00 AM 6.56 43.808 0.051 7.25 2.2 11.83
11/10/2020 7:30:00 AM 6.54 43.772 0.051 7.17 2.14 11.87
11/10/2020 7:45:00 AM 6.54 43.772 0.051 7.2 2.1 11.91
11/10/2020 8:00:00 AM 6.54 43.772 0.051 7.27 2.16 11.95
11/10/2020 8:15:00 AM 6.54 43.772 0.051 7.28 2.19 12
11/10/2020 8:30:00 AM 6.57 43.826 0.05 7.29 2.15 12.06
11/10/2020 8:45:00 AM 6.61 43.898 0.05 7.31 2.19 12.1
11/10/2020 9:00:00 AM 6.66 43.988 0.05 7.32 2.16 12.11
11/10/2020 9:15:00 AM 6.67 44.006 0.05 7.32 2.13 12.08
11/10/2020 9:30:00 AM 6.69 44.042 0.05 7.19 2.17 12.08
11/10/2020 9:45:00 AM 6.74 44.132 0.05 7.33 2.11 12.08
11/10/2020 10:00:00 AM 6.84 44.312 0.05 7.35 2.12 12.09
11/10/2020 10:15:00 AM 6.96 44.528 0.05 7.35 2.12 12.09
11/10/2020 10:30:00 AM 7.1 44.78 0.05 7.37 2.08 12.11
11/10/2020 10:45:00 AM 7.26 45.068 0.05 7.26 2.1 12.09
11/10/2020 11:00:00 AM 7.42 45.356 0.05 7.4 2.12 12.08
11/10/2020 11:15:00 AM 7.62 45.716 0.05 7.3 2.09 12.04
11/10/2020 11:30:00 AM 7.82 46.076 0.05 7.42 2.1 12.01
11/10/2020 11:45:00 AM 8.05 46.49 0.05 7.31 2.13 11.97
11/10/2020 12:00:00 PM 8.29 46.922 0.05 7.45 2.15 11.9
11/10/2020 12:15:00 PM 8.51 47.318 0.049 7.45 2.11 11.86
11/10/2020 12:30:00 PM 8.74 47.732 0.049 7.46 2.09 11.79
11/10/2020 12:45:00 PM 8.96 48.128 0.049 7.46 2.11 11.72
11/10/2020 1:00:00 PM 9.13 48.434 0.049 7.47 2.13 11.66
11/10/2020 1:15:00 PM 9.27 48.686 0.049 7.45 2.13 11.6
11/10/2020 1:30:00 PM 9.31 48.758 0.049 7.45 2.1 11.55
11/10/2020 1:45:00 PM 9.34 48.812 0.049 7.44 2.13 11.51
11/10/2020 2:00:00 PM 9.35 48.83 0.049 7.42 2.39 11.47
11/10/2020 2:15:00 PM 9.36 48.848 0.049 7.41 2.11 11.44
11/10/2020 2:30:00 PM 9.41 48.938 0.049 7.4 2.11 11.38
11/10/2020 2:45:00 PM 9.47 49.046 0.049 7.39 2.11 11.3
11/10/2020 3:00:00 PM 9.5 49.1 0.049 7.38 2.2 11.24
11/10/2020 3:15:00 PM 9.55 49.19 0.049 7.38 2.16 11.2
11/10/2020 3:30:00 PM 9.61 49.298 0.049 7.37 2.12 11.15
11/10/2020 3:45:00 PM 9.64 49.352 0.049 7.37 2.16 11.12
11/10/2020 4:00:00 PM 9.67 49.406 0.049 7.23 2.18 11.09
11/10/2020 4:15:00 PM 9.68 49.424 0.049 7.3 2.18 11.05
11/10/2020 4:30:00 PM 9.68 49.424 0.049 7.34 2.23 11.03
11/10/2020 4:45:00 PM 9.66 49.388 0.05 7.2 2.29 10.99
11/10/2020 5:00:00 PM 9.62 49.316 0.05 7.32 2.16 10.97
11/10/2020 5:15:00 PM 9.56 49.208 0.05 7.17 2.23 10.94
11/10/2020 5:30:00 PM 9.51 49.118 0.05 7.29 2.18 10.93
11/10/2020 5:45:00 PM 9.47 49.046 0.05 7.28 2.2 10.92
11/10/2020 6:00:00 PM 9.42 48.956 0.05 7.27 2.19 10.92
11/10/2020 6:15:00 PM 9.38 48.884 0.05 7.19 2.18 10.92
11/10/2020 6:30:00 PM 9.34 48.812 0.05 7.26 2.2 10.92
11/10/2020 6:45:00 PM 9.31 48.758 0.05 7.12 2.2 10.92
11/10/2020 7:00:00 PM 9.28 48.704 0.05 7.25 2.17 10.93
11/10/2020 7:15:00 PM 9.25 48.65 0.05 7.25 2.25 10.93
11/10/2020 7:30:00 PM 9.22 48.596 0.05 7.11 2.16 10.94
11/10/2020 7:45:00 PM 9.2 48.56 0.05 7.24 2.27 10.93
11/10/2020 8:00:00 PM 9.18 48.524 0.05 7.24 2.24 10.93
11/10/2020 8:15:00 PM 9.17 48.506 0.05 7.23 2.2 10.94
11/10/2020 8:30:00 PM 9.16 48.488 0.05 7.12 2.23 10.93
11/10/2020 8:45:00 PM 9.15 48.47 0.05 7.18 2.14 10.93
11/10/2020 9:00:00 PM 9.14 48.452 0.05 7.24 2.19 10.92
11/10/2020 9:15:00 PM 9.13 48.434 0.05 7.23 2.2 10.93
11/10/2020 9:30:00 PM 9.13 48.434 0.05 7.13 2.19 10.93
11/10/2020 9:45:00 PM 9.13 48.434 0.05 7.19 2.22 10.93
11/10/2020 10:00:00 PM 9.12 48.416 0.05 7.24 2.32 10.93
11/10/2020 10:15:00 PM 9.12 48.416 0.05 7.23 2.2 10.93
11/10/2020 10:30:00 PM 9.11 48.398 0.05 7.24 2.2 10.92
11/10/2020 10:45:00 PM 9.1 48.38 0.05 7.24 2.2 10.92
11/10/2020 11:00:00 PM 9.1 48.38 0.05 7.24 2.17 10.92
11/10/2020 11:15:00 PM 9.09 48.362 0.051 7.09 2.19 10.93
11/10/2020 11:30:00 PM 9.08 48.344 0.051 7.24 2.18 10.93
11/10/2020 11:45:00 PM 9.06 48.308 0.051 7.23 2.16 10.93
11/11/2020 12:00:00 AM 9.04 48.272 0.051 7.23 2.32 10.93
11/11/2020 12:15:00 AM 9.02 48.236 0.051 7.23 2.16 10.94
11/11/2020 12:30:00 AM 9 48.2 0.051 7.22 2.18 10.94
11/11/2020 12:45:00 AM 8.98 48.164 0.051 7.19 2.17 10.95
11/11/2020 1:00:00 AM 8.96 48.128 0.051 7.22 2.32 10.96
11/11/2020 1:15:00 AM 8.93 48.074 0.051 7.22 2.16 10.96
11/11/2020 1:30:00 AM 8.9 48.02 0.051 7.23 2.18 10.96
11/11/2020 1:45:00 AM 8.88 47.984 0.051 7.23 2.16 10.98
11/11/2020 2:00:00 AM 8.85 47.93 0.051 7.23 2.17 10.98
11/11/2020 2:15:00 AM 8.82 47.876 0.051 7.22 2.21 10.99
11/11/2020 2:30:00 AM 8.79 47.822 0.051 7.23 2.18 11
11/11/2020 2:45:00 AM 8.76 47.768 0.051 7.14 2.22 11.01
11/11/2020 3:00:00 AM 8.73 47.714 0.051 7.18 2.22 11.02
11/11/2020 3:15:00 AM 8.7 47.66 0.051 7.2 2.24 11.03
11/11/2020 3:30:00 AM 8.67 47.606 0.051 7.23 2.16 11.03
11/11/2020 3:45:00 AM 8.65 47.57 0.051 7.22 2.18 11.05
11/11/2020 4:00:00 AM 8.63 47.534 0.051 7.15 2.27 11.05
11/11/2020 4:15:00 AM 8.6 47.48 0.051 7.22 2.21 11.06
11/11/2020 4:30:00 AM 8.57 47.426 0.051 7.22 2.13 11.07
11/11/2020 4:45:00 AM 8.56 47.408 0.051 7.21 2.14 11.07
11/11/2020 5:00:00 AM 8.56 47.408 0.051 7.23 2.17 11.07
11/11/2020 5:15:00 AM 8.56 47.408 0.051 7.22 2.18 11.08
11/11/2020 5:30:00 AM 8.56 47.408 0.051 7.1 2.16 11.08
11/11/2020 5:45:00 AM 8.55 47.39 0.051 7.23 2.24 11.08
11/11/2020 6:00:00 AM 8.54 47.372 0.051 7.23 2.2 11.09
11/11/2020 6:15:00 AM 8.54 47.372 0.051 7.23 2.16 11.09
11/11/2020 6:30:00 AM 8.55 47.39 0.051 7.23 2.38 11.09
11/11/2020 6:45:00 AM 8.56 47.408 0.051 7.23 2.24 11.08
11/11/2020 7:00:00 AM 8.57 47.426 0.051 7.09 2.23 11.09
11/11/2020 7:15:00 AM 8.57 47.426 0.051 7.22 2.28 11.09
11/11/2020 7:30:00 AM 8.59 47.462 0.051 7.23 2.57 11.09
11/11/2020 7:45:00 AM 8.63 47.534 0.05 7.21 2.93 11.09
11/11/2020 8:00:00 AM 8.65 47.57 0.049 7.21 2.61 11.09
11/11/2020 8:15:00 AM 8.67 47.606 0.049 7.11 2.53 11.08
11/11/2020 8:30:00 AM 8.72 47.696 0.048 7.2 2.88 11.08
11/11/2020 8:45:00 AM 8.8 47.84 0.047 7.19 3.25 11.09
11/11/2020 9:00:00 AM 8.88 47.984 0.047 7.19 3.94 11.08
11/11/2020 9:15:00 AM 8.94 48.092 0.048 7.11 4.65 11.06
11/11/2020 9:30:00 AM 8.97 48.146 0.048 7.18 4.48 11.04
11/11/2020 9:45:00 AM 9.01 48.218 0.048 7.02 4.03 11.03
11/11/2020 10:00:00 AM 9.08 48.344 0.047 7.16 4.26 11.03
11/11/2020 10:15:00 AM 9.16 48.488 0.046 7.15 4.93 11.03
11/11/2020 10:30:00 AM 9.24 48.632 0.046 7.13 6.13 11.01
11/11/2020 10:45:00 AM 9.29 48.722 0.045 7.11 6.3 10.99
11/11/2020 11:00:00 AM 9.36 48.848 0.045 7.08 7.14 10.97
11/11/2020 11:15:00 AM 9.42 48.956 0.045 7.03 7.2 10.95
11/11/2020 11:30:00 AM 9.5 49.1 0.044 6.97 8.42 10.93
11/11/2020 11:45:00 AM 9.57 49.226 0.045 7.05 9.49 10.92
11/11/2020 12:00:00 PM 9.63 49.334 0.045 6.9 9.33 10.92
11/11/2020 12:15:00 PM 9.69 49.442 0.046 6.99 12.81 10.89
11/11/2020 12:30:00 PM 9.75 49.55 0.047 6.9 16.11 10.88
11/11/2020 12:45:00 PM 9.81 49.658 0.047 6.99 18.21 10.87
11/11/2020 1:00:00 PM 9.84 49.712 0.046 6.81 25.41 10.84
11/11/2020 1:15:00 PM 9.88 49.784 0.046 6.96 58.52 10.84
11/11/2020 1:30:00 PM 9.92 49.856 0.045 6.81 87.8 10.87
11/11/2020 1:45:00 PM 9.96 49.928 0.044 6.92 119.19 10.88
11/11/2020 2:00:00 PM 10.05 50.09 0.043 6.84 88.57 10.86
11/11/2020 2:15:00 PM 10.17 50.306 0.043 6.69 84.32 10.83
11/11/2020 2:30:00 PM 10.23 50.414 0.042 6.88 91.21 10.84
11/11/2020 2:45:00 PM 10.26 50.468 0.042 6.87 63.13 10.85
11/11/2020 3:00:00 PM 10.3 50.54 0.041 6.82 54.33 10.86
11/11/2020 3:15:00 PM 10.33 50.594 0.04 6.85 45.99 10.86
11/11/2020 3:30:00 PM 10.36 50.648 0.04 6.67 46.7 10.85
11/11/2020 3:45:00 PM 10.37 50.666 0.04 6.77 40.4 10.86
11/11/2020 4:00:00 PM 10.39 50.702 0.04 6.82 36.06 10.85
11/11/2020 4:15:00 PM 10.4 50.72 0.04 6.82 30.12 10.85
11/11/2020 4:30:00 PM 10.41 50.738 0.039 6.67 24.86 10.85
11/11/2020 4:45:00 PM 10.42 50.756 0.039 6.74 21.8 10.85
11/11/2020 5:00:00 PM 10.43 50.774 0.039 6.81 21.57 10.85
11/11/2020 5:15:00 PM 10.44 50.792 0.039 6.82 19.2 10.84
11/11/2020 5:30:00 PM 10.45 50.81 0.039 6.81 18.65 10.84
11/11/2020 5:45:00 PM 10.47 50.846 0.04 6.8 17.58 10.84
11/11/2020 6:00:00 PM 10.48 50.864 0.04 6.81 16.75 10.83
11/11/2020 6:15:00 PM 10.48 50.864 0.04 6.81 15.48 10.83
11/11/2020 6:30:00 PM 10.49 50.882 0.04 6.81 15.08 10.82
11/11/2020 6:45:00 PM 10.49 50.882 0.04 6.64 14.31 10.82
11/11/2020 7:00:00 PM 10.5 50.9 0.04 6.8 13.43 10.82
11/11/2020 7:15:00 PM 10.5 50.9 0.04 6.8 12.83 10.81
11/11/2020 7:30:00 PM 10.51 50.918 0.04 6.79 12.63 10.82
11/11/2020 7:45:00 PM 10.51 50.918 0.041 6.69 11.97 10.82
11/11/2020 8:00:00 PM 10.52 50.936 0.041 6.8 11.96 10.81
11/11/2020 8:15:00 PM 10.52 50.936 0.041 6.8 11.54 10.81
11/11/2020 8:30:00 PM 10.52 50.936 0.041 6.81 10.8 10.81
11/11/2020 8:45:00 PM 10.53 50.954 0.041 6.65 10.95 10.81
11/11/2020 9:00:00 PM 10.53 50.954 0.041 6.81 10.33 10.81
11/11/2020 9:15:00 PM 10.53 50.954 0.041 6.81 9.87 10.8
11/11/2020 9:30:00 PM 10.54 50.972 0.041 6.67 9.9 10.8
11/11/2020 9:45:00 PM 10.54 50.972 0.041 6.83 9.55 10.8
11/11/2020 10:00:00 PM 10.54 50.972 0.042 6.68 9.23 10.81
11/11/2020 10:15:00 PM 10.55 50.99 0.042 6.76 8.75 10.8
11/11/2020 10:30:00 PM 10.55 50.99 0.042 6.77 8.62 10.8
11/11/2020 10:45:00 PM 10.55 50.99 0.042 6.78 8.33 10.8
11/11/2020 11:00:00 PM 10.56 51.008 0.042 6.85 8.26 10.8
11/11/2020 11:15:00 PM 10.56 51.008 0.042 6.71 8.1 10.79
11/11/2020 11:30:00 PM 10.57 51.026 0.042 6.86 8.11 10.8
11/11/2020 11:45:00 PM 10.57 51.026 0.042 6.72 7.54 10.8
11/12/2020 12:00:00 AM 10.57 51.026 0.042 6.88 7.43 10.8
11/12/2020 12:15:00 AM 10.58 51.044 0.042 6.89 7.19 10.8
11/12/2020 12:30:00 AM 10.58 51.044 0.042 6.91 7.14 10.81
11/12/2020 12:45:00 AM 10.58 51.044 0.042 6.86 6.77 10.81
11/12/2020 1:00:00 AM 10.58 51.044 0.042 6.95 6.71 10.82
11/12/2020 1:15:00 AM 10.57 51.026 0.042 6.96 6.88 10.81
11/12/2020 1:30:00 AM 10.57 51.026 0.042 6.97 6.59 10.81
11/12/2020 1:45:00 AM 10.56 51.008 0.042 6.82 6.46 10.82
11/12/2020 2:00:00 AM 10.54 50.972 0.042 6.99 6.25 10.83
11/12/2020 2:15:00 AM 10.52 50.936 0.042 6.98 6.28 10.83
11/12/2020 2:30:00 AM 10.5 50.9 0.042 6.99 6.82 10.84
11/12/2020 2:45:00 AM 10.48 50.864 0.042 6.83 6.13 10.84
11/12/2020 3:00:00 AM 10.46 50.828 0.042 7.01 6.03 10.85
11/12/2020 3:15:00 AM 10.44 50.792 0.042 6.85 6.06 10.85
11/12/2020 3:30:00 AM 10.42 50.756 0.042 7.01 5.6 10.86
11/12/2020 3:45:00 AM 10.39 50.702 0.042 7 5.51 10.87
11/12/2020 4:00:00 AM 10.36 50.648 0.042 6.85 5.61 10.88
11/12/2020 4:15:00 AM 10.33 50.594 0.042 6.99 5.56 10.88
11/12/2020 4:30:00 AM 10.3 50.54 0.042 7.01 5.36 10.89
11/12/2020 4:45:00 AM 10.27 50.486 0.042 6.98 5.32 10.91
11/12/2020 5:00:00 AM 10.23 50.414 0.042 7.02 5.17 10.91
11/12/2020 5:15:00 AM 10.2 50.36 0.042 7.02 5.3 10.93
11/12/2020 5:30:00 AM 10.16 50.288 0.042 7.01 5.2 10.93
11/12/2020 5:45:00 AM 10.12 50.216 0.042 6.92 5.09 10.94
11/12/2020 6:00:00 AM 10.08 50.144 0.042 6.95 5.18 10.96
11/12/2020 6:15:00 AM 10.04 50.072 0.042 7.02 4.84 10.97
11/12/2020 6:30:00 AM 9.99 49.982 0.042 7.03 4.96 10.98
11/12/2020 6:45:00 AM 9.94 49.892 0.043 6.89 4.76 11
11/12/2020 7:00:00 AM 9.9 49.82 0.043 7.03 4.83 11.02
11/12/2020 7:15:00 AM 9.86 49.748 0.043 7.03 4.88 11.03
11/12/2020 7:30:00 AM 9.83 49.694 0.043 7.04 4.83 11.06
11/12/2020 7:45:00 AM 9.79 49.622 0.043 7.05 4.9 11.08
11/12/2020 8:00:00 AM 9.75 49.55 0.043 7.05 4.63 11.1
11/12/2020 8:15:00 AM 9.71 49.478 0.043 7.06 4.66 11.13
11/12/2020 8:30:00 AM 9.68 49.424 0.043 7.06 4.5 11.15
11/12/2020 8:45:00 AM 9.65 49.37 0.043 6.92 4.56 11.18
11/12/2020 9:00:00 AM 9.63 49.334 0.043 7.08 4.37 11.19
11/12/2020 9:15:00 AM 9.6 49.28 0.043 6.94 4.37 11.22
11/12/2020 9:30:00 AM 9.58 49.244 0.043 7.11 4.27 11.23
11/12/2020 9:45:00 AM 9.56 49.208 0.043 6.96 4.35 11.26
11/12/2020 10:00:00 AM 9.55 49.19 0.043 7.11 4.34 11.27
11/12/2020 10:15:00 AM 9.53 49.154 0.043 6.98 4.13 11.28
11/12/2020 10:30:00 AM 9.53 49.154 0.043 7.12 4.03 11.29
11/12/2020 10:45:00 AM 9.52 49.136 0.043 6.99 4.03 11.29
11/12/2020 11:00:00 AM 9.52 49.136 0.043 7.14 4.08 11.31
11/12/2020 11:15:00 AM 9.57 49.226 0.043 7 4.09 11.32
11/12/2020 11:30:00 AM 9.55 49.19 0.043 7.15 3.91 11.31
11/12/2020 11:45:00 AM 9.55 49.19 0.043 7.1 4.21 11.32
11/12/2020 12:00:00 PM 9.54 49.172 0.043 7.14 4.06 11.31
11/12/2020 12:15:00 PM 9.54 49.172 0.043 7.11 3.87 11.32
11/12/2020 12:30:00 PM 9.57 49.226 0.043 7.15 3.87 11.32
11/12/2020 12:45:00 PM 9.58 49.244 0.043 7.03 3.85 11.32
11/12/2020 1:00:00 PM 9.58 49.244 0.043 7.18 3.84 11.31
11/12/2020 1:15:00 PM 9.58 49.244 0.043 7.1 3.91 11.31
11/12/2020 1:30:00 PM 9.58 49.244 0.043 7.17 3.81 11.3
11/12/2020 1:45:00 PM 9.56 49.208 0.043 7.18 3.84 11.3
11/12/2020 2:00:00 PM 9.55 49.19 0.043 7.18 3.68 11.3
11/12/2020 2:15:00 PM 9.55 49.19 0.043 7.17 3.64 11.3
11/12/2020 2:30:00 PM 9.55 49.19 0.043 7.17 3.59 11.3
11/12/2020 2:45:00 PM 9.54 49.172 0.043 7.17 3.94 11.29
11/12/2020 3:00:00 PM 9.51 49.118 0.043 7.17 3.76 11.28
11/12/2020 3:15:00 PM 9.5 49.1 0.043 7.17 3.61 11.28
11/12/2020 3:30:00 PM 9.48 49.064 0.043 7.17 3.65 11.27
11/12/2020 3:45:00 PM 9.46 49.028 0.043 7.02 3.54 11.28
11/12/2020 4:00:00 PM 9.42 48.956 0.043 7.16 3.57 11.26
11/12/2020 4:15:00 PM 9.39 48.902 0.043 7.04 3.64 11.25
11/12/2020 4:30:00 PM 9.35 48.83 0.043 7.14 3.55 11.24
11/12/2020 4:45:00 PM 9.3 48.74 0.043 7.14 3.56 11.24
11/12/2020 5:00:00 PM 9.25 48.65 0.043 7.12 3.46 11.24
11/12/2020 5:15:00 PM 9.19 48.542 0.043 7.12 3.55 11.24
11/12/2020 5:30:00 PM 9.14 48.452 0.043 7.12 3.44 11.24
11/12/2020 5:45:00 PM 9.08 48.344 0.043 7.1 3.62 11.24
11/12/2020 6:00:00 PM 9.02 48.236 0.043 7.11 3.58 11.26
11/12/2020 6:15:00 PM 8.95 48.11 0.043 7.03 3.42 11.27
11/12/2020 6:30:00 PM 8.89 48.002 0.043 7.06 3.49 11.29
11/12/2020 6:45:00 PM 8.82 47.876 0.043 7.04 3.44 11.3
11/12/2020 7:00:00 PM 8.75 47.75 0.043 7.1 3.44 11.33
11/12/2020 7:15:00 PM 8.68 47.624 0.043 7.1 3.26 11.35
11/12/2020 7:30:00 PM 8.61 47.498 0.043 7 3.3 11.37
11/12/2020 7:45:00 PM 8.53 47.354 0.043 7.04 3.36 11.39
11/12/2020 8:00:00 PM 8.46 47.228 0.043 7.11 3.31 11.41
11/12/2020 8:15:00 PM 8.39 47.102 0.043 7.11 3.29 11.43
11/12/2020 8:30:00 PM 8.31 46.958 0.043 7.1 3.17 11.45
11/12/2020 8:45:00 PM 8.23 46.814 0.043 7.1 3.31 11.47
11/12/2020 9:00:00 PM 8.15 46.67 0.043 6.99 3.19 11.5
11/12/2020 9:15:00 PM 8.07 46.526 0.043 7.11 3.19 11.52
11/12/2020 9:30:00 PM 7.99 46.382 0.043 6.97 3.22 11.55
11/12/2020 9:45:00 PM 7.91 46.238 0.043 7.11 3.15 11.57
11/12/2020 10:00:00 PM 7.83 46.094 0.043 6.98 3.2 11.59
11/12/2020 10:15:00 PM 7.76 45.968 0.044 7.12 3.13 11.62
11/12/2020 10:30:00 PM 7.68 45.824 0.044 6.96 3.23 11.64
11/12/2020 10:45:00 PM 7.6 45.68 0.044 7.09 3.14 11.66
11/12/2020 11:00:00 PM 7.52 45.536 0.044 7.09 3.15 11.69
11/12/2020 11:15:00 PM 7.44 45.392 0.044 7.04 3.04 11.71
11/12/2020 11:30:00 PM 7.37 45.266 0.044 7.04 3.11 11.73
11/12/2020 11:45:00 PM 7.29 45.122 0.044 7.1 3.04 11.76
11/13/2020 12:00:00 AM 7.22 44.996 0.044 7.02 3.03 11.78
11/13/2020 12:15:00 AM 7.16 44.888 0.044 7.11 2.96 11.8
11/13/2020 12:30:00 AM 7.09 44.762 0.044 7.12 3.11 11.82
11/13/2020 12:45:00 AM 7.02 44.636 0.044 6.98 2.97 11.84
11/13/2020 1:00:00 AM 6.96 44.528 0.044 7.07 2.98 11.86
11/13/2020 1:15:00 AM 6.89 44.402 0.044 7.07 3.01 11.88
11/13/2020 1:30:00 AM 6.83 44.294 0.044 7.08 2.86 11.9
11/13/2020 1:45:00 AM 6.77 44.186 0.044 7.12 2.85 11.91
11/13/2020 2:00:00 AM 6.7 44.06 0.044 6.99 2.92 11.94
11/13/2020 2:15:00 AM 6.65 43.97 0.044 7.12 2.93 11.95
11/13/2020 2:30:00 AM 6.59 43.862 0.044 7.09 2.82 11.97
11/13/2020 2:45:00 AM 6.53 43.754 0.044 7.13 2.82 11.99
11/13/2020 3:00:00 AM 6.47 43.646 0.044 7.11 2.84 12.01
11/13/2020 3:15:00 AM 6.42 43.556 0.044 6.99 2.8 12.02
11/13/2020 3:30:00 AM 6.36 43.448 0.044 7.12 2.89 12.04
11/13/2020 3:45:00 AM 6.31 43.358 0.044 7.11 2.76 12.06
11/13/2020 4:00:00 AM 6.26 43.268 0.044 7.03 2.79 12.08
11/13/2020 4:15:00 AM 6.2 43.16 0.044 7.11 2.84 12.09
11/13/2020 4:30:00 AM 6.16 43.088 0.044 7.06 2.68 12.11
11/13/2020 4:45:00 AM 6.11 42.998 0.044 7.12 2.81 12.12
11/13/2020 5:00:00 AM 6.07 42.926 0.044 7.12 2.71 12.14
11/13/2020 5:15:00 AM 6.03 42.854 0.044 7.12 2.75 12.15
11/13/2020 5:30:00 AM 5.99 42.782 0.044 7.08 2.74 12.16
11/13/2020 5:45:00 AM 5.95 42.71 0.044 7.12 2.66 12.18
11/13/2020 6:00:00 AM 5.9 42.62 0.044 6.98 2.72 12.19
11/13/2020 6:15:00 AM 5.87 42.566 0.044 7.13 2.71 12.21
11/13/2020 6:30:00 AM 5.83 42.494 0.044 7.12 2.75 12.21
11/13/2020 6:45:00 AM 5.79 42.422 0.044 7.13 2.77 12.23
11/13/2020 7:00:00 AM 5.75 42.35 0.044 7.13 2.65 12.24
11/13/2020 7:15:00 AM 5.71 42.278 0.044 7.14 2.64 12.26
11/13/2020 7:30:00 AM 5.69 42.242 0.044 7.13 2.79 12.29
11/13/2020 7:45:00 AM 5.66 42.188 0.044 7.13 2.65 12.31
11/13/2020 8:00:00 AM 5.63 42.134 0.044 7.15 2.68 12.34
11/13/2020 8:15:00 AM 5.6 42.08 0.044 7.01 2.6 12.35
11/13/2020 8:30:00 AM 5.58 42.044 0.044 7.15 2.62 12.37
11/13/2020 8:45:00 AM 5.56 42.008 0.044 7.02 2.54 12.4
11/13/2020 9:00:00 AM 5.56 42.008 0.044 7.17 2.58 12.42
11/13/2020 9:15:00 AM 5.55 41.99 0.044 7.05 2.54 12.44
11/13/2020 9:30:00 AM 5.54 41.972 0.044 7.18 2.52 12.45
11/13/2020 9:45:00 AM 5.58 42.044 0.044 7.05 2.52 12.46
11/13/2020 10:00:00 AM 5.6